<?xml version="1.0" encoding="UTF-8" standalone="no" ?>
<gpx xmlns="http://www.topografix.com/GPX/1/1" xmlns:xsi="http://www.w3.org/2001/XMLSchema-instance" xsi:schemaLocation="http://www.topografix.com/GPX/1/1 http://www.topografix.com/GPX/1/1/gpx.xsd" version="1.1" creator="VisuGPX - https://www.visugpx.com">
  <metadata>
    <name>suuntoapp-SkiTouring-2021-03-08T08-54-30Z</name>
  </metadata>
  <trk>
    <name><![CDATA[suuntoapp-SkiTouring-2021-03-08T08-54-30Z]]></name>
    <trkseg>
      <trkpt lat="45.01819" lon="6.46671">
        <ele>1721</ele>
        <time>2021-03-08T08:54:31Z</time>
      </trkpt>
      <trkpt lat="45.0182" lon="6.4668">
        <ele>1721</ele>
        <time>2021-03-08T08:54:40Z</time>
      </trkpt>
      <trkpt lat="45.01823" lon="6.46694">
        <ele>1722</ele>
        <time>2021-03-08T08:54:55Z</time>
      </trkpt>
      <trkpt lat="45.01824" lon="6.46709">
        <ele>1725</ele>
        <time>2021-03-08T08:55:11Z</time>
      </trkpt>
      <trkpt lat="45.01823" lon="6.46719">
        <ele>1726</ele>
        <time>2021-03-08T08:55:22Z</time>
      </trkpt>
      <trkpt lat="45.01824" lon="6.46728">
        <ele>1729</ele>
        <time>2021-03-08T08:55:32Z</time>
      </trkpt>
      <trkpt lat="45.01826" lon="6.46741">
        <ele>1731</ele>
        <time>2021-03-08T08:55:46Z</time>
      </trkpt>
      <trkpt lat="45.01825" lon="6.46753">
        <ele>1732</ele>
        <time>2021-03-08T08:55:59Z</time>
      </trkpt>
      <trkpt lat="45.01826" lon="6.46767">
        <ele>1736</ele>
        <time>2021-03-08T08:56:13Z</time>
      </trkpt>
      <trkpt lat="45.01828" lon="6.4678">
        <ele>1738</ele>
        <time>2021-03-08T08:56:27Z</time>
      </trkpt>
      <trkpt lat="45.0182" lon="6.46777">
        <ele>1741</ele>
        <time>2021-03-08T08:56:45Z</time>
      </trkpt>
      <trkpt lat="45.01812" lon="6.46769">
        <ele>1743</ele>
        <time>2021-03-08T08:57:00Z</time>
      </trkpt>
      <trkpt lat="45.01809" lon="6.46777">
        <ele>1747</ele>
        <time>2021-03-08T08:57:15Z</time>
      </trkpt>
      <trkpt lat="45.01809" lon="6.46787">
        <ele>1747</ele>
        <time>2021-03-08T08:57:28Z</time>
      </trkpt>
      <trkpt lat="45.01812" lon="6.46797">
        <ele>1751</ele>
        <time>2021-03-08T08:57:44Z</time>
      </trkpt>
      <trkpt lat="45.01814" lon="6.4681">
        <ele>1753</ele>
        <time>2021-03-08T08:57:58Z</time>
      </trkpt>
      <trkpt lat="45.01814" lon="6.46817">
        <ele>1755</ele>
        <time>2021-03-08T08:58:07Z</time>
      </trkpt>
      <trkpt lat="45.01815" lon="6.46831">
        <ele>1758</ele>
        <time>2021-03-08T08:58:24Z</time>
      </trkpt>
      <trkpt lat="45.01815" lon="6.46837">
        <ele>1760</ele>
        <time>2021-03-08T08:58:31Z</time>
      </trkpt>
      <trkpt lat="45.01817" lon="6.46843">
        <ele>1760</ele>
        <time>2021-03-08T08:58:38Z</time>
      </trkpt>
      <trkpt lat="45.01818" lon="6.46848">
        <ele>1761</ele>
        <time>2021-03-08T08:58:45Z</time>
      </trkpt>
      <trkpt lat="45.01819" lon="6.46862">
        <ele>1764</ele>
        <time>2021-03-08T08:59:08Z</time>
      </trkpt>
      <trkpt lat="45.0181" lon="6.46857">
        <ele>1766</ele>
        <time>2021-03-08T08:59:23Z</time>
      </trkpt>
      <trkpt lat="45.01802" lon="6.46853">
        <ele>1768</ele>
        <time>2021-03-08T08:59:38Z</time>
      </trkpt>
      <trkpt lat="45.01794" lon="6.46857">
        <ele>1771</ele>
        <time>2021-03-08T08:59:51Z</time>
      </trkpt>
      <trkpt lat="45.01784" lon="6.4686">
        <ele>1773</ele>
        <time>2021-03-08T09:00:07Z</time>
      </trkpt>
      <trkpt lat="45.01779" lon="6.46858">
        <ele>1774</ele>
        <time>2021-03-08T09:00:15Z</time>
      </trkpt>
      <trkpt lat="45.01772" lon="6.46856">
        <ele>1775</ele>
        <time>2021-03-08T09:00:26Z</time>
      </trkpt>
      <trkpt lat="45.01765" lon="6.46857">
        <ele>1776</ele>
        <time>2021-03-08T09:00:38Z</time>
      </trkpt>
      <trkpt lat="45.01762" lon="6.46863">
        <ele>1781</ele>
        <time>2021-03-08T09:01:03Z</time>
      </trkpt>
      <trkpt lat="45.01766" lon="6.46867">
        <ele>1781</ele>
        <time>2021-03-08T09:01:09Z</time>
      </trkpt>
      <trkpt lat="45.0177" lon="6.46873">
        <ele>1782</ele>
        <time>2021-03-08T09:01:15Z</time>
      </trkpt>
      <trkpt lat="45.01776" lon="6.46882">
        <ele>1783</ele>
        <time>2021-03-08T09:01:26Z</time>
      </trkpt>
      <trkpt lat="45.01782" lon="6.46891">
        <ele>1784</ele>
        <time>2021-03-08T09:01:38Z</time>
      </trkpt>
      <trkpt lat="45.01788" lon="6.46899">
        <ele>1785</ele>
        <time>2021-03-08T09:01:50Z</time>
      </trkpt>
      <trkpt lat="45.01791" lon="6.46907">
        <ele>1787</ele>
        <time>2021-03-08T09:02:06Z</time>
      </trkpt>
      <trkpt lat="45.01797" lon="6.46915">
        <ele>1789</ele>
        <time>2021-03-08T09:02:18Z</time>
      </trkpt>
      <trkpt lat="45.01804" lon="6.46922">
        <ele>1790</ele>
        <time>2021-03-08T09:02:27Z</time>
      </trkpt>
      <trkpt lat="45.0181" lon="6.46931">
        <ele>1792</ele>
        <time>2021-03-08T09:02:35Z</time>
      </trkpt>
      <trkpt lat="45.01816" lon="6.4694">
        <ele>1794</ele>
        <time>2021-03-08T09:02:44Z</time>
      </trkpt>
      <trkpt lat="45.01817" lon="6.46945">
        <ele>1794</ele>
        <time>2021-03-08T09:02:49Z</time>
      </trkpt>
      <trkpt lat="45.01818" lon="6.46952">
        <ele>1794</ele>
        <time>2021-03-08T09:02:55Z</time>
      </trkpt>
      <trkpt lat="45.01818" lon="6.46957">
        <ele>1794</ele>
        <time>2021-03-08T09:03:00Z</time>
      </trkpt>
      <trkpt lat="45.01819" lon="6.46962">
        <ele>1795</ele>
        <time>2021-03-08T09:03:04Z</time>
      </trkpt>
      <trkpt lat="45.0182" lon="6.46967">
        <ele>1795</ele>
        <time>2021-03-08T09:03:09Z</time>
      </trkpt>
      <trkpt lat="45.01822" lon="6.46973">
        <ele>1796</ele>
        <time>2021-03-08T09:03:15Z</time>
      </trkpt>
      <trkpt lat="45.01823" lon="6.46979">
        <ele>1798</ele>
        <time>2021-03-08T09:03:21Z</time>
      </trkpt>
      <trkpt lat="45.01822" lon="6.46984">
        <ele>1798</ele>
        <time>2021-03-08T09:03:26Z</time>
      </trkpt>
      <trkpt lat="45.01824" lon="6.46988">
        <ele>1800</ele>
        <time>2021-03-08T09:03:31Z</time>
      </trkpt>
      <trkpt lat="45.01825" lon="6.46994">
        <ele>1800</ele>
        <time>2021-03-08T09:03:38Z</time>
      </trkpt>
      <trkpt lat="45.01827" lon="6.47">
        <ele>1802</ele>
        <time>2021-03-08T09:03:45Z</time>
      </trkpt>
      <trkpt lat="45.01829" lon="6.47005">
        <ele>1804</ele>
        <time>2021-03-08T09:03:51Z</time>
      </trkpt>
      <trkpt lat="45.01833" lon="6.47009">
        <ele>1804</ele>
        <time>2021-03-08T09:03:59Z</time>
      </trkpt>
      <trkpt lat="45.01837" lon="6.47012">
        <ele>1805</ele>
        <time>2021-03-08T09:04:05Z</time>
      </trkpt>
      <trkpt lat="45.01846" lon="6.47009">
        <ele>1808</ele>
        <time>2021-03-08T09:04:25Z</time>
      </trkpt>
      <trkpt lat="45.0185" lon="6.47007">
        <ele>1809</ele>
        <time>2021-03-08T09:04:33Z</time>
      </trkpt>
      <trkpt lat="45.01857" lon="6.47007">
        <ele>1810</ele>
        <time>2021-03-08T09:04:44Z</time>
      </trkpt>
      <trkpt lat="45.01862" lon="6.47003">
        <ele>1812</ele>
        <time>2021-03-08T09:04:53Z</time>
      </trkpt>
      <trkpt lat="45.01865" lon="6.46994">
        <ele>1814</ele>
        <time>2021-03-08T09:05:05Z</time>
      </trkpt>
      <trkpt lat="45.01868" lon="6.46984">
        <ele>1815</ele>
        <time>2021-03-08T09:05:18Z</time>
      </trkpt>
      <trkpt lat="45.01875" lon="6.46983">
        <ele>1818</ele>
        <time>2021-03-08T09:05:32Z</time>
      </trkpt>
      <trkpt lat="45.01879" lon="6.46997">
        <ele>1821</ele>
        <time>2021-03-08T09:05:56Z</time>
      </trkpt>
      <trkpt lat="45.01885" lon="6.47003">
        <ele>1824</ele>
        <time>2021-03-08T09:06:11Z</time>
      </trkpt>
      <trkpt lat="45.01889" lon="6.46994">
        <ele>1825</ele>
        <time>2021-03-08T09:06:28Z</time>
      </trkpt>
      <trkpt lat="45.01888" lon="6.46986">
        <ele>1829</ele>
        <time>2021-03-08T09:07:27Z</time>
      </trkpt>
      <trkpt lat="45.01895" lon="6.46985">
        <ele>1828</ele>
        <time>2021-03-08T09:08:02Z</time>
      </trkpt>
      <trkpt lat="45.01899" lon="6.46982">
        <ele>1829</ele>
        <time>2021-03-08T09:08:13Z</time>
      </trkpt>
      <trkpt lat="45.01907" lon="6.46985">
        <ele>1830</ele>
        <time>2021-03-08T09:09:32Z</time>
      </trkpt>
      <trkpt lat="45.01915" lon="6.46985">
        <ele>1831</ele>
        <time>2021-03-08T09:09:44Z</time>
      </trkpt>
      <trkpt lat="45.01923" lon="6.46984">
        <ele>1832</ele>
        <time>2021-03-08T09:09:55Z</time>
      </trkpt>
      <trkpt lat="45.01932" lon="6.46983">
        <ele>1834</ele>
        <time>2021-03-08T09:10:08Z</time>
      </trkpt>
      <trkpt lat="45.0194" lon="6.46982">
        <ele>1837</ele>
        <time>2021-03-08T09:10:21Z</time>
      </trkpt>
      <trkpt lat="45.01948" lon="6.46981">
        <ele>1839</ele>
        <time>2021-03-08T09:10:33Z</time>
      </trkpt>
      <trkpt lat="45.01953" lon="6.46983">
        <ele>1839</ele>
        <time>2021-03-08T09:10:40Z</time>
      </trkpt>
      <trkpt lat="45.01958" lon="6.46985">
        <ele>1840</ele>
        <time>2021-03-08T09:10:46Z</time>
      </trkpt>
      <trkpt lat="45.01962" lon="6.46988">
        <ele>1840</ele>
        <time>2021-03-08T09:10:50Z</time>
      </trkpt>
      <trkpt lat="45.01965" lon="6.46993">
        <ele>1842</ele>
        <time>2021-03-08T09:10:54Z</time>
      </trkpt>
      <trkpt lat="45.01967" lon="6.46999">
        <ele>1844</ele>
        <time>2021-03-08T09:11:01Z</time>
      </trkpt>
      <trkpt lat="45.01971" lon="6.47006">
        <ele>1844</ele>
        <time>2021-03-08T09:11:12Z</time>
      </trkpt>
      <trkpt lat="45.01975" lon="6.47006">
        <ele>1844</ele>
        <time>2021-03-08T09:11:16Z</time>
      </trkpt>
      <trkpt lat="45.01978" lon="6.47006">
        <ele>1844</ele>
        <time>2021-03-08T09:11:19Z</time>
      </trkpt>
      <trkpt lat="45.01984" lon="6.46999">
        <ele>1845</ele>
        <time>2021-03-08T09:11:30Z</time>
      </trkpt>
      <trkpt lat="45.01986" lon="6.46994">
        <ele>1846</ele>
        <time>2021-03-08T09:11:34Z</time>
      </trkpt>
      <trkpt lat="45.01988" lon="6.46991">
        <ele>1846</ele>
        <time>2021-03-08T09:11:37Z</time>
      </trkpt>
      <trkpt lat="45.0199" lon="6.46987">
        <ele>1846</ele>
        <time>2021-03-08T09:11:40Z</time>
      </trkpt>
      <trkpt lat="45.01994" lon="6.4698">
        <ele>1846</ele>
        <time>2021-03-08T09:11:48Z</time>
      </trkpt>
      <trkpt lat="45.01996" lon="6.46978">
        <ele>1847</ele>
        <time>2021-03-08T09:11:51Z</time>
      </trkpt>
      <trkpt lat="45.01998" lon="6.46977">
        <ele>1847</ele>
        <time>2021-03-08T09:11:53Z</time>
      </trkpt>
      <trkpt lat="45.02" lon="6.46976">
        <ele>1847</ele>
        <time>2021-03-08T09:11:55Z</time>
      </trkpt>
      <trkpt lat="45.02003" lon="6.46975">
        <ele>1847</ele>
        <time>2021-03-08T09:11:58Z</time>
      </trkpt>
      <trkpt lat="45.02006" lon="6.46975">
        <ele>1848</ele>
        <time>2021-03-08T09:12:01Z</time>
      </trkpt>
      <trkpt lat="45.02008" lon="6.46975">
        <ele>1848</ele>
        <time>2021-03-08T09:12:03Z</time>
      </trkpt>
      <trkpt lat="45.0201" lon="6.46975">
        <ele>1848</ele>
        <time>2021-03-08T09:12:06Z</time>
      </trkpt>
      <trkpt lat="45.02012" lon="6.46974">
        <ele>1848</ele>
        <time>2021-03-08T09:12:09Z</time>
      </trkpt>
      <trkpt lat="45.02014" lon="6.46974">
        <ele>1849</ele>
        <time>2021-03-08T09:12:13Z</time>
      </trkpt>
      <trkpt lat="45.02016" lon="6.46974">
        <ele>1849</ele>
        <time>2021-03-08T09:12:16Z</time>
      </trkpt>
      <trkpt lat="45.02019" lon="6.46974">
        <ele>1849</ele>
        <time>2021-03-08T09:12:19Z</time>
      </trkpt>
      <trkpt lat="45.02022" lon="6.46973">
        <ele>1849</ele>
        <time>2021-03-08T09:12:24Z</time>
      </trkpt>
      <trkpt lat="45.02025" lon="6.46973">
        <ele>1849</ele>
        <time>2021-03-08T09:12:27Z</time>
      </trkpt>
      <trkpt lat="45.02026" lon="6.46972">
        <ele>1849</ele>
        <time>2021-03-08T09:12:30Z</time>
      </trkpt>
      <trkpt lat="45.02029" lon="6.46973">
        <ele>1851</ele>
        <time>2021-03-08T09:12:33Z</time>
      </trkpt>
      <trkpt lat="45.02031" lon="6.46973">
        <ele>1851</ele>
        <time>2021-03-08T09:12:36Z</time>
      </trkpt>
      <trkpt lat="45.02033" lon="6.46973">
        <ele>1851</ele>
        <time>2021-03-08T09:12:39Z</time>
      </trkpt>
      <trkpt lat="45.02035" lon="6.46972">
        <ele>1852</ele>
        <time>2021-03-08T09:12:43Z</time>
      </trkpt>
      <trkpt lat="45.02037" lon="6.46973">
        <ele>1852</ele>
        <time>2021-03-08T09:12:46Z</time>
      </trkpt>
      <trkpt lat="45.02039" lon="6.46973">
        <ele>1852</ele>
        <time>2021-03-08T09:12:49Z</time>
      </trkpt>
      <trkpt lat="45.02041" lon="6.46974">
        <ele>1854</ele>
        <time>2021-03-08T09:12:52Z</time>
      </trkpt>
      <trkpt lat="45.02044" lon="6.46974">
        <ele>1854</ele>
        <time>2021-03-08T09:12:57Z</time>
      </trkpt>
      <trkpt lat="45.02046" lon="6.46974">
        <ele>1854</ele>
        <time>2021-03-08T09:13:00Z</time>
      </trkpt>
      <trkpt lat="45.02049" lon="6.46975">
        <ele>1855</ele>
        <time>2021-03-08T09:13:03Z</time>
      </trkpt>
      <trkpt lat="45.0205" lon="6.46976">
        <ele>1855</ele>
        <time>2021-03-08T09:13:05Z</time>
      </trkpt>
      <trkpt lat="45.02053" lon="6.46977">
        <ele>1855</ele>
        <time>2021-03-08T09:13:09Z</time>
      </trkpt>
      <trkpt lat="45.02056" lon="6.46978">
        <ele>1857</ele>
        <time>2021-03-08T09:13:14Z</time>
      </trkpt>
      <trkpt lat="45.02058" lon="6.46978">
        <ele>1857</ele>
        <time>2021-03-08T09:13:17Z</time>
      </trkpt>
      <trkpt lat="45.02062" lon="6.46981">
        <ele>1859</ele>
        <time>2021-03-08T09:13:23Z</time>
      </trkpt>
      <trkpt lat="45.02064" lon="6.46984">
        <ele>1859</ele>
        <time>2021-03-08T09:13:29Z</time>
      </trkpt>
      <trkpt lat="45.02068" lon="6.46989">
        <ele>1859</ele>
        <time>2021-03-08T09:13:39Z</time>
      </trkpt>
      <trkpt lat="45.02076" lon="6.46994">
        <ele>1863</ele>
        <time>2021-03-08T09:13:52Z</time>
      </trkpt>
      <trkpt lat="45.02084" lon="6.46996">
        <ele>1865</ele>
        <time>2021-03-08T09:14:03Z</time>
      </trkpt>
      <trkpt lat="45.02092" lon="6.46999">
        <ele>1866</ele>
        <time>2021-03-08T09:14:13Z</time>
      </trkpt>
      <trkpt lat="45.02097" lon="6.47001">
        <ele>1866</ele>
        <time>2021-03-08T09:14:19Z</time>
      </trkpt>
      <trkpt lat="45.02103" lon="6.47003">
        <ele>1866</ele>
        <time>2021-03-08T09:14:28Z</time>
      </trkpt>
      <trkpt lat="45.02105" lon="6.47003">
        <ele>1867</ele>
        <time>2021-03-08T09:14:31Z</time>
      </trkpt>
      <trkpt lat="45.02112" lon="6.47002">
        <ele>1867</ele>
        <time>2021-03-08T09:14:40Z</time>
      </trkpt>
      <trkpt lat="45.02117" lon="6.47001">
        <ele>1867</ele>
        <time>2021-03-08T09:14:47Z</time>
      </trkpt>
      <trkpt lat="45.0212" lon="6.47001">
        <ele>1867</ele>
        <time>2021-03-08T09:14:50Z</time>
      </trkpt>
      <trkpt lat="45.02121" lon="6.47">
        <ele>1867</ele>
        <time>2021-03-08T09:14:52Z</time>
      </trkpt>
      <trkpt lat="45.02124" lon="6.46999">
        <ele>1867</ele>
        <time>2021-03-08T09:14:56Z</time>
      </trkpt>
      <trkpt lat="45.02126" lon="6.46998">
        <ele>1867</ele>
        <time>2021-03-08T09:14:58Z</time>
      </trkpt>
      <trkpt lat="45.02127" lon="6.46998">
        <ele>1867</ele>
        <time>2021-03-08T09:15:00Z</time>
      </trkpt>
      <trkpt lat="45.02129" lon="6.46997">
        <ele>1868</ele>
        <time>2021-03-08T09:15:02Z</time>
      </trkpt>
      <trkpt lat="45.02132" lon="6.46996">
        <ele>1868</ele>
        <time>2021-03-08T09:15:06Z</time>
      </trkpt>
      <trkpt lat="45.02133" lon="6.46996">
        <ele>1868</ele>
        <time>2021-03-08T09:15:08Z</time>
      </trkpt>
      <trkpt lat="45.02135" lon="6.46995">
        <ele>1869</ele>
        <time>2021-03-08T09:15:11Z</time>
      </trkpt>
      <trkpt lat="45.02139" lon="6.46994">
        <ele>1869</ele>
        <time>2021-03-08T09:15:16Z</time>
      </trkpt>
      <trkpt lat="45.02143" lon="6.46992">
        <ele>1869</ele>
        <time>2021-03-08T09:15:21Z</time>
      </trkpt>
      <trkpt lat="45.02147" lon="6.46991">
        <ele>1869</ele>
        <time>2021-03-08T09:15:26Z</time>
      </trkpt>
      <trkpt lat="45.0215" lon="6.4699">
        <ele>1869</ele>
        <time>2021-03-08T09:15:30Z</time>
      </trkpt>
      <trkpt lat="45.02154" lon="6.46989">
        <ele>1871</ele>
        <time>2021-03-08T09:15:34Z</time>
      </trkpt>
      <trkpt lat="45.02158" lon="6.46988">
        <ele>1871</ele>
        <time>2021-03-08T09:15:39Z</time>
      </trkpt>
      <trkpt lat="45.02162" lon="6.46987">
        <ele>1872</ele>
        <time>2021-03-08T09:15:44Z</time>
      </trkpt>
      <trkpt lat="45.02165" lon="6.46986">
        <ele>1872</ele>
        <time>2021-03-08T09:15:49Z</time>
      </trkpt>
      <trkpt lat="45.02169" lon="6.46985">
        <ele>1872</ele>
        <time>2021-03-08T09:15:54Z</time>
      </trkpt>
      <trkpt lat="45.0217" lon="6.46985">
        <ele>1872</ele>
        <time>2021-03-08T09:15:56Z</time>
      </trkpt>
      <trkpt lat="45.02172" lon="6.46984">
        <ele>1872</ele>
        <time>2021-03-08T09:15:58Z</time>
      </trkpt>
      <trkpt lat="45.02175" lon="6.46984">
        <ele>1874</ele>
        <time>2021-03-08T09:16:02Z</time>
      </trkpt>
      <trkpt lat="45.02177" lon="6.46983">
        <ele>1874</ele>
        <time>2021-03-08T09:16:04Z</time>
      </trkpt>
      <trkpt lat="45.0218" lon="6.46983">
        <ele>1874</ele>
        <time>2021-03-08T09:16:07Z</time>
      </trkpt>
      <trkpt lat="45.02181" lon="6.46983">
        <ele>1874</ele>
        <time>2021-03-08T09:16:09Z</time>
      </trkpt>
      <trkpt lat="45.02184" lon="6.46983">
        <ele>1874</ele>
        <time>2021-03-08T09:16:12Z</time>
      </trkpt>
      <trkpt lat="45.02187" lon="6.46983">
        <ele>1874</ele>
        <time>2021-03-08T09:16:16Z</time>
      </trkpt>
      <trkpt lat="45.02191" lon="6.46982">
        <ele>1875</ele>
        <time>2021-03-08T09:16:21Z</time>
      </trkpt>
      <trkpt lat="45.02194" lon="6.46983">
        <ele>1875</ele>
        <time>2021-03-08T09:16:25Z</time>
      </trkpt>
      <trkpt lat="45.02196" lon="6.46983">
        <ele>1875</ele>
        <time>2021-03-08T09:16:28Z</time>
      </trkpt>
      <trkpt lat="45.02199" lon="6.46984">
        <ele>1875</ele>
        <time>2021-03-08T09:16:31Z</time>
      </trkpt>
      <trkpt lat="45.02202" lon="6.46984">
        <ele>1875</ele>
        <time>2021-03-08T09:16:35Z</time>
      </trkpt>
      <trkpt lat="45.02205" lon="6.46985">
        <ele>1875</ele>
        <time>2021-03-08T09:16:38Z</time>
      </trkpt>
      <trkpt lat="45.02212" lon="6.46988">
        <ele>1876</ele>
        <time>2021-03-08T09:16:45Z</time>
      </trkpt>
      <trkpt lat="45.02218" lon="6.46991">
        <ele>1876</ele>
        <time>2021-03-08T09:16:52Z</time>
      </trkpt>
      <trkpt lat="45.02224" lon="6.46993">
        <ele>1876</ele>
        <time>2021-03-08T09:16:59Z</time>
      </trkpt>
      <trkpt lat="45.02233" lon="6.46996">
        <ele>1877</ele>
        <time>2021-03-08T09:17:08Z</time>
      </trkpt>
      <trkpt lat="45.02236" lon="6.46996">
        <ele>1877</ele>
        <time>2021-03-08T09:17:12Z</time>
      </trkpt>
      <trkpt lat="45.02238" lon="6.46997">
        <ele>1877</ele>
        <time>2021-03-08T09:17:14Z</time>
      </trkpt>
      <trkpt lat="45.02241" lon="6.46998">
        <ele>1877</ele>
        <time>2021-03-08T09:17:17Z</time>
      </trkpt>
      <trkpt lat="45.02245" lon="6.46999">
        <ele>1878</ele>
        <time>2021-03-08T09:17:22Z</time>
      </trkpt>
      <trkpt lat="45.02247" lon="6.46999">
        <ele>1878</ele>
        <time>2021-03-08T09:17:24Z</time>
      </trkpt>
      <trkpt lat="45.02249" lon="6.46999">
        <ele>1878</ele>
        <time>2021-03-08T09:17:26Z</time>
      </trkpt>
      <trkpt lat="45.02251" lon="6.47">
        <ele>1878</ele>
        <time>2021-03-08T09:17:28Z</time>
      </trkpt>
      <trkpt lat="45.02255" lon="6.47">
        <ele>1878</ele>
        <time>2021-03-08T09:17:32Z</time>
      </trkpt>
      <trkpt lat="45.02257" lon="6.47">
        <ele>1878</ele>
        <time>2021-03-08T09:17:35Z</time>
      </trkpt>
      <trkpt lat="45.02262" lon="6.47001">
        <ele>1878</ele>
        <time>2021-03-08T09:17:41Z</time>
      </trkpt>
      <trkpt lat="45.02266" lon="6.47001">
        <ele>1878</ele>
        <time>2021-03-08T09:17:46Z</time>
      </trkpt>
      <trkpt lat="45.02271" lon="6.47001">
        <ele>1879</ele>
        <time>2021-03-08T09:17:52Z</time>
      </trkpt>
      <trkpt lat="45.02275" lon="6.47001">
        <ele>1879</ele>
        <time>2021-03-08T09:17:58Z</time>
      </trkpt>
      <trkpt lat="45.02283" lon="6.47001">
        <ele>1880</ele>
        <time>2021-03-08T09:18:08Z</time>
      </trkpt>
      <trkpt lat="45.0229" lon="6.47">
        <ele>1881</ele>
        <time>2021-03-08T09:18:18Z</time>
      </trkpt>
      <trkpt lat="45.02296" lon="6.46998">
        <ele>1883</ele>
        <time>2021-03-08T09:18:29Z</time>
      </trkpt>
      <trkpt lat="45.02302" lon="6.46996">
        <ele>1884</ele>
        <time>2021-03-08T09:18:38Z</time>
      </trkpt>
      <trkpt lat="45.02309" lon="6.46998">
        <ele>1886</ele>
        <time>2021-03-08T09:18:51Z</time>
      </trkpt>
      <trkpt lat="45.02316" lon="6.47">
        <ele>1889</ele>
        <time>2021-03-08T09:19:01Z</time>
      </trkpt>
      <trkpt lat="45.02322" lon="6.47003">
        <ele>1889</ele>
        <time>2021-03-08T09:19:08Z</time>
      </trkpt>
      <trkpt lat="45.02328" lon="6.47006">
        <ele>1889</ele>
        <time>2021-03-08T09:19:17Z</time>
      </trkpt>
      <trkpt lat="45.02333" lon="6.4701">
        <ele>1890</ele>
        <time>2021-03-08T09:19:24Z</time>
      </trkpt>
      <trkpt lat="45.02338" lon="6.47015">
        <ele>1890</ele>
        <time>2021-03-08T09:19:32Z</time>
      </trkpt>
      <trkpt lat="45.02343" lon="6.47019">
        <ele>1890</ele>
        <time>2021-03-08T09:19:40Z</time>
      </trkpt>
      <trkpt lat="45.02349" lon="6.47023">
        <ele>1891</ele>
        <time>2021-03-08T09:19:47Z</time>
      </trkpt>
      <trkpt lat="45.02351" lon="6.47025">
        <ele>1892</ele>
        <time>2021-03-08T09:19:58Z</time>
      </trkpt>
      <trkpt lat="45.02354" lon="6.47028">
        <ele>1892</ele>
        <time>2021-03-08T09:21:19Z</time>
      </trkpt>
      <trkpt lat="45.02359" lon="6.47034">
        <ele>1892</ele>
        <time>2021-03-08T09:21:28Z</time>
      </trkpt>
      <trkpt lat="45.02364" lon="6.47041">
        <ele>1893</ele>
        <time>2021-03-08T09:21:36Z</time>
      </trkpt>
      <trkpt lat="45.02368" lon="6.47049">
        <ele>1894</ele>
        <time>2021-03-08T09:21:45Z</time>
      </trkpt>
      <trkpt lat="45.02373" lon="6.47057">
        <ele>1894</ele>
        <time>2021-03-08T09:21:55Z</time>
      </trkpt>
      <trkpt lat="45.02376" lon="6.47063">
        <ele>1896</ele>
        <time>2021-03-08T09:22:03Z</time>
      </trkpt>
      <trkpt lat="45.0238" lon="6.47072">
        <ele>1896</ele>
        <time>2021-03-08T09:22:12Z</time>
      </trkpt>
      <trkpt lat="45.02384" lon="6.47076">
        <ele>1896</ele>
        <time>2021-03-08T09:22:17Z</time>
      </trkpt>
      <trkpt lat="45.02387" lon="6.4708">
        <ele>1898</ele>
        <time>2021-03-08T09:22:22Z</time>
      </trkpt>
      <trkpt lat="45.02391" lon="6.47093">
        <ele>1898</ele>
        <time>2021-03-08T09:22:35Z</time>
      </trkpt>
      <trkpt lat="45.02397" lon="6.47104">
        <ele>1899</ele>
        <time>2021-03-08T09:22:48Z</time>
      </trkpt>
      <trkpt lat="45.02399" lon="6.47108">
        <ele>1900</ele>
        <time>2021-03-08T09:22:53Z</time>
      </trkpt>
      <trkpt lat="45.02401" lon="6.47113">
        <ele>1900</ele>
        <time>2021-03-08T09:22:59Z</time>
      </trkpt>
      <trkpt lat="45.02404" lon="6.47122">
        <ele>1901</ele>
        <time>2021-03-08T09:23:10Z</time>
      </trkpt>
      <trkpt lat="45.02405" lon="6.47126">
        <ele>1903</ele>
        <time>2021-03-08T09:23:13Z</time>
      </trkpt>
      <trkpt lat="45.02407" lon="6.47128">
        <ele>1903</ele>
        <time>2021-03-08T09:23:16Z</time>
      </trkpt>
      <trkpt lat="45.0241" lon="6.47135">
        <ele>1903</ele>
        <time>2021-03-08T09:23:22Z</time>
      </trkpt>
      <trkpt lat="45.02412" lon="6.4714">
        <ele>1903</ele>
        <time>2021-03-08T09:23:28Z</time>
      </trkpt>
      <trkpt lat="45.02413" lon="6.47144">
        <ele>1904</ele>
        <time>2021-03-08T09:23:32Z</time>
      </trkpt>
      <trkpt lat="45.02415" lon="6.47148">
        <ele>1904</ele>
        <time>2021-03-08T09:23:38Z</time>
      </trkpt>
      <trkpt lat="45.0242" lon="6.4716">
        <ele>1907</ele>
        <time>2021-03-08T09:23:51Z</time>
      </trkpt>
      <trkpt lat="45.02421" lon="6.47164">
        <ele>1907</ele>
        <time>2021-03-08T09:23:55Z</time>
      </trkpt>
      <trkpt lat="45.02423" lon="6.47172">
        <ele>1908</ele>
        <time>2021-03-08T09:24:03Z</time>
      </trkpt>
      <trkpt lat="45.02426" lon="6.47179">
        <ele>1909</ele>
        <time>2021-03-08T09:24:12Z</time>
      </trkpt>
      <trkpt lat="45.02428" lon="6.47185">
        <ele>1909</ele>
        <time>2021-03-08T09:24:19Z</time>
      </trkpt>
      <trkpt lat="45.0243" lon="6.47189">
        <ele>1910</ele>
        <time>2021-03-08T09:24:24Z</time>
      </trkpt>
      <trkpt lat="45.02432" lon="6.47195">
        <ele>1910</ele>
        <time>2021-03-08T09:24:30Z</time>
      </trkpt>
      <trkpt lat="45.02433" lon="6.47197">
        <ele>1911</ele>
        <time>2021-03-08T09:24:33Z</time>
      </trkpt>
      <trkpt lat="45.02434" lon="6.472">
        <ele>1911</ele>
        <time>2021-03-08T09:24:36Z</time>
      </trkpt>
      <trkpt lat="45.02435" lon="6.47203">
        <ele>1911</ele>
        <time>2021-03-08T09:24:39Z</time>
      </trkpt>
      <trkpt lat="45.02435" lon="6.47206">
        <ele>1912</ele>
        <time>2021-03-08T09:24:43Z</time>
      </trkpt>
      <trkpt lat="45.02437" lon="6.47209">
        <ele>1912</ele>
        <time>2021-03-08T09:24:46Z</time>
      </trkpt>
      <trkpt lat="45.02438" lon="6.47212">
        <ele>1912</ele>
        <time>2021-03-08T09:24:49Z</time>
      </trkpt>
      <trkpt lat="45.02439" lon="6.47215">
        <ele>1913</ele>
        <time>2021-03-08T09:24:52Z</time>
      </trkpt>
      <trkpt lat="45.02441" lon="6.47221">
        <ele>1913</ele>
        <time>2021-03-08T09:24:59Z</time>
      </trkpt>
      <trkpt lat="45.02443" lon="6.47224">
        <ele>1914</ele>
        <time>2021-03-08T09:25:03Z</time>
      </trkpt>
      <trkpt lat="45.02445" lon="6.47237">
        <ele>1915</ele>
        <time>2021-03-08T09:25:17Z</time>
      </trkpt>
      <trkpt lat="45.02447" lon="6.47241">
        <ele>1916</ele>
        <time>2021-03-08T09:25:23Z</time>
      </trkpt>
      <trkpt lat="45.02448" lon="6.47244">
        <ele>1916</ele>
        <time>2021-03-08T09:25:27Z</time>
      </trkpt>
      <trkpt lat="45.02451" lon="6.47248">
        <ele>1917</ele>
        <time>2021-03-08T09:25:32Z</time>
      </trkpt>
      <trkpt lat="45.02453" lon="6.47252">
        <ele>1917</ele>
        <time>2021-03-08T09:25:37Z</time>
      </trkpt>
      <trkpt lat="45.02455" lon="6.47255">
        <ele>1919</ele>
        <time>2021-03-08T09:25:42Z</time>
      </trkpt>
      <trkpt lat="45.02457" lon="6.47259">
        <ele>1919</ele>
        <time>2021-03-08T09:25:47Z</time>
      </trkpt>
      <trkpt lat="45.02458" lon="6.47262">
        <ele>1920</ele>
        <time>2021-03-08T09:25:51Z</time>
      </trkpt>
      <trkpt lat="45.02459" lon="6.47268">
        <ele>1920</ele>
        <time>2021-03-08T09:25:58Z</time>
      </trkpt>
      <trkpt lat="45.02462" lon="6.47275">
        <ele>1921</ele>
        <time>2021-03-08T09:26:06Z</time>
      </trkpt>
      <trkpt lat="45.02463" lon="6.47279">
        <ele>1921</ele>
        <time>2021-03-08T09:26:11Z</time>
      </trkpt>
      <trkpt lat="45.02465" lon="6.47282">
        <ele>1921</ele>
        <time>2021-03-08T09:26:15Z</time>
      </trkpt>
      <trkpt lat="45.02467" lon="6.47288">
        <ele>1923</ele>
        <time>2021-03-08T09:26:22Z</time>
      </trkpt>
      <trkpt lat="45.02468" lon="6.47291">
        <ele>1923</ele>
        <time>2021-03-08T09:26:26Z</time>
      </trkpt>
      <trkpt lat="45.02469" lon="6.47295">
        <ele>1924</ele>
        <time>2021-03-08T09:26:33Z</time>
      </trkpt>
      <trkpt lat="45.02471" lon="6.47298">
        <ele>1924</ele>
        <time>2021-03-08T09:26:37Z</time>
      </trkpt>
      <trkpt lat="45.02473" lon="6.473">
        <ele>1924</ele>
        <time>2021-03-08T09:26:40Z</time>
      </trkpt>
      <trkpt lat="45.02474" lon="6.47303">
        <ele>1926</ele>
        <time>2021-03-08T09:26:43Z</time>
      </trkpt>
      <trkpt lat="45.02476" lon="6.47306">
        <ele>1926</ele>
        <time>2021-03-08T09:26:47Z</time>
      </trkpt>
      <trkpt lat="45.02477" lon="6.47309">
        <ele>1926</ele>
        <time>2021-03-08T09:26:50Z</time>
      </trkpt>
      <trkpt lat="45.02478" lon="6.47312">
        <ele>1927</ele>
        <time>2021-03-08T09:26:53Z</time>
      </trkpt>
      <trkpt lat="45.0248" lon="6.47315">
        <ele>1927</ele>
        <time>2021-03-08T09:26:57Z</time>
      </trkpt>
      <trkpt lat="45.02481" lon="6.47317">
        <ele>1927</ele>
        <time>2021-03-08T09:27:00Z</time>
      </trkpt>
      <trkpt lat="45.02482" lon="6.47321">
        <ele>1928</ele>
        <time>2021-03-08T09:27:04Z</time>
      </trkpt>
      <trkpt lat="45.02483" lon="6.47323">
        <ele>1928</ele>
        <time>2021-03-08T09:27:07Z</time>
      </trkpt>
      <trkpt lat="45.02485" lon="6.47326">
        <ele>1928</ele>
        <time>2021-03-08T09:27:10Z</time>
      </trkpt>
      <trkpt lat="45.02486" lon="6.47329">
        <ele>1930</ele>
        <time>2021-03-08T09:27:14Z</time>
      </trkpt>
      <trkpt lat="45.02487" lon="6.47332">
        <ele>1930</ele>
        <time>2021-03-08T09:27:18Z</time>
      </trkpt>
      <trkpt lat="45.02487" lon="6.47335">
        <ele>1933</ele>
        <time>2021-03-08T09:27:22Z</time>
      </trkpt>
      <trkpt lat="45.02488" lon="6.47339">
        <ele>1933</ele>
        <time>2021-03-08T09:27:26Z</time>
      </trkpt>
      <trkpt lat="45.0249" lon="6.47342">
        <ele>1933</ele>
        <time>2021-03-08T09:27:30Z</time>
      </trkpt>
      <trkpt lat="45.02491" lon="6.47346">
        <ele>1933</ele>
        <time>2021-03-08T09:27:36Z</time>
      </trkpt>
      <trkpt lat="45.02493" lon="6.47351">
        <ele>1934</ele>
        <time>2021-03-08T09:27:42Z</time>
      </trkpt>
      <trkpt lat="45.02493" lon="6.47355">
        <ele>1934</ele>
        <time>2021-03-08T09:27:47Z</time>
      </trkpt>
      <trkpt lat="45.02494" lon="6.4736">
        <ele>1935</ele>
        <time>2021-03-08T09:27:53Z</time>
      </trkpt>
      <trkpt lat="45.02495" lon="6.47363">
        <ele>1935</ele>
        <time>2021-03-08T09:27:56Z</time>
      </trkpt>
      <trkpt lat="45.02497" lon="6.47368">
        <ele>1937</ele>
        <time>2021-03-08T09:28:02Z</time>
      </trkpt>
      <trkpt lat="45.02497" lon="6.47371">
        <ele>1937</ele>
        <time>2021-03-08T09:28:06Z</time>
      </trkpt>
      <trkpt lat="45.02498" lon="6.47376">
        <ele>1938</ele>
        <time>2021-03-08T09:28:12Z</time>
      </trkpt>
      <trkpt lat="45.02499" lon="6.47379">
        <ele>1938</ele>
        <time>2021-03-08T09:28:16Z</time>
      </trkpt>
      <trkpt lat="45.025" lon="6.47382">
        <ele>1940</ele>
        <time>2021-03-08T09:28:21Z</time>
      </trkpt>
      <trkpt lat="45.025" lon="6.47386">
        <ele>1940</ele>
        <time>2021-03-08T09:28:25Z</time>
      </trkpt>
      <trkpt lat="45.02501" lon="6.47389">
        <ele>1940</ele>
        <time>2021-03-08T09:28:29Z</time>
      </trkpt>
      <trkpt lat="45.02501" lon="6.47392">
        <ele>1941</ele>
        <time>2021-03-08T09:28:33Z</time>
      </trkpt>
      <trkpt lat="45.02502" lon="6.47395">
        <ele>1941</ele>
        <time>2021-03-08T09:28:37Z</time>
      </trkpt>
      <trkpt lat="45.02503" lon="6.47399">
        <ele>1942</ele>
        <time>2021-03-08T09:28:41Z</time>
      </trkpt>
      <trkpt lat="45.02503" lon="6.47402">
        <ele>1942</ele>
        <time>2021-03-08T09:28:45Z</time>
      </trkpt>
      <trkpt lat="45.02505" lon="6.47409">
        <ele>1944</ele>
        <time>2021-03-08T09:28:53Z</time>
      </trkpt>
      <trkpt lat="45.02506" lon="6.47413">
        <ele>1944</ele>
        <time>2021-03-08T09:28:58Z</time>
      </trkpt>
      <trkpt lat="45.02508" lon="6.47419">
        <ele>1945</ele>
        <time>2021-03-08T09:29:06Z</time>
      </trkpt>
      <trkpt lat="45.0251" lon="6.47428">
        <ele>1947</ele>
        <time>2021-03-08T09:29:17Z</time>
      </trkpt>
      <trkpt lat="45.02515" lon="6.47439">
        <ele>1951</ele>
        <time>2021-03-08T09:29:31Z</time>
      </trkpt>
      <trkpt lat="45.02519" lon="6.47446">
        <ele>1951</ele>
        <time>2021-03-08T09:29:39Z</time>
      </trkpt>
      <trkpt lat="45.02521" lon="6.47453">
        <ele>1950</ele>
        <time>2021-03-08T09:29:48Z</time>
      </trkpt>
      <trkpt lat="45.02524" lon="6.4746">
        <ele>1952</ele>
        <time>2021-03-08T09:29:56Z</time>
      </trkpt>
      <trkpt lat="45.02529" lon="6.47471">
        <ele>1954</ele>
        <time>2021-03-08T09:30:10Z</time>
      </trkpt>
      <trkpt lat="45.02532" lon="6.47483">
        <ele>1956</ele>
        <time>2021-03-08T09:30:24Z</time>
      </trkpt>
      <trkpt lat="45.02537" lon="6.47493">
        <ele>1956</ele>
        <time>2021-03-08T09:30:36Z</time>
      </trkpt>
      <trkpt lat="45.0254" lon="6.47506">
        <ele>1960</ele>
        <time>2021-03-08T09:30:52Z</time>
      </trkpt>
      <trkpt lat="45.02544" lon="6.47517">
        <ele>1963</ele>
        <time>2021-03-08T09:31:05Z</time>
      </trkpt>
      <trkpt lat="45.02547" lon="6.47528">
        <ele>1964</ele>
        <time>2021-03-08T09:31:24Z</time>
      </trkpt>
      <trkpt lat="45.0255" lon="6.4754">
        <ele>1966</ele>
        <time>2021-03-08T09:31:38Z</time>
      </trkpt>
      <trkpt lat="45.02554" lon="6.47548">
        <ele>1968</ele>
        <time>2021-03-08T09:31:52Z</time>
      </trkpt>
      <trkpt lat="45.02556" lon="6.47559">
        <ele>1970</ele>
        <time>2021-03-08T09:32:05Z</time>
      </trkpt>
      <trkpt lat="45.0256" lon="6.4757">
        <ele>1972</ele>
        <time>2021-03-08T09:32:19Z</time>
      </trkpt>
      <trkpt lat="45.02565" lon="6.47581">
        <ele>1975</ele>
        <time>2021-03-08T09:32:33Z</time>
      </trkpt>
      <trkpt lat="45.02568" lon="6.47591">
        <ele>1976</ele>
        <time>2021-03-08T09:32:47Z</time>
      </trkpt>
      <trkpt lat="45.02572" lon="6.47602">
        <ele>1980</ele>
        <time>2021-03-08T09:33:06Z</time>
      </trkpt>
      <trkpt lat="45.02575" lon="6.47612">
        <ele>1980</ele>
        <time>2021-03-08T09:33:18Z</time>
      </trkpt>
      <trkpt lat="45.02577" lon="6.47624">
        <ele>1983</ele>
        <time>2021-03-08T09:33:33Z</time>
      </trkpt>
      <trkpt lat="45.0258" lon="6.47634">
        <ele>1985</ele>
        <time>2021-03-08T09:33:44Z</time>
      </trkpt>
      <trkpt lat="45.02582" lon="6.47644">
        <ele>1987</ele>
        <time>2021-03-08T09:33:57Z</time>
      </trkpt>
      <trkpt lat="45.02584" lon="6.47653">
        <ele>1987</ele>
        <time>2021-03-08T09:34:09Z</time>
      </trkpt>
      <trkpt lat="45.02585" lon="6.47665">
        <ele>1990</ele>
        <time>2021-03-08T09:34:26Z</time>
      </trkpt>
      <trkpt lat="45.02587" lon="6.47677">
        <ele>1995</ele>
        <time>2021-03-08T09:34:41Z</time>
      </trkpt>
      <trkpt lat="45.0259" lon="6.47688">
        <ele>1996</ele>
        <time>2021-03-08T09:34:56Z</time>
      </trkpt>
      <trkpt lat="45.02593" lon="6.47699">
        <ele>1997</ele>
        <time>2021-03-08T09:35:12Z</time>
      </trkpt>
      <trkpt lat="45.02597" lon="6.47711">
        <ele>1999</ele>
        <time>2021-03-08T09:35:29Z</time>
      </trkpt>
      <trkpt lat="45.02601" lon="6.47722">
        <ele>2003</ele>
        <time>2021-03-08T09:35:44Z</time>
      </trkpt>
      <trkpt lat="45.02601" lon="6.47728">
        <ele>2005</ele>
        <time>2021-03-08T09:36:21Z</time>
      </trkpt>
      <trkpt lat="45.02603" lon="6.47738">
        <ele>2006</ele>
        <time>2021-03-08T09:36:38Z</time>
      </trkpt>
      <trkpt lat="45.02606" lon="6.47746">
        <ele>2011</ele>
        <time>2021-03-08T09:37:18Z</time>
      </trkpt>
      <trkpt lat="45.02608" lon="6.47758">
        <ele>2012</ele>
        <time>2021-03-08T09:37:33Z</time>
      </trkpt>
      <trkpt lat="45.02609" lon="6.47768">
        <ele>2014</ele>
        <time>2021-03-08T09:37:49Z</time>
      </trkpt>
      <trkpt lat="45.02612" lon="6.47778">
        <ele>2017</ele>
        <time>2021-03-08T09:38:04Z</time>
      </trkpt>
      <trkpt lat="45.02612" lon="6.47786">
        <ele>2019</ele>
        <time>2021-03-08T09:38:15Z</time>
      </trkpt>
      <trkpt lat="45.02613" lon="6.47789">
        <ele>2019</ele>
        <time>2021-03-08T09:38:19Z</time>
      </trkpt>
      <trkpt lat="45.02613" lon="6.47792">
        <ele>2019</ele>
        <time>2021-03-08T09:38:23Z</time>
      </trkpt>
      <trkpt lat="45.02613" lon="6.47795">
        <ele>2019</ele>
        <time>2021-03-08T09:38:27Z</time>
      </trkpt>
      <trkpt lat="45.02614" lon="6.47797">
        <ele>2021</ele>
        <time>2021-03-08T09:38:31Z</time>
      </trkpt>
      <trkpt lat="45.02614" lon="6.47807">
        <ele>2023</ele>
        <time>2021-03-08T09:38:46Z</time>
      </trkpt>
      <trkpt lat="45.02616" lon="6.47813">
        <ele>2024</ele>
        <time>2021-03-08T09:38:59Z</time>
      </trkpt>
      <trkpt lat="45.02617" lon="6.47816">
        <ele>2025</ele>
        <time>2021-03-08T09:39:04Z</time>
      </trkpt>
      <trkpt lat="45.02618" lon="6.4782">
        <ele>2027</ele>
        <time>2021-03-08T09:39:11Z</time>
      </trkpt>
      <trkpt lat="45.02618" lon="6.47823">
        <ele>2027</ele>
        <time>2021-03-08T09:39:16Z</time>
      </trkpt>
      <trkpt lat="45.02619" lon="6.47827">
        <ele>2028</ele>
        <time>2021-03-08T09:39:22Z</time>
      </trkpt>
      <trkpt lat="45.02621" lon="6.47833">
        <ele>2030</ele>
        <time>2021-03-08T09:39:32Z</time>
      </trkpt>
      <trkpt lat="45.02621" lon="6.47836">
        <ele>2030</ele>
        <time>2021-03-08T09:39:37Z</time>
      </trkpt>
      <trkpt lat="45.02623" lon="6.47839">
        <ele>2031</ele>
        <time>2021-03-08T09:39:42Z</time>
      </trkpt>
      <trkpt lat="45.02623" lon="6.47844">
        <ele>2031</ele>
        <time>2021-03-08T09:39:49Z</time>
      </trkpt>
      <trkpt lat="45.02625" lon="6.47848">
        <ele>2033</ele>
        <time>2021-03-08T09:39:55Z</time>
      </trkpt>
      <trkpt lat="45.02626" lon="6.47851">
        <ele>2033</ele>
        <time>2021-03-08T09:40:00Z</time>
      </trkpt>
      <trkpt lat="45.02627" lon="6.47855">
        <ele>2034</ele>
        <time>2021-03-08T09:40:07Z</time>
      </trkpt>
      <trkpt lat="45.02627" lon="6.47858">
        <ele>2036</ele>
        <time>2021-03-08T09:40:14Z</time>
      </trkpt>
      <trkpt lat="45.02629" lon="6.47862">
        <ele>2036</ele>
        <time>2021-03-08T09:40:20Z</time>
      </trkpt>
      <trkpt lat="45.0263" lon="6.4787">
        <ele>2039</ele>
        <time>2021-03-08T09:40:32Z</time>
      </trkpt>
      <trkpt lat="45.02631" lon="6.47876">
        <ele>2041</ele>
        <time>2021-03-08T09:40:41Z</time>
      </trkpt>
      <trkpt lat="45.02632" lon="6.4788">
        <ele>2041</ele>
        <time>2021-03-08T09:40:47Z</time>
      </trkpt>
      <trkpt lat="45.02635" lon="6.47887">
        <ele>2043</ele>
        <time>2021-03-08T09:40:58Z</time>
      </trkpt>
      <trkpt lat="45.02633" lon="6.47891">
        <ele>2044</ele>
        <time>2021-03-08T09:41:07Z</time>
      </trkpt>
      <trkpt lat="45.02632" lon="6.47895">
        <ele>2046</ele>
        <time>2021-03-08T09:41:22Z</time>
      </trkpt>
      <trkpt lat="45.02628" lon="6.479">
        <ele>2048</ele>
        <time>2021-03-08T09:41:33Z</time>
      </trkpt>
      <trkpt lat="45.02626" lon="6.47903">
        <ele>2048</ele>
        <time>2021-03-08T09:41:38Z</time>
      </trkpt>
      <trkpt lat="45.02625" lon="6.47909">
        <ele>2051</ele>
        <time>2021-03-08T09:41:51Z</time>
      </trkpt>
      <trkpt lat="45.02628" lon="6.47913">
        <ele>2051</ele>
        <time>2021-03-08T09:41:57Z</time>
      </trkpt>
      <trkpt lat="45.0263" lon="6.47915">
        <ele>2051</ele>
        <time>2021-03-08T09:42:00Z</time>
      </trkpt>
      <trkpt lat="45.02631" lon="6.47917">
        <ele>2052</ele>
        <time>2021-03-08T09:42:03Z</time>
      </trkpt>
      <trkpt lat="45.02633" lon="6.47919">
        <ele>2052</ele>
        <time>2021-03-08T09:42:06Z</time>
      </trkpt>
      <trkpt lat="45.02634" lon="6.47921">
        <ele>2052</ele>
        <time>2021-03-08T09:42:10Z</time>
      </trkpt>
      <trkpt lat="45.02635" lon="6.47924">
        <ele>2054</ele>
        <time>2021-03-08T09:42:15Z</time>
      </trkpt>
      <trkpt lat="45.02636" lon="6.47926">
        <ele>2054</ele>
        <time>2021-03-08T09:42:19Z</time>
      </trkpt>
      <trkpt lat="45.02638" lon="6.47928">
        <ele>2055</ele>
        <time>2021-03-08T09:42:24Z</time>
      </trkpt>
      <trkpt lat="45.02639" lon="6.47931">
        <ele>2055</ele>
        <time>2021-03-08T09:42:29Z</time>
      </trkpt>
      <trkpt lat="45.0264" lon="6.47933">
        <ele>2055</ele>
        <time>2021-03-08T09:42:33Z</time>
      </trkpt>
      <trkpt lat="45.02641" lon="6.47936">
        <ele>2055</ele>
        <time>2021-03-08T09:42:37Z</time>
      </trkpt>
      <trkpt lat="45.02643" lon="6.47937">
        <ele>2055</ele>
        <time>2021-03-08T09:42:40Z</time>
      </trkpt>
      <trkpt lat="45.02644" lon="6.47938">
        <ele>2057</ele>
        <time>2021-03-08T09:42:43Z</time>
      </trkpt>
      <trkpt lat="45.02646" lon="6.4794">
        <ele>2057</ele>
        <time>2021-03-08T09:42:47Z</time>
      </trkpt>
      <trkpt lat="45.02647" lon="6.47942">
        <ele>2059</ele>
        <time>2021-03-08T09:42:51Z</time>
      </trkpt>
      <trkpt lat="45.02649" lon="6.47944">
        <ele>2059</ele>
        <time>2021-03-08T09:42:54Z</time>
      </trkpt>
      <trkpt lat="45.0265" lon="6.47946">
        <ele>2059</ele>
        <time>2021-03-08T09:42:59Z</time>
      </trkpt>
      <trkpt lat="45.02652" lon="6.47948">
        <ele>2061</ele>
        <time>2021-03-08T09:43:03Z</time>
      </trkpt>
      <trkpt lat="45.02654" lon="6.4795">
        <ele>2061</ele>
        <time>2021-03-08T09:43:09Z</time>
      </trkpt>
      <trkpt lat="45.02654" lon="6.47954">
        <ele>2063</ele>
        <time>2021-03-08T09:43:14Z</time>
      </trkpt>
      <trkpt lat="45.02654" lon="6.47957">
        <ele>2063</ele>
        <time>2021-03-08T09:43:18Z</time>
      </trkpt>
      <trkpt lat="45.02654" lon="6.4796">
        <ele>2067</ele>
        <time>2021-03-08T09:43:22Z</time>
      </trkpt>
      <trkpt lat="45.02655" lon="6.47962">
        <ele>2067</ele>
        <time>2021-03-08T09:43:26Z</time>
      </trkpt>
      <trkpt lat="45.02657" lon="6.47962">
        <ele>2067</ele>
        <time>2021-03-08T09:43:30Z</time>
      </trkpt>
      <trkpt lat="45.02659" lon="6.47962">
        <ele>2067</ele>
        <time>2021-03-08T09:43:33Z</time>
      </trkpt>
      <trkpt lat="45.02661" lon="6.47962">
        <ele>2067</ele>
        <time>2021-03-08T09:43:37Z</time>
      </trkpt>
      <trkpt lat="45.02664" lon="6.47961">
        <ele>2067</ele>
        <time>2021-03-08T09:43:40Z</time>
      </trkpt>
      <trkpt lat="45.02665" lon="6.4796">
        <ele>2068</ele>
        <time>2021-03-08T09:43:43Z</time>
      </trkpt>
      <trkpt lat="45.02667" lon="6.47959">
        <ele>2068</ele>
        <time>2021-03-08T09:43:46Z</time>
      </trkpt>
      <trkpt lat="45.02669" lon="6.47958">
        <ele>2068</ele>
        <time>2021-03-08T09:43:49Z</time>
      </trkpt>
      <trkpt lat="45.02671" lon="6.47958">
        <ele>2069</ele>
        <time>2021-03-08T09:43:53Z</time>
      </trkpt>
      <trkpt lat="45.02673" lon="6.47957">
        <ele>2069</ele>
        <time>2021-03-08T09:43:56Z</time>
      </trkpt>
      <trkpt lat="45.02674" lon="6.47957">
        <ele>2069</ele>
        <time>2021-03-08T09:43:58Z</time>
      </trkpt>
      <trkpt lat="45.02676" lon="6.47957">
        <ele>2070</ele>
        <time>2021-03-08T09:44:01Z</time>
      </trkpt>
      <trkpt lat="45.02678" lon="6.47956">
        <ele>2070</ele>
        <time>2021-03-08T09:44:04Z</time>
      </trkpt>
      <trkpt lat="45.02681" lon="6.47956">
        <ele>2070</ele>
        <time>2021-03-08T09:44:09Z</time>
      </trkpt>
      <trkpt lat="45.02682" lon="6.47956">
        <ele>2072</ele>
        <time>2021-03-08T09:44:12Z</time>
      </trkpt>
      <trkpt lat="45.02684" lon="6.47955">
        <ele>2072</ele>
        <time>2021-03-08T09:44:15Z</time>
      </trkpt>
      <trkpt lat="45.02686" lon="6.47955">
        <ele>2072</ele>
        <time>2021-03-08T09:44:19Z</time>
      </trkpt>
      <trkpt lat="45.02688" lon="6.47955">
        <ele>2074</ele>
        <time>2021-03-08T09:44:21Z</time>
      </trkpt>
      <trkpt lat="45.0269" lon="6.47955">
        <ele>2074</ele>
        <time>2021-03-08T09:44:26Z</time>
      </trkpt>
      <trkpt lat="45.02698" lon="6.47953">
        <ele>2076</ele>
        <time>2021-03-08T09:44:40Z</time>
      </trkpt>
      <trkpt lat="45.02701" lon="6.47963">
        <ele>2078</ele>
        <time>2021-03-08T09:44:58Z</time>
      </trkpt>
      <trkpt lat="45.02701" lon="6.47965">
        <ele>2080</ele>
        <time>2021-03-08T09:45:06Z</time>
      </trkpt>
      <trkpt lat="45.02707" lon="6.47969">
        <ele>2082</ele>
        <time>2021-03-08T09:45:20Z</time>
      </trkpt>
      <trkpt lat="45.02713" lon="6.47973">
        <ele>2084</ele>
        <time>2021-03-08T09:45:31Z</time>
      </trkpt>
      <trkpt lat="45.02719" lon="6.47977">
        <ele>2086</ele>
        <time>2021-03-08T09:45:44Z</time>
      </trkpt>
      <trkpt lat="45.02724" lon="6.47983">
        <ele>2087</ele>
        <time>2021-03-08T09:45:55Z</time>
      </trkpt>
      <trkpt lat="45.02731" lon="6.47989">
        <ele>2090</ele>
        <time>2021-03-08T09:46:12Z</time>
      </trkpt>
      <trkpt lat="45.02737" lon="6.47994">
        <ele>2091</ele>
        <time>2021-03-08T09:46:24Z</time>
      </trkpt>
      <trkpt lat="45.02741" lon="6.47999">
        <ele>2094</ele>
        <time>2021-03-08T09:46:34Z</time>
      </trkpt>
      <trkpt lat="45.02736" lon="6.48006">
        <ele>2096</ele>
        <time>2021-03-08T09:46:45Z</time>
      </trkpt>
      <trkpt lat="45.0274" lon="6.48016">
        <ele>2098</ele>
        <time>2021-03-08T09:47:04Z</time>
      </trkpt>
      <trkpt lat="45.02743" lon="6.48024">
        <ele>2100</ele>
        <time>2021-03-08T09:47:19Z</time>
      </trkpt>
      <trkpt lat="45.02745" lon="6.48036">
        <ele>2102</ele>
        <time>2021-03-08T09:47:36Z</time>
      </trkpt>
      <trkpt lat="45.02743" lon="6.48046">
        <ele>2107</ele>
        <time>2021-03-08T09:47:51Z</time>
      </trkpt>
      <trkpt lat="45.02739" lon="6.48055">
        <ele>2108</ele>
        <time>2021-03-08T09:48:04Z</time>
      </trkpt>
      <trkpt lat="45.02737" lon="6.48064">
        <ele>2109</ele>
        <time>2021-03-08T09:48:16Z</time>
      </trkpt>
      <trkpt lat="45.02738" lon="6.48072">
        <ele>2111</ele>
        <time>2021-03-08T09:48:29Z</time>
      </trkpt>
      <trkpt lat="45.02742" lon="6.48075">
        <ele>2113</ele>
        <time>2021-03-08T09:48:36Z</time>
      </trkpt>
      <trkpt lat="45.02745" lon="6.48077">
        <ele>2115</ele>
        <time>2021-03-08T09:48:41Z</time>
      </trkpt>
      <trkpt lat="45.02747" lon="6.48079">
        <ele>2115</ele>
        <time>2021-03-08T09:48:48Z</time>
      </trkpt>
      <trkpt lat="45.0275" lon="6.48081">
        <ele>2116</ele>
        <time>2021-03-08T09:48:54Z</time>
      </trkpt>
      <trkpt lat="45.02748" lon="6.48086">
        <ele>2118</ele>
        <time>2021-03-08T09:49:01Z</time>
      </trkpt>
      <trkpt lat="45.02746" lon="6.48091">
        <ele>2118</ele>
        <time>2021-03-08T09:49:07Z</time>
      </trkpt>
      <trkpt lat="45.02744" lon="6.48095">
        <ele>2119</ele>
        <time>2021-03-08T09:49:13Z</time>
      </trkpt>
      <trkpt lat="45.02746" lon="6.481">
        <ele>2121</ele>
        <time>2021-03-08T09:49:24Z</time>
      </trkpt>
      <trkpt lat="45.02749" lon="6.48103">
        <ele>2123</ele>
        <time>2021-03-08T09:49:32Z</time>
      </trkpt>
      <trkpt lat="45.02753" lon="6.48105">
        <ele>2123</ele>
        <time>2021-03-08T09:49:37Z</time>
      </trkpt>
      <trkpt lat="45.02757" lon="6.48107">
        <ele>2125</ele>
        <time>2021-03-08T09:49:43Z</time>
      </trkpt>
      <trkpt lat="45.02762" lon="6.48112">
        <ele>2126</ele>
        <time>2021-03-08T09:49:59Z</time>
      </trkpt>
      <trkpt lat="45.0276" lon="6.48118">
        <ele>2128</ele>
        <time>2021-03-08T09:50:06Z</time>
      </trkpt>
      <trkpt lat="45.02759" lon="6.48124">
        <ele>2130</ele>
        <time>2021-03-08T09:50:14Z</time>
      </trkpt>
      <trkpt lat="45.02757" lon="6.4813">
        <ele>2131</ele>
        <time>2021-03-08T09:50:23Z</time>
      </trkpt>
      <trkpt lat="45.02752" lon="6.48135">
        <ele>2132</ele>
        <time>2021-03-08T09:50:36Z</time>
      </trkpt>
      <trkpt lat="45.02758" lon="6.48143">
        <ele>2136</ele>
        <time>2021-03-08T09:51:04Z</time>
      </trkpt>
      <trkpt lat="45.02762" lon="6.48146">
        <ele>2137</ele>
        <time>2021-03-08T09:51:11Z</time>
      </trkpt>
      <trkpt lat="45.02767" lon="6.48148">
        <ele>2140</ele>
        <time>2021-03-08T09:51:21Z</time>
      </trkpt>
      <trkpt lat="45.02771" lon="6.48146">
        <ele>2141</ele>
        <time>2021-03-08T09:51:31Z</time>
      </trkpt>
      <trkpt lat="45.02776" lon="6.48147">
        <ele>2141</ele>
        <time>2021-03-08T09:51:40Z</time>
      </trkpt>
      <trkpt lat="45.02778" lon="6.48156">
        <ele>2144</ele>
        <time>2021-03-08T09:51:51Z</time>
      </trkpt>
      <trkpt lat="45.02778" lon="6.48163">
        <ele>2144</ele>
        <time>2021-03-08T09:51:59Z</time>
      </trkpt>
      <trkpt lat="45.0278" lon="6.48167">
        <ele>2145</ele>
        <time>2021-03-08T09:52:05Z</time>
      </trkpt>
      <trkpt lat="45.02783" lon="6.48173">
        <ele>2147</ele>
        <time>2021-03-08T09:52:12Z</time>
      </trkpt>
      <trkpt lat="45.02785" lon="6.48178">
        <ele>2147</ele>
        <time>2021-03-08T09:52:19Z</time>
      </trkpt>
      <trkpt lat="45.02788" lon="6.48183">
        <ele>2147</ele>
        <time>2021-03-08T09:52:25Z</time>
      </trkpt>
      <trkpt lat="45.02789" lon="6.48189">
        <ele>2149</ele>
        <time>2021-03-08T09:52:32Z</time>
      </trkpt>
      <trkpt lat="45.0279" lon="6.48196">
        <ele>2149</ele>
        <time>2021-03-08T09:52:40Z</time>
      </trkpt>
      <trkpt lat="45.02793" lon="6.48197">
        <ele>2150</ele>
        <time>2021-03-08T09:52:49Z</time>
      </trkpt>
      <trkpt lat="45.02796" lon="6.48197">
        <ele>2152</ele>
        <time>2021-03-08T09:52:55Z</time>
      </trkpt>
      <trkpt lat="45.028" lon="6.48192">
        <ele>2153</ele>
        <time>2021-03-08T09:53:04Z</time>
      </trkpt>
      <trkpt lat="45.02803" lon="6.48189">
        <ele>2155</ele>
        <time>2021-03-08T09:53:12Z</time>
      </trkpt>
      <trkpt lat="45.02808" lon="6.48191">
        <ele>2156</ele>
        <time>2021-03-08T09:53:23Z</time>
      </trkpt>
      <trkpt lat="45.02811" lon="6.48195">
        <ele>2157</ele>
        <time>2021-03-08T09:53:33Z</time>
      </trkpt>
      <trkpt lat="45.02815" lon="6.48197">
        <ele>2157</ele>
        <time>2021-03-08T09:53:40Z</time>
      </trkpt>
      <trkpt lat="45.02819" lon="6.48197">
        <ele>2159</ele>
        <time>2021-03-08T09:53:49Z</time>
      </trkpt>
      <trkpt lat="45.02825" lon="6.482">
        <ele>2162</ele>
        <time>2021-03-08T09:54:03Z</time>
      </trkpt>
      <trkpt lat="45.02832" lon="6.48201">
        <ele>2166</ele>
        <time>2021-03-08T09:54:23Z</time>
      </trkpt>
      <trkpt lat="45.02839" lon="6.48206">
        <ele>2168</ele>
        <time>2021-03-08T09:54:38Z</time>
      </trkpt>
      <trkpt lat="45.02841" lon="6.48214">
        <ele>2170</ele>
        <time>2021-03-08T09:54:52Z</time>
      </trkpt>
      <trkpt lat="45.02838" lon="6.48223">
        <ele>2172</ele>
        <time>2021-03-08T09:55:07Z</time>
      </trkpt>
      <trkpt lat="45.02844" lon="6.48229">
        <ele>2175</ele>
        <time>2021-03-08T09:55:25Z</time>
      </trkpt>
      <trkpt lat="45.0285" lon="6.48233">
        <ele>2177</ele>
        <time>2021-03-08T09:55:35Z</time>
      </trkpt>
      <trkpt lat="45.02853" lon="6.48237">
        <ele>2177</ele>
        <time>2021-03-08T09:55:43Z</time>
      </trkpt>
      <trkpt lat="45.02852" lon="6.48242">
        <ele>2179</ele>
        <time>2021-03-08T09:55:54Z</time>
      </trkpt>
      <trkpt lat="45.02846" lon="6.48249">
        <ele>2181</ele>
        <time>2021-03-08T09:56:06Z</time>
      </trkpt>
      <trkpt lat="45.02843" lon="6.48253">
        <ele>2183</ele>
        <time>2021-03-08T09:56:13Z</time>
      </trkpt>
      <trkpt lat="45.02839" lon="6.48257">
        <ele>2183</ele>
        <time>2021-03-08T09:56:32Z</time>
      </trkpt>
      <trkpt lat="45.02843" lon="6.48258">
        <ele>2179</ele>
        <time>2021-03-08T10:05:22Z</time>
      </trkpt>
      <trkpt lat="45.0284" lon="6.48272">
        <ele>2181</ele>
        <time>2021-03-08T10:06:43Z</time>
      </trkpt>
      <trkpt lat="45.02833" lon="6.48282">
        <ele>2183</ele>
        <time>2021-03-08T10:06:59Z</time>
      </trkpt>
      <trkpt lat="45.02828" lon="6.48292">
        <ele>2186</ele>
        <time>2021-03-08T10:07:17Z</time>
      </trkpt>
      <trkpt lat="45.02824" lon="6.48299">
        <ele>2188</ele>
        <time>2021-03-08T10:07:30Z</time>
      </trkpt>
      <trkpt lat="45.02818" lon="6.48307">
        <ele>2190</ele>
        <time>2021-03-08T10:07:43Z</time>
      </trkpt>
      <trkpt lat="45.02814" lon="6.48314">
        <ele>2192</ele>
        <time>2021-03-08T10:07:53Z</time>
      </trkpt>
      <trkpt lat="45.02809" lon="6.48323">
        <ele>2193</ele>
        <time>2021-03-08T10:08:05Z</time>
      </trkpt>
      <trkpt lat="45.02805" lon="6.48331">
        <ele>2195</ele>
        <time>2021-03-08T10:08:18Z</time>
      </trkpt>
      <trkpt lat="45.02799" lon="6.48338">
        <ele>2198</ele>
        <time>2021-03-08T10:08:33Z</time>
      </trkpt>
      <trkpt lat="45.02795" lon="6.48346">
        <ele>2201</ele>
        <time>2021-03-08T10:08:44Z</time>
      </trkpt>
      <trkpt lat="45.0279" lon="6.48354">
        <ele>2201</ele>
        <time>2021-03-08T10:08:57Z</time>
      </trkpt>
      <trkpt lat="45.02796" lon="6.48363">
        <ele>2205</ele>
        <time>2021-03-08T10:09:18Z</time>
      </trkpt>
      <trkpt lat="45.02804" lon="6.48365">
        <ele>2207</ele>
        <time>2021-03-08T10:09:31Z</time>
      </trkpt>
      <trkpt lat="45.02802" lon="6.48376">
        <ele>2208</ele>
        <time>2021-03-08T10:09:59Z</time>
      </trkpt>
      <trkpt lat="45.02796" lon="6.48381">
        <ele>2212</ele>
        <time>2021-03-08T10:10:13Z</time>
      </trkpt>
      <trkpt lat="45.02788" lon="6.48387">
        <ele>2213</ele>
        <time>2021-03-08T10:10:26Z</time>
      </trkpt>
      <trkpt lat="45.02782" lon="6.48391">
        <ele>2214</ele>
        <time>2021-03-08T10:10:36Z</time>
      </trkpt>
      <trkpt lat="45.02775" lon="6.48395">
        <ele>2216</ele>
        <time>2021-03-08T10:10:48Z</time>
      </trkpt>
      <trkpt lat="45.02768" lon="6.48397">
        <ele>2218</ele>
        <time>2021-03-08T10:11:14Z</time>
      </trkpt>
      <trkpt lat="45.02762" lon="6.48399">
        <ele>2218</ele>
        <time>2021-03-08T10:11:24Z</time>
      </trkpt>
      <trkpt lat="45.02769" lon="6.48407">
        <ele>2219</ele>
        <time>2021-03-08T10:11:38Z</time>
      </trkpt>
      <trkpt lat="45.02778" lon="6.48409">
        <ele>2221</ele>
        <time>2021-03-08T10:11:50Z</time>
      </trkpt>
      <trkpt lat="45.02786" lon="6.48415">
        <ele>2224</ele>
        <time>2021-03-08T10:12:06Z</time>
      </trkpt>
      <trkpt lat="45.02794" lon="6.48419">
        <ele>2227</ele>
        <time>2021-03-08T10:12:20Z</time>
      </trkpt>
      <trkpt lat="45.02792" lon="6.48429">
        <ele>2230</ele>
        <time>2021-03-08T10:12:36Z</time>
      </trkpt>
      <trkpt lat="45.02786" lon="6.48437">
        <ele>2230</ele>
        <time>2021-03-08T10:12:49Z</time>
      </trkpt>
      <trkpt lat="45.0278" lon="6.48445">
        <ele>2234</ele>
        <time>2021-03-08T10:13:03Z</time>
      </trkpt>
      <trkpt lat="45.02775" lon="6.48452">
        <ele>2235</ele>
        <time>2021-03-08T10:13:14Z</time>
      </trkpt>
      <trkpt lat="45.02771" lon="6.4846">
        <ele>2237</ele>
        <time>2021-03-08T10:13:26Z</time>
      </trkpt>
      <trkpt lat="45.0277" lon="6.48471">
        <ele>2238</ele>
        <time>2021-03-08T10:13:39Z</time>
      </trkpt>
      <trkpt lat="45.02768" lon="6.4848">
        <ele>2239</ele>
        <time>2021-03-08T10:13:50Z</time>
      </trkpt>
      <trkpt lat="45.02761" lon="6.4848">
        <ele>2242</ele>
        <time>2021-03-08T10:14:03Z</time>
      </trkpt>
      <trkpt lat="45.02753" lon="6.4848">
        <ele>2244</ele>
        <time>2021-03-08T10:14:18Z</time>
      </trkpt>
      <trkpt lat="45.02746" lon="6.48485">
        <ele>2247</ele>
        <time>2021-03-08T10:14:32Z</time>
      </trkpt>
      <trkpt lat="45.02741" lon="6.48492">
        <ele>2248</ele>
        <time>2021-03-08T10:14:44Z</time>
      </trkpt>
      <trkpt lat="45.02738" lon="6.485">
        <ele>2250</ele>
        <time>2021-03-08T10:14:57Z</time>
      </trkpt>
      <trkpt lat="45.02733" lon="6.48509">
        <ele>2252</ele>
        <time>2021-03-08T10:15:11Z</time>
      </trkpt>
      <trkpt lat="45.02735" lon="6.48519">
        <ele>2254</ele>
        <time>2021-03-08T10:15:30Z</time>
      </trkpt>
      <trkpt lat="45.02731" lon="6.48527">
        <ele>2257</ele>
        <time>2021-03-08T10:15:42Z</time>
      </trkpt>
      <trkpt lat="45.02726" lon="6.48533">
        <ele>2259</ele>
        <time>2021-03-08T10:15:51Z</time>
      </trkpt>
      <trkpt lat="45.02721" lon="6.48537">
        <ele>2260</ele>
        <time>2021-03-08T10:16:01Z</time>
      </trkpt>
      <trkpt lat="45.02716" lon="6.48533">
        <ele>2260</ele>
        <time>2021-03-08T10:16:08Z</time>
      </trkpt>
      <trkpt lat="45.02709" lon="6.48526">
        <ele>2262</ele>
        <time>2021-03-08T10:16:24Z</time>
      </trkpt>
      <trkpt lat="45.027" lon="6.48525">
        <ele>2266</ele>
        <time>2021-03-08T10:16:43Z</time>
      </trkpt>
      <trkpt lat="45.02693" lon="6.48525">
        <ele>2267</ele>
        <time>2021-03-08T10:16:55Z</time>
      </trkpt>
      <trkpt lat="45.02689" lon="6.48525">
        <ele>2270</ele>
        <time>2021-03-08T10:17:15Z</time>
      </trkpt>
      <trkpt lat="45.02681" lon="6.48527">
        <ele>2271</ele>
        <time>2021-03-08T10:19:25Z</time>
      </trkpt>
      <trkpt lat="45.02676" lon="6.48529">
        <ele>2274</ele>
        <time>2021-03-08T10:19:38Z</time>
      </trkpt>
      <trkpt lat="45.0267" lon="6.48535">
        <ele>2278</ele>
        <time>2021-03-08T10:19:57Z</time>
      </trkpt>
      <trkpt lat="45.02669" lon="6.48543">
        <ele>2280</ele>
        <time>2021-03-08T10:20:11Z</time>
      </trkpt>
      <trkpt lat="45.02667" lon="6.48551">
        <ele>2283</ele>
        <time>2021-03-08T10:20:22Z</time>
      </trkpt>
      <trkpt lat="45.02665" lon="6.4856">
        <ele>2283</ele>
        <time>2021-03-08T10:20:39Z</time>
      </trkpt>
      <trkpt lat="45.02663" lon="6.48566">
        <ele>2285</ele>
        <time>2021-03-08T10:20:49Z</time>
      </trkpt>
      <trkpt lat="45.02662" lon="6.48574">
        <ele>2287</ele>
        <time>2021-03-08T10:21:01Z</time>
      </trkpt>
      <trkpt lat="45.0266" lon="6.48582">
        <ele>2289</ele>
        <time>2021-03-08T10:21:13Z</time>
      </trkpt>
      <trkpt lat="45.0266" lon="6.48591">
        <ele>2292</ele>
        <time>2021-03-08T10:21:31Z</time>
      </trkpt>
      <trkpt lat="45.02658" lon="6.48599">
        <ele>2293</ele>
        <time>2021-03-08T10:21:47Z</time>
      </trkpt>
      <trkpt lat="45.02655" lon="6.48606">
        <ele>2294</ele>
        <time>2021-03-08T10:21:59Z</time>
      </trkpt>
      <trkpt lat="45.02654" lon="6.48615">
        <ele>2296</ele>
        <time>2021-03-08T10:22:09Z</time>
      </trkpt>
      <trkpt lat="45.02652" lon="6.48623">
        <ele>2298</ele>
        <time>2021-03-08T10:22:24Z</time>
      </trkpt>
      <trkpt lat="45.02651" lon="6.48631">
        <ele>2300</ele>
        <time>2021-03-08T10:22:37Z</time>
      </trkpt>
      <trkpt lat="45.02651" lon="6.48642">
        <ele>2304</ele>
        <time>2021-03-08T10:22:51Z</time>
      </trkpt>
      <trkpt lat="45.02649" lon="6.48652">
        <ele>2306</ele>
        <time>2021-03-08T10:23:05Z</time>
      </trkpt>
      <trkpt lat="45.02647" lon="6.48661">
        <ele>2307</ele>
        <time>2021-03-08T10:23:14Z</time>
      </trkpt>
      <trkpt lat="45.02645" lon="6.48669">
        <ele>2308</ele>
        <time>2021-03-08T10:23:23Z</time>
      </trkpt>
      <trkpt lat="45.02641" lon="6.48677">
        <ele>2310</ele>
        <time>2021-03-08T10:23:32Z</time>
      </trkpt>
      <trkpt lat="45.02639" lon="6.48685">
        <ele>2312</ele>
        <time>2021-03-08T10:23:44Z</time>
      </trkpt>
      <trkpt lat="45.02638" lon="6.48697">
        <ele>2313</ele>
        <time>2021-03-08T10:23:59Z</time>
      </trkpt>
      <trkpt lat="45.02641" lon="6.48707">
        <ele>2318</ele>
        <time>2021-03-08T10:24:13Z</time>
      </trkpt>
      <trkpt lat="45.02645" lon="6.48718">
        <ele>2319</ele>
        <time>2021-03-08T10:24:30Z</time>
      </trkpt>
      <trkpt lat="45.0264" lon="6.48723">
        <ele>2322</ele>
        <time>2021-03-08T10:24:55Z</time>
      </trkpt>
      <trkpt lat="45.02635" lon="6.48724">
        <ele>2324</ele>
        <time>2021-03-08T10:25:08Z</time>
      </trkpt>
      <trkpt lat="45.02627" lon="6.48724">
        <ele>2327</ele>
        <time>2021-03-08T10:25:25Z</time>
      </trkpt>
      <trkpt lat="45.0262" lon="6.48724">
        <ele>2328</ele>
        <time>2021-03-08T10:25:37Z</time>
      </trkpt>
      <trkpt lat="45.02615" lon="6.48724">
        <ele>2330</ele>
        <time>2021-03-08T10:25:47Z</time>
      </trkpt>
      <trkpt lat="45.02609" lon="6.48726">
        <ele>2331</ele>
        <time>2021-03-08T10:26:00Z</time>
      </trkpt>
      <trkpt lat="45.02602" lon="6.48731">
        <ele>2334</ele>
        <time>2021-03-08T10:26:20Z</time>
      </trkpt>
      <trkpt lat="45.02595" lon="6.48736">
        <ele>2337</ele>
        <time>2021-03-08T10:26:38Z</time>
      </trkpt>
      <trkpt lat="45.02596" lon="6.48747">
        <ele>2340</ele>
        <time>2021-03-08T10:26:59Z</time>
      </trkpt>
      <trkpt lat="45.02601" lon="6.48758">
        <ele>2344</ele>
        <time>2021-03-08T10:27:25Z</time>
      </trkpt>
      <trkpt lat="45.02605" lon="6.48768">
        <ele>2347</ele>
        <time>2021-03-08T10:27:42Z</time>
      </trkpt>
      <trkpt lat="45.02609" lon="6.48776">
        <ele>2349</ele>
        <time>2021-03-08T10:27:57Z</time>
      </trkpt>
      <trkpt lat="45.02612" lon="6.48787">
        <ele>2352</ele>
        <time>2021-03-08T10:28:15Z</time>
      </trkpt>
      <trkpt lat="45.02617" lon="6.48798">
        <ele>2355</ele>
        <time>2021-03-08T10:28:37Z</time>
      </trkpt>
      <trkpt lat="45.0262" lon="6.48805">
        <ele>2356</ele>
        <time>2021-03-08T10:28:49Z</time>
      </trkpt>
      <trkpt lat="45.02616" lon="6.48814">
        <ele>2360</ele>
        <time>2021-03-08T10:29:04Z</time>
      </trkpt>
      <trkpt lat="45.02611" lon="6.48818">
        <ele>2361</ele>
        <time>2021-03-08T10:29:18Z</time>
      </trkpt>
      <trkpt lat="45.02604" lon="6.48821">
        <ele>2365</ele>
        <time>2021-03-08T10:29:32Z</time>
      </trkpt>
      <trkpt lat="45.02596" lon="6.48823">
        <ele>2368</ele>
        <time>2021-03-08T10:29:54Z</time>
      </trkpt>
      <trkpt lat="45.02588" lon="6.48824">
        <ele>2370</ele>
        <time>2021-03-08T10:30:12Z</time>
      </trkpt>
      <trkpt lat="45.0258" lon="6.48826">
        <ele>2371</ele>
        <time>2021-03-08T10:30:28Z</time>
      </trkpt>
      <trkpt lat="45.02573" lon="6.48827">
        <ele>2375</ele>
        <time>2021-03-08T10:30:42Z</time>
      </trkpt>
      <trkpt lat="45.02567" lon="6.48828">
        <ele>2377</ele>
        <time>2021-03-08T10:31:05Z</time>
      </trkpt>
      <trkpt lat="45.02567" lon="6.48838">
        <ele>2379</ele>
        <time>2021-03-08T10:31:15Z</time>
      </trkpt>
      <trkpt lat="45.02565" lon="6.48846">
        <ele>2381</ele>
        <time>2021-03-08T10:31:26Z</time>
      </trkpt>
      <trkpt lat="45.02563" lon="6.48854">
        <ele>2382</ele>
        <time>2021-03-08T10:31:37Z</time>
      </trkpt>
      <trkpt lat="45.02561" lon="6.48859">
        <ele>2384</ele>
        <time>2021-03-08T10:31:58Z</time>
      </trkpt>
      <trkpt lat="45.02556" lon="6.48864">
        <ele>2384</ele>
        <time>2021-03-08T10:37:10Z</time>
      </trkpt>
      <trkpt lat="45.02551" lon="6.48855">
        <ele>2388</ele>
        <time>2021-03-08T10:37:25Z</time>
      </trkpt>
      <trkpt lat="45.02545" lon="6.48849">
        <ele>2391</ele>
        <time>2021-03-08T10:37:41Z</time>
      </trkpt>
      <trkpt lat="45.02539" lon="6.48843">
        <ele>2393</ele>
        <time>2021-03-08T10:37:57Z</time>
      </trkpt>
      <trkpt lat="45.02536" lon="6.48838">
        <ele>2394</ele>
        <time>2021-03-08T10:38:07Z</time>
      </trkpt>
      <trkpt lat="45.02531" lon="6.48835">
        <ele>2395</ele>
        <time>2021-03-08T10:38:19Z</time>
      </trkpt>
      <trkpt lat="45.02528" lon="6.48838">
        <ele>2397</ele>
        <time>2021-03-08T10:38:30Z</time>
      </trkpt>
      <trkpt lat="45.02526" lon="6.48846">
        <ele>2400</ele>
        <time>2021-03-08T10:38:44Z</time>
      </trkpt>
      <trkpt lat="45.02524" lon="6.48854">
        <ele>2401</ele>
        <time>2021-03-08T10:38:55Z</time>
      </trkpt>
      <trkpt lat="45.02522" lon="6.48862">
        <ele>2403</ele>
        <time>2021-03-08T10:39:08Z</time>
      </trkpt>
      <trkpt lat="45.02521" lon="6.4887">
        <ele>2405</ele>
        <time>2021-03-08T10:39:21Z</time>
      </trkpt>
      <trkpt lat="45.02518" lon="6.48878">
        <ele>2407</ele>
        <time>2021-03-08T10:39:34Z</time>
      </trkpt>
      <trkpt lat="45.02515" lon="6.48883">
        <ele>2409</ele>
        <time>2021-03-08T10:39:44Z</time>
      </trkpt>
      <trkpt lat="45.02512" lon="6.48888">
        <ele>2410</ele>
        <time>2021-03-08T10:39:55Z</time>
      </trkpt>
      <trkpt lat="45.02509" lon="6.48893">
        <ele>2412</ele>
        <time>2021-03-08T10:40:05Z</time>
      </trkpt>
      <trkpt lat="45.02504" lon="6.48896">
        <ele>2413</ele>
        <time>2021-03-08T10:40:41Z</time>
      </trkpt>
      <trkpt lat="45.02501" lon="6.48899">
        <ele>2413</ele>
        <time>2021-03-08T10:40:47Z</time>
      </trkpt>
      <trkpt lat="45.02497" lon="6.48902">
        <ele>2416</ele>
        <time>2021-03-08T10:40:52Z</time>
      </trkpt>
      <trkpt lat="45.02494" lon="6.48904">
        <ele>2416</ele>
        <time>2021-03-08T10:40:57Z</time>
      </trkpt>
      <trkpt lat="45.02491" lon="6.48906">
        <ele>2417</ele>
        <time>2021-03-08T10:41:03Z</time>
      </trkpt>
      <trkpt lat="45.02487" lon="6.48908">
        <ele>2417</ele>
        <time>2021-03-08T10:41:10Z</time>
      </trkpt>
      <trkpt lat="45.02484" lon="6.48911">
        <ele>2420</ele>
        <time>2021-03-08T10:41:18Z</time>
      </trkpt>
      <trkpt lat="45.0248" lon="6.4891">
        <ele>2422</ele>
        <time>2021-03-08T10:41:29Z</time>
      </trkpt>
      <trkpt lat="45.02477" lon="6.48908">
        <ele>2423</ele>
        <time>2021-03-08T10:41:36Z</time>
      </trkpt>
      <trkpt lat="45.02475" lon="6.48905">
        <ele>2425</ele>
        <time>2021-03-08T10:41:43Z</time>
      </trkpt>
      <trkpt lat="45.0247" lon="6.489">
        <ele>2426</ele>
        <time>2021-03-08T10:41:53Z</time>
      </trkpt>
      <trkpt lat="45.02467" lon="6.48897">
        <ele>2426</ele>
        <time>2021-03-08T10:41:59Z</time>
      </trkpt>
      <trkpt lat="45.02465" lon="6.48894">
        <ele>2427</ele>
        <time>2021-03-08T10:42:05Z</time>
      </trkpt>
      <trkpt lat="45.02462" lon="6.48891">
        <ele>2429</ele>
        <time>2021-03-08T10:42:13Z</time>
      </trkpt>
      <trkpt lat="45.02459" lon="6.48889">
        <ele>2430</ele>
        <time>2021-03-08T10:42:21Z</time>
      </trkpt>
      <trkpt lat="45.02455" lon="6.48883">
        <ele>2431</ele>
        <time>2021-03-08T10:42:34Z</time>
      </trkpt>
      <trkpt lat="45.02452" lon="6.48893">
        <ele>2435</ele>
        <time>2021-03-08T10:43:00Z</time>
      </trkpt>
      <trkpt lat="45.02446" lon="6.4889">
        <ele>2438</ele>
        <time>2021-03-08T10:43:26Z</time>
      </trkpt>
      <trkpt lat="45.02441" lon="6.48884">
        <ele>2441</ele>
        <time>2021-03-08T10:43:41Z</time>
      </trkpt>
      <trkpt lat="45.02436" lon="6.48878">
        <ele>2442</ele>
        <time>2021-03-08T10:43:55Z</time>
      </trkpt>
      <trkpt lat="45.02431" lon="6.48872">
        <ele>2444</ele>
        <time>2021-03-08T10:44:11Z</time>
      </trkpt>
      <trkpt lat="45.02428" lon="6.48869">
        <ele>2447</ele>
        <time>2021-03-08T10:44:21Z</time>
      </trkpt>
      <trkpt lat="45.02421" lon="6.48864">
        <ele>2447</ele>
        <time>2021-03-08T10:44:38Z</time>
      </trkpt>
      <trkpt lat="45.02419" lon="6.48861">
        <ele>2449</ele>
        <time>2021-03-08T10:44:45Z</time>
      </trkpt>
      <trkpt lat="45.02416" lon="6.48857">
        <ele>2451</ele>
        <time>2021-03-08T10:44:53Z</time>
      </trkpt>
      <trkpt lat="45.02413" lon="6.48851">
        <ele>2451</ele>
        <time>2021-03-08T10:45:02Z</time>
      </trkpt>
      <trkpt lat="45.02411" lon="6.48857">
        <ele>2453</ele>
        <time>2021-03-08T10:45:21Z</time>
      </trkpt>
      <trkpt lat="45.0241" lon="6.48863">
        <ele>2453</ele>
        <time>2021-03-08T10:45:29Z</time>
      </trkpt>
      <trkpt lat="45.02409" lon="6.4887">
        <ele>2455</ele>
        <time>2021-03-08T10:45:37Z</time>
      </trkpt>
      <trkpt lat="45.02408" lon="6.48876">
        <ele>2455</ele>
        <time>2021-03-08T10:45:45Z</time>
      </trkpt>
      <trkpt lat="45.02408" lon="6.48882">
        <ele>2457</ele>
        <time>2021-03-08T10:45:54Z</time>
      </trkpt>
      <trkpt lat="45.02407" lon="6.48889">
        <ele>2457</ele>
        <time>2021-03-08T10:46:03Z</time>
      </trkpt>
      <trkpt lat="45.02407" lon="6.48894">
        <ele>2457</ele>
        <time>2021-03-08T10:46:10Z</time>
      </trkpt>
      <trkpt lat="45.02405" lon="6.48899">
        <ele>2458</ele>
        <time>2021-03-08T10:46:18Z</time>
      </trkpt>
      <trkpt lat="45.024" lon="6.48896">
        <ele>2461</ele>
        <time>2021-03-08T10:46:28Z</time>
      </trkpt>
      <trkpt lat="45.02398" lon="6.48892">
        <ele>2463</ele>
        <time>2021-03-08T10:46:34Z</time>
      </trkpt>
      <trkpt lat="45.02395" lon="6.48889">
        <ele>2463</ele>
        <time>2021-03-08T10:46:40Z</time>
      </trkpt>
      <trkpt lat="45.0239" lon="6.48883">
        <ele>2465</ele>
        <time>2021-03-08T10:46:53Z</time>
      </trkpt>
      <trkpt lat="45.02387" lon="6.48881">
        <ele>2465</ele>
        <time>2021-03-08T10:47:01Z</time>
      </trkpt>
      <trkpt lat="45.02383" lon="6.48878">
        <ele>2465</ele>
        <time>2021-03-08T10:47:09Z</time>
      </trkpt>
      <trkpt lat="45.0238" lon="6.48876">
        <ele>2467</ele>
        <time>2021-03-08T10:47:17Z</time>
      </trkpt>
      <trkpt lat="45.02376" lon="6.48872">
        <ele>2468</ele>
        <time>2021-03-08T10:47:27Z</time>
      </trkpt>
      <trkpt lat="45.02373" lon="6.48871">
        <ele>2470</ele>
        <time>2021-03-08T10:47:35Z</time>
      </trkpt>
      <trkpt lat="45.02369" lon="6.48873">
        <ele>2471</ele>
        <time>2021-03-08T10:47:45Z</time>
      </trkpt>
      <trkpt lat="45.02367" lon="6.48877">
        <ele>2472</ele>
        <time>2021-03-08T10:47:53Z</time>
      </trkpt>
      <trkpt lat="45.02364" lon="6.48881">
        <ele>2473</ele>
        <time>2021-03-08T10:48:01Z</time>
      </trkpt>
      <trkpt lat="45.02362" lon="6.48883">
        <ele>2473</ele>
        <time>2021-03-08T10:48:09Z</time>
      </trkpt>
      <trkpt lat="45.02359" lon="6.48886">
        <ele>2476</ele>
        <time>2021-03-08T10:48:15Z</time>
      </trkpt>
      <trkpt lat="45.02356" lon="6.48889">
        <ele>2477</ele>
        <time>2021-03-08T10:48:24Z</time>
      </trkpt>
      <trkpt lat="45.02353" lon="6.48893">
        <ele>2478</ele>
        <time>2021-03-08T10:48:32Z</time>
      </trkpt>
      <trkpt lat="45.02348" lon="6.48897">
        <ele>2480</ele>
        <time>2021-03-08T10:48:43Z</time>
      </trkpt>
      <trkpt lat="45.02343" lon="6.48899">
        <ele>2481</ele>
        <time>2021-03-08T10:48:54Z</time>
      </trkpt>
      <trkpt lat="45.02339" lon="6.48902">
        <ele>2482</ele>
        <time>2021-03-08T10:49:03Z</time>
      </trkpt>
      <trkpt lat="45.02334" lon="6.48904">
        <ele>2483</ele>
        <time>2021-03-08T10:49:14Z</time>
      </trkpt>
      <trkpt lat="45.0233" lon="6.48906">
        <ele>2484</ele>
        <time>2021-03-08T10:49:23Z</time>
      </trkpt>
      <trkpt lat="45.02323" lon="6.48901">
        <ele>2489</ele>
        <time>2021-03-08T10:49:41Z</time>
      </trkpt>
      <trkpt lat="45.02321" lon="6.48897">
        <ele>2489</ele>
        <time>2021-03-08T10:49:49Z</time>
      </trkpt>
      <trkpt lat="45.02319" lon="6.48893">
        <ele>2489</ele>
        <time>2021-03-08T10:49:57Z</time>
      </trkpt>
      <trkpt lat="45.02318" lon="6.48889">
        <ele>2492</ele>
        <time>2021-03-08T10:50:04Z</time>
      </trkpt>
      <trkpt lat="45.02316" lon="6.48884">
        <ele>2493</ele>
        <time>2021-03-08T10:50:12Z</time>
      </trkpt>
      <trkpt lat="45.02315" lon="6.48879">
        <ele>2493</ele>
        <time>2021-03-08T10:50:20Z</time>
      </trkpt>
      <trkpt lat="45.02311" lon="6.48878">
        <ele>2496</ele>
        <time>2021-03-08T10:50:46Z</time>
      </trkpt>
      <trkpt lat="45.02307" lon="6.4888">
        <ele>2497</ele>
        <time>2021-03-08T10:50:55Z</time>
      </trkpt>
      <trkpt lat="45.02302" lon="6.48883">
        <ele>2499</ele>
        <time>2021-03-08T10:51:07Z</time>
      </trkpt>
      <trkpt lat="45.02297" lon="6.48886">
        <ele>2500</ele>
        <time>2021-03-08T10:51:19Z</time>
      </trkpt>
      <trkpt lat="45.0229" lon="6.48891">
        <ele>2503</ele>
        <time>2021-03-08T10:51:36Z</time>
      </trkpt>
      <trkpt lat="45.02284" lon="6.48896">
        <ele>2505</ele>
        <time>2021-03-08T10:51:49Z</time>
      </trkpt>
      <trkpt lat="45.02279" lon="6.489">
        <ele>2508</ele>
        <time>2021-03-08T10:52:01Z</time>
      </trkpt>
      <trkpt lat="45.02275" lon="6.48899">
        <ele>2510</ele>
        <time>2021-03-08T10:52:11Z</time>
      </trkpt>
      <trkpt lat="45.02272" lon="6.48889">
        <ele>2511</ele>
        <time>2021-03-08T10:52:26Z</time>
      </trkpt>
      <trkpt lat="45.0227" lon="6.48886">
        <ele>2512</ele>
        <time>2021-03-08T10:52:32Z</time>
      </trkpt>
      <trkpt lat="45.02269" lon="6.48882">
        <ele>2513</ele>
        <time>2021-03-08T10:52:41Z</time>
      </trkpt>
      <trkpt lat="45.02264" lon="6.48883">
        <ele>2514</ele>
        <time>2021-03-08T10:52:57Z</time>
      </trkpt>
      <trkpt lat="45.0226" lon="6.48885">
        <ele>2518</ele>
        <time>2021-03-08T10:53:12Z</time>
      </trkpt>
      <trkpt lat="45.02256" lon="6.48889">
        <ele>2518</ele>
        <time>2021-03-08T10:53:20Z</time>
      </trkpt>
      <trkpt lat="45.02251" lon="6.48896">
        <ele>2521</ele>
        <time>2021-03-08T10:53:35Z</time>
      </trkpt>
      <trkpt lat="45.02245" lon="6.48904">
        <ele>2525</ele>
        <time>2021-03-08T10:53:57Z</time>
      </trkpt>
      <trkpt lat="45.0224" lon="6.48912">
        <ele>2526</ele>
        <time>2021-03-08T10:54:10Z</time>
      </trkpt>
      <trkpt lat="45.02236" lon="6.48918">
        <ele>2530</ele>
        <time>2021-03-08T10:54:21Z</time>
      </trkpt>
      <trkpt lat="45.02233" lon="6.48924">
        <ele>2530</ele>
        <time>2021-03-08T10:54:32Z</time>
      </trkpt>
      <trkpt lat="45.02231" lon="6.48928">
        <ele>2530</ele>
        <time>2021-03-08T10:54:40Z</time>
      </trkpt>
      <trkpt lat="45.02228" lon="6.48926">
        <ele>2533</ele>
        <time>2021-03-08T10:54:54Z</time>
      </trkpt>
      <trkpt lat="45.02226" lon="6.48921">
        <ele>2534</ele>
        <time>2021-03-08T10:55:04Z</time>
      </trkpt>
      <trkpt lat="45.02222" lon="6.48927">
        <ele>2534</ele>
        <time>2021-03-08T10:55:19Z</time>
      </trkpt>
      <trkpt lat="45.02219" lon="6.48933">
        <ele>2536</ele>
        <time>2021-03-08T10:55:28Z</time>
      </trkpt>
      <trkpt lat="45.02214" lon="6.48933">
        <ele>2538</ele>
        <time>2021-03-08T10:55:50Z</time>
      </trkpt>
      <trkpt lat="45.02212" lon="6.48928">
        <ele>2541</ele>
        <time>2021-03-08T10:55:58Z</time>
      </trkpt>
      <trkpt lat="45.0221" lon="6.48922">
        <ele>2543</ele>
        <time>2021-03-08T10:56:05Z</time>
      </trkpt>
      <trkpt lat="45.02209" lon="6.48917">
        <ele>2545</ele>
        <time>2021-03-08T10:56:12Z</time>
      </trkpt>
      <trkpt lat="45.02207" lon="6.48911">
        <ele>2545</ele>
        <time>2021-03-08T10:56:20Z</time>
      </trkpt>
      <trkpt lat="45.02206" lon="6.48907">
        <ele>2545</ele>
        <time>2021-03-08T10:56:29Z</time>
      </trkpt>
      <trkpt lat="45.02203" lon="6.489">
        <ele>2546</ele>
        <time>2021-03-08T10:56:40Z</time>
      </trkpt>
      <trkpt lat="45.02201" lon="6.48899">
        <ele>2548</ele>
        <time>2021-03-08T10:56:47Z</time>
      </trkpt>
      <trkpt lat="45.02199" lon="6.48901">
        <ele>2549</ele>
        <time>2021-03-08T10:56:51Z</time>
      </trkpt>
      <trkpt lat="45.02197" lon="6.48903">
        <ele>2549</ele>
        <time>2021-03-08T10:56:54Z</time>
      </trkpt>
      <trkpt lat="45.02192" lon="6.48908">
        <ele>2549</ele>
        <time>2021-03-08T10:57:04Z</time>
      </trkpt>
      <trkpt lat="45.0219" lon="6.4891">
        <ele>2550</ele>
        <time>2021-03-08T10:58:11Z</time>
      </trkpt>
      <trkpt lat="45.02191" lon="6.48916">
        <ele>2550</ele>
        <time>2021-03-08T11:10:59Z</time>
      </trkpt>
      <trkpt lat="45.02188" lon="6.48922">
        <ele>2550</ele>
        <time>2021-03-08T11:11:08Z</time>
      </trkpt>
      <trkpt lat="45.02185" lon="6.48927">
        <ele>2551</ele>
        <time>2021-03-08T11:11:18Z</time>
      </trkpt>
      <trkpt lat="45.02183" lon="6.48932">
        <ele>2553</ele>
        <time>2021-03-08T11:11:29Z</time>
      </trkpt>
      <trkpt lat="45.02179" lon="6.48936">
        <ele>2554</ele>
        <time>2021-03-08T11:11:37Z</time>
      </trkpt>
      <trkpt lat="45.02176" lon="6.4894">
        <ele>2556</ele>
        <time>2021-03-08T11:11:45Z</time>
      </trkpt>
      <trkpt lat="45.02173" lon="6.48945">
        <ele>2557</ele>
        <time>2021-03-08T11:11:57Z</time>
      </trkpt>
      <trkpt lat="45.02171" lon="6.4895">
        <ele>2558</ele>
        <time>2021-03-08T11:12:05Z</time>
      </trkpt>
      <trkpt lat="45.02171" lon="6.48955">
        <ele>2559</ele>
        <time>2021-03-08T11:12:18Z</time>
      </trkpt>
      <trkpt lat="45.02174" lon="6.48953">
        <ele>2561</ele>
        <time>2021-03-08T11:12:26Z</time>
      </trkpt>
      <trkpt lat="45.02178" lon="6.48954">
        <ele>2563</ele>
        <time>2021-03-08T11:12:35Z</time>
      </trkpt>
      <trkpt lat="45.02177" lon="6.48959">
        <ele>2564</ele>
        <time>2021-03-08T11:12:42Z</time>
      </trkpt>
      <trkpt lat="45.02176" lon="6.48964">
        <ele>2564</ele>
        <time>2021-03-08T11:12:49Z</time>
      </trkpt>
      <trkpt lat="45.02175" lon="6.4897">
        <ele>2563</ele>
        <time>2021-03-08T11:12:58Z</time>
      </trkpt>
      <trkpt lat="45.02173" lon="6.48975">
        <ele>2563</ele>
        <time>2021-03-08T11:13:05Z</time>
      </trkpt>
      <trkpt lat="45.02172" lon="6.48979">
        <ele>2565</ele>
        <time>2021-03-08T11:13:17Z</time>
      </trkpt>
      <trkpt lat="45.02171" lon="6.48984">
        <ele>2564</ele>
        <time>2021-03-08T11:13:26Z</time>
      </trkpt>
      <trkpt lat="45.0217" lon="6.4899">
        <ele>2564</ele>
        <time>2021-03-08T11:13:34Z</time>
      </trkpt>
      <trkpt lat="45.02168" lon="6.48998">
        <ele>2566</ele>
        <time>2021-03-08T11:13:46Z</time>
      </trkpt>
      <trkpt lat="45.02166" lon="6.49008">
        <ele>2571</ele>
        <time>2021-03-08T11:14:04Z</time>
      </trkpt>
      <trkpt lat="45.02165" lon="6.49017">
        <ele>2572</ele>
        <time>2021-03-08T11:14:15Z</time>
      </trkpt>
      <trkpt lat="45.02164" lon="6.49026">
        <ele>2573</ele>
        <time>2021-03-08T11:14:27Z</time>
      </trkpt>
      <trkpt lat="45.02164" lon="6.49032">
        <ele>2576</ele>
        <time>2021-03-08T11:14:37Z</time>
      </trkpt>
      <trkpt lat="45.02165" lon="6.4904">
        <ele>2578</ele>
        <time>2021-03-08T11:14:51Z</time>
      </trkpt>
      <trkpt lat="45.02168" lon="6.49048">
        <ele>2578</ele>
        <time>2021-03-08T11:15:03Z</time>
      </trkpt>
      <trkpt lat="45.02172" lon="6.49049">
        <ele>2580</ele>
        <time>2021-03-08T11:15:12Z</time>
      </trkpt>
      <trkpt lat="45.02176" lon="6.49052">
        <ele>2580</ele>
        <time>2021-03-08T11:15:20Z</time>
      </trkpt>
      <trkpt lat="45.02178" lon="6.49058">
        <ele>2584</ele>
        <time>2021-03-08T11:15:31Z</time>
      </trkpt>
      <trkpt lat="45.02177" lon="6.49064">
        <ele>2585</ele>
        <time>2021-03-08T11:15:42Z</time>
      </trkpt>
      <trkpt lat="45.02175" lon="6.4907">
        <ele>2586</ele>
        <time>2021-03-08T11:15:53Z</time>
      </trkpt>
      <trkpt lat="45.02175" lon="6.49075">
        <ele>2587</ele>
        <time>2021-03-08T11:16:02Z</time>
      </trkpt>
      <trkpt lat="45.02174" lon="6.49082">
        <ele>2588</ele>
        <time>2021-03-08T11:16:12Z</time>
      </trkpt>
      <trkpt lat="45.02173" lon="6.49086">
        <ele>2588</ele>
        <time>2021-03-08T11:16:17Z</time>
      </trkpt>
      <trkpt lat="45.02173" lon="6.49092">
        <ele>2589</ele>
        <time>2021-03-08T11:16:24Z</time>
      </trkpt>
      <trkpt lat="45.02171" lon="6.49098">
        <ele>2592</ele>
        <time>2021-03-08T11:16:36Z</time>
      </trkpt>
      <trkpt lat="45.0217" lon="6.49103">
        <ele>2593</ele>
        <time>2021-03-08T11:16:42Z</time>
      </trkpt>
      <trkpt lat="45.0217" lon="6.49109">
        <ele>2593</ele>
        <time>2021-03-08T11:16:49Z</time>
      </trkpt>
      <trkpt lat="45.0217" lon="6.49114">
        <ele>2594</ele>
        <time>2021-03-08T11:16:55Z</time>
      </trkpt>
      <trkpt lat="45.0217" lon="6.49118">
        <ele>2594</ele>
        <time>2021-03-08T11:17:01Z</time>
      </trkpt>
      <trkpt lat="45.02169" lon="6.49122">
        <ele>2594</ele>
        <time>2021-03-08T11:17:07Z</time>
      </trkpt>
      <trkpt lat="45.02169" lon="6.49126">
        <ele>2596</ele>
        <time>2021-03-08T11:17:11Z</time>
      </trkpt>
      <trkpt lat="45.0217" lon="6.49131">
        <ele>2596</ele>
        <time>2021-03-08T11:17:16Z</time>
      </trkpt>
      <trkpt lat="45.02171" lon="6.49135">
        <ele>2596</ele>
        <time>2021-03-08T11:17:21Z</time>
      </trkpt>
      <trkpt lat="45.02171" lon="6.49141">
        <ele>2596</ele>
        <time>2021-03-08T11:17:26Z</time>
      </trkpt>
      <trkpt lat="45.02173" lon="6.49147">
        <ele>2598</ele>
        <time>2021-03-08T11:17:31Z</time>
      </trkpt>
      <trkpt lat="45.02174" lon="6.49153">
        <ele>2598</ele>
        <time>2021-03-08T11:17:36Z</time>
      </trkpt>
      <trkpt lat="45.02175" lon="6.49158">
        <ele>2598</ele>
        <time>2021-03-08T11:17:39Z</time>
      </trkpt>
      <trkpt lat="45.02176" lon="6.49162">
        <ele>2598</ele>
        <time>2021-03-08T11:17:43Z</time>
      </trkpt>
      <trkpt lat="45.02177" lon="6.49166">
        <ele>2598</ele>
        <time>2021-03-08T11:17:48Z</time>
      </trkpt>
      <trkpt lat="45.02179" lon="6.4917">
        <ele>2598</ele>
        <time>2021-03-08T11:17:53Z</time>
      </trkpt>
      <trkpt lat="45.02179" lon="6.49174">
        <ele>2598</ele>
        <time>2021-03-08T11:17:57Z</time>
      </trkpt>
      <trkpt lat="45.0218" lon="6.49178">
        <ele>2598</ele>
        <time>2021-03-08T11:18:04Z</time>
      </trkpt>
      <trkpt lat="45.0218" lon="6.49182">
        <ele>2598</ele>
        <time>2021-03-08T11:18:08Z</time>
      </trkpt>
      <trkpt lat="45.02182" lon="6.49186">
        <ele>2599</ele>
        <time>2021-03-08T11:18:12Z</time>
      </trkpt>
      <trkpt lat="45.02184" lon="6.4919">
        <ele>2599</ele>
        <time>2021-03-08T11:18:17Z</time>
      </trkpt>
      <trkpt lat="45.02186" lon="6.49195">
        <ele>2599</ele>
        <time>2021-03-08T11:18:22Z</time>
      </trkpt>
      <trkpt lat="45.02187" lon="6.492">
        <ele>2599</ele>
        <time>2021-03-08T11:18:32Z</time>
      </trkpt>
      <trkpt lat="45.02188" lon="6.49204">
        <ele>2600</ele>
        <time>2021-03-08T11:20:32Z</time>
      </trkpt>
      <trkpt lat="45.02188" lon="6.49208">
        <ele>2600</ele>
        <time>2021-03-08T11:20:38Z</time>
      </trkpt>
      <trkpt lat="45.0219" lon="6.49213">
        <ele>2600</ele>
        <time>2021-03-08T11:20:44Z</time>
      </trkpt>
      <trkpt lat="45.02191" lon="6.49219">
        <ele>2602</ele>
        <time>2021-03-08T11:20:51Z</time>
      </trkpt>
      <trkpt lat="45.02192" lon="6.49226">
        <ele>2602</ele>
        <time>2021-03-08T11:21:00Z</time>
      </trkpt>
      <trkpt lat="45.02192" lon="6.49231">
        <ele>2604</ele>
        <time>2021-03-08T11:21:07Z</time>
      </trkpt>
      <trkpt lat="45.02192" lon="6.49236">
        <ele>2606</ele>
        <time>2021-03-08T11:21:13Z</time>
      </trkpt>
      <trkpt lat="45.02193" lon="6.4924">
        <ele>2606</ele>
        <time>2021-03-08T11:21:20Z</time>
      </trkpt>
      <trkpt lat="45.02195" lon="6.49244">
        <ele>2607</ele>
        <time>2021-03-08T11:21:27Z</time>
      </trkpt>
      <trkpt lat="45.02198" lon="6.49246">
        <ele>2609</ele>
        <time>2021-03-08T11:21:33Z</time>
      </trkpt>
      <trkpt lat="45.02202" lon="6.49246">
        <ele>2609</ele>
        <time>2021-03-08T11:21:40Z</time>
      </trkpt>
      <trkpt lat="45.02206" lon="6.49247">
        <ele>2611</ele>
        <time>2021-03-08T11:21:46Z</time>
      </trkpt>
      <trkpt lat="45.02209" lon="6.49247">
        <ele>2612</ele>
        <time>2021-03-08T11:21:51Z</time>
      </trkpt>
      <trkpt lat="45.02213" lon="6.49247">
        <ele>2612</ele>
        <time>2021-03-08T11:21:56Z</time>
      </trkpt>
      <trkpt lat="45.02217" lon="6.49248">
        <ele>2615</ele>
        <time>2021-03-08T11:22:02Z</time>
      </trkpt>
      <trkpt lat="45.0222" lon="6.49251">
        <ele>2615</ele>
        <time>2021-03-08T11:22:08Z</time>
      </trkpt>
      <trkpt lat="45.02223" lon="6.49254">
        <ele>2616</ele>
        <time>2021-03-08T11:22:14Z</time>
      </trkpt>
      <trkpt lat="45.02226" lon="6.49258">
        <ele>2616</ele>
        <time>2021-03-08T11:22:20Z</time>
      </trkpt>
      <trkpt lat="45.02229" lon="6.49266">
        <ele>2617</ele>
        <time>2021-03-08T11:22:30Z</time>
      </trkpt>
      <trkpt lat="45.02233" lon="6.49272">
        <ele>2619</ele>
        <time>2021-03-08T11:22:40Z</time>
      </trkpt>
      <trkpt lat="45.02235" lon="6.49275">
        <ele>2621</ele>
        <time>2021-03-08T11:22:47Z</time>
      </trkpt>
      <trkpt lat="45.02239" lon="6.49281">
        <ele>2622</ele>
        <time>2021-03-08T11:22:56Z</time>
      </trkpt>
      <trkpt lat="45.02244" lon="6.49287">
        <ele>2623</ele>
        <time>2021-03-08T11:23:09Z</time>
      </trkpt>
      <trkpt lat="45.02246" lon="6.49292">
        <ele>2624</ele>
        <time>2021-03-08T11:23:19Z</time>
      </trkpt>
      <trkpt lat="45.02245" lon="6.49305">
        <ele>2631</ele>
        <time>2021-03-08T11:24:31Z</time>
      </trkpt>
      <trkpt lat="45.02252" lon="6.49315">
        <ele>2635</ele>
        <time>2021-03-08T11:24:51Z</time>
      </trkpt>
      <trkpt lat="45.02256" lon="6.49321">
        <ele>2635</ele>
        <time>2021-03-08T11:25:09Z</time>
      </trkpt>
      <trkpt lat="45.0226" lon="6.49327">
        <ele>2638</ele>
        <time>2021-03-08T11:25:32Z</time>
      </trkpt>
      <trkpt lat="45.0226" lon="6.49333">
        <ele>2638</ele>
        <time>2021-03-08T11:25:40Z</time>
      </trkpt>
      <trkpt lat="45.02261" lon="6.49339">
        <ele>2640</ele>
        <time>2021-03-08T11:25:46Z</time>
      </trkpt>
      <trkpt lat="45.02262" lon="6.49345">
        <ele>2640</ele>
        <time>2021-03-08T11:25:51Z</time>
      </trkpt>
      <trkpt lat="45.02262" lon="6.49351">
        <ele>2640</ele>
        <time>2021-03-08T11:25:56Z</time>
      </trkpt>
      <trkpt lat="45.02262" lon="6.49356">
        <ele>2640</ele>
        <time>2021-03-08T11:26:02Z</time>
      </trkpt>
      <trkpt lat="45.02262" lon="6.49362">
        <ele>2640</ele>
        <time>2021-03-08T11:26:06Z</time>
      </trkpt>
      <trkpt lat="45.02263" lon="6.49367">
        <ele>2640</ele>
        <time>2021-03-08T11:26:11Z</time>
      </trkpt>
      <trkpt lat="45.02263" lon="6.49372">
        <ele>2640</ele>
        <time>2021-03-08T11:26:15Z</time>
      </trkpt>
      <trkpt lat="45.02264" lon="6.49378">
        <ele>2640</ele>
        <time>2021-03-08T11:26:20Z</time>
      </trkpt>
      <trkpt lat="45.02266" lon="6.49383">
        <ele>2640</ele>
        <time>2021-03-08T11:26:25Z</time>
      </trkpt>
      <trkpt lat="45.02268" lon="6.49389">
        <ele>2638</ele>
        <time>2021-03-08T11:26:31Z</time>
      </trkpt>
      <trkpt lat="45.02271" lon="6.49395">
        <ele>2638</ele>
        <time>2021-03-08T11:26:38Z</time>
      </trkpt>
      <trkpt lat="45.02273" lon="6.49402">
        <ele>2641</ele>
        <time>2021-03-08T11:26:46Z</time>
      </trkpt>
      <trkpt lat="45.02277" lon="6.49404">
        <ele>2644</ele>
        <time>2021-03-08T11:27:01Z</time>
      </trkpt>
      <trkpt lat="45.02284" lon="6.49403">
        <ele>2645</ele>
        <time>2021-03-08T11:27:14Z</time>
      </trkpt>
      <trkpt lat="45.02291" lon="6.49401">
        <ele>2647</ele>
        <time>2021-03-08T11:27:27Z</time>
      </trkpt>
      <trkpt lat="45.02297" lon="6.49399">
        <ele>2649</ele>
        <time>2021-03-08T11:27:38Z</time>
      </trkpt>
      <trkpt lat="45.02303" lon="6.49398">
        <ele>2650</ele>
        <time>2021-03-08T11:27:49Z</time>
      </trkpt>
      <trkpt lat="45.02306" lon="6.49398">
        <ele>2651</ele>
        <time>2021-03-08T11:27:55Z</time>
      </trkpt>
      <trkpt lat="45.0231" lon="6.49398">
        <ele>2654</ele>
        <time>2021-03-08T11:28:02Z</time>
      </trkpt>
      <trkpt lat="45.02313" lon="6.49398">
        <ele>2654</ele>
        <time>2021-03-08T11:28:09Z</time>
      </trkpt>
      <trkpt lat="45.02316" lon="6.49397">
        <ele>2656</ele>
        <time>2021-03-08T11:28:15Z</time>
      </trkpt>
      <trkpt lat="45.02319" lon="6.49397">
        <ele>2656</ele>
        <time>2021-03-08T11:28:20Z</time>
      </trkpt>
      <trkpt lat="45.02322" lon="6.49399">
        <ele>2658</ele>
        <time>2021-03-08T11:28:25Z</time>
      </trkpt>
      <trkpt lat="45.02325" lon="6.49403">
        <ele>2659</ele>
        <time>2021-03-08T11:28:33Z</time>
      </trkpt>
      <trkpt lat="45.02326" lon="6.4941">
        <ele>2660</ele>
        <time>2021-03-08T11:28:42Z</time>
      </trkpt>
      <trkpt lat="45.02327" lon="6.49416">
        <ele>2660</ele>
        <time>2021-03-08T11:28:49Z</time>
      </trkpt>
      <trkpt lat="45.02327" lon="6.49422">
        <ele>2662</ele>
        <time>2021-03-08T11:28:56Z</time>
      </trkpt>
      <trkpt lat="45.02326" lon="6.49427">
        <ele>2663</ele>
        <time>2021-03-08T11:29:03Z</time>
      </trkpt>
      <trkpt lat="45.02324" lon="6.49432">
        <ele>2664</ele>
        <time>2021-03-08T11:29:11Z</time>
      </trkpt>
      <trkpt lat="45.02322" lon="6.49438">
        <ele>2664</ele>
        <time>2021-03-08T11:29:19Z</time>
      </trkpt>
      <trkpt lat="45.0232" lon="6.49443">
        <ele>2666</ele>
        <time>2021-03-08T11:29:29Z</time>
      </trkpt>
      <trkpt lat="45.02318" lon="6.49448">
        <ele>2668</ele>
        <time>2021-03-08T11:29:38Z</time>
      </trkpt>
      <trkpt lat="45.02325" lon="6.49453">
        <ele>2671</ele>
        <time>2021-03-08T11:29:58Z</time>
      </trkpt>
      <trkpt lat="45.02332" lon="6.49456">
        <ele>2674</ele>
        <time>2021-03-08T11:30:12Z</time>
      </trkpt>
      <trkpt lat="45.02339" lon="6.49458">
        <ele>2677</ele>
        <time>2021-03-08T11:30:33Z</time>
      </trkpt>
      <trkpt lat="45.02346" lon="6.4946">
        <ele>2679</ele>
        <time>2021-03-08T11:30:49Z</time>
      </trkpt>
      <trkpt lat="45.02354" lon="6.49462">
        <ele>2684</ele>
        <time>2021-03-08T11:31:11Z</time>
      </trkpt>
      <trkpt lat="45.02362" lon="6.49462">
        <ele>2685</ele>
        <time>2021-03-08T11:31:30Z</time>
      </trkpt>
      <trkpt lat="45.02369" lon="6.49463">
        <ele>2689</ele>
        <time>2021-03-08T11:31:48Z</time>
      </trkpt>
      <trkpt lat="45.02377" lon="6.49464">
        <ele>2692</ele>
        <time>2021-03-08T11:32:05Z</time>
      </trkpt>
      <trkpt lat="45.0238" lon="6.49472">
        <ele>2697</ele>
        <time>2021-03-08T11:32:34Z</time>
      </trkpt>
      <trkpt lat="45.02377" lon="6.49479">
        <ele>2698</ele>
        <time>2021-03-08T11:32:50Z</time>
      </trkpt>
      <trkpt lat="45.02372" lon="6.49487">
        <ele>2700</ele>
        <time>2021-03-08T11:33:03Z</time>
      </trkpt>
      <trkpt lat="45.02369" lon="6.49494">
        <ele>2701</ele>
        <time>2021-03-08T11:33:17Z</time>
      </trkpt>
      <trkpt lat="45.02367" lon="6.49498">
        <ele>2703</ele>
        <time>2021-03-08T11:33:23Z</time>
      </trkpt>
      <trkpt lat="45.02364" lon="6.49503">
        <ele>2706</ele>
        <time>2021-03-08T11:34:11Z</time>
      </trkpt>
      <trkpt lat="45.02361" lon="6.49507">
        <ele>2706</ele>
        <time>2021-03-08T11:34:25Z</time>
      </trkpt>
      <trkpt lat="45.02359" lon="6.49511">
        <ele>2708</ele>
        <time>2021-03-08T11:34:32Z</time>
      </trkpt>
      <trkpt lat="45.02363" lon="6.49512">
        <ele>2709</ele>
        <time>2021-03-08T11:34:46Z</time>
      </trkpt>
      <trkpt lat="45.02369" lon="6.49513">
        <ele>2711</ele>
        <time>2021-03-08T11:34:54Z</time>
      </trkpt>
      <trkpt lat="45.02374" lon="6.49513">
        <ele>2712</ele>
        <time>2021-03-08T11:35:01Z</time>
      </trkpt>
      <trkpt lat="45.02378" lon="6.49512">
        <ele>2713</ele>
        <time>2021-03-08T11:35:17Z</time>
      </trkpt>
      <trkpt lat="45.02387" lon="6.4951">
        <ele>2716</ele>
        <time>2021-03-08T11:35:31Z</time>
      </trkpt>
      <trkpt lat="45.02391" lon="6.49511">
        <ele>2716</ele>
        <time>2021-03-08T11:35:37Z</time>
      </trkpt>
      <trkpt lat="45.02396" lon="6.49512">
        <ele>2717</ele>
        <time>2021-03-08T11:35:43Z</time>
      </trkpt>
      <trkpt lat="45.02399" lon="6.49511">
        <ele>2717</ele>
        <time>2021-03-08T11:35:48Z</time>
      </trkpt>
      <trkpt lat="45.02402" lon="6.4951">
        <ele>2718</ele>
        <time>2021-03-08T11:35:52Z</time>
      </trkpt>
      <trkpt lat="45.02402" lon="6.49515">
        <ele>2718</ele>
        <time>2021-03-08T11:36:19Z</time>
      </trkpt>
      <trkpt lat="45.02402" lon="6.49524">
        <ele>2720</ele>
        <time>2021-03-08T12:31:20Z</time>
      </trkpt>
      <trkpt lat="45.02396" lon="6.49532">
        <ele>2717</ele>
        <time>2021-03-08T12:31:55Z</time>
      </trkpt>
      <trkpt lat="45.02398" lon="6.49548">
        <ele>2715</ele>
        <time>2021-03-08T12:32:14Z</time>
      </trkpt>
      <trkpt lat="45.02402" lon="6.49558">
        <ele>2715</ele>
        <time>2021-03-08T12:32:16Z</time>
      </trkpt>
      <trkpt lat="45.02407" lon="6.49573">
        <ele>2715</ele>
        <time>2021-03-08T12:32:19Z</time>
      </trkpt>
      <trkpt lat="45.0241" lon="6.49583">
        <ele>2699</ele>
        <time>2021-03-08T12:32:21Z</time>
      </trkpt>
      <trkpt lat="45.02414" lon="6.49597">
        <ele>2699</ele>
        <time>2021-03-08T12:32:24Z</time>
      </trkpt>
      <trkpt lat="45.02424" lon="6.49606">
        <ele>2699</ele>
        <time>2021-03-08T12:32:27Z</time>
      </trkpt>
      <trkpt lat="45.02437" lon="6.49614">
        <ele>2699</ele>
        <time>2021-03-08T12:32:30Z</time>
      </trkpt>
      <trkpt lat="45.0244" lon="6.49631">
        <ele>2670</ele>
        <time>2021-03-08T12:32:33Z</time>
      </trkpt>
      <trkpt lat="45.02431" lon="6.49648">
        <ele>2670</ele>
        <time>2021-03-08T12:32:35Z</time>
      </trkpt>
      <trkpt lat="45.02421" lon="6.49659">
        <ele>2670</ele>
        <time>2021-03-08T12:32:37Z</time>
      </trkpt>
      <trkpt lat="45.02411" lon="6.49657">
        <ele>2648</ele>
        <time>2021-03-08T12:32:51Z</time>
      </trkpt>
      <trkpt lat="45.024" lon="6.49664">
        <ele>2648</ele>
        <time>2021-03-08T12:33:46Z</time>
      </trkpt>
      <trkpt lat="45.02392" lon="6.49675">
        <ele>2645</ele>
        <time>2021-03-08T12:33:51Z</time>
      </trkpt>
      <trkpt lat="45.02385" lon="6.49688">
        <ele>2645</ele>
        <time>2021-03-08T12:33:55Z</time>
      </trkpt>
      <trkpt lat="45.02382" lon="6.49705">
        <ele>2645</ele>
        <time>2021-03-08T12:33:59Z</time>
      </trkpt>
      <trkpt lat="45.02374" lon="6.4972">
        <ele>2632</ele>
        <time>2021-03-08T12:34:03Z</time>
      </trkpt>
      <trkpt lat="45.02369" lon="6.49738">
        <ele>2632</ele>
        <time>2021-03-08T12:34:07Z</time>
      </trkpt>
      <trkpt lat="45.02366" lon="6.49753">
        <ele>2632</ele>
        <time>2021-03-08T12:34:09Z</time>
      </trkpt>
      <trkpt lat="45.02366" lon="6.4977">
        <ele>2615</ele>
        <time>2021-03-08T12:34:11Z</time>
      </trkpt>
      <trkpt lat="45.02372" lon="6.49783">
        <ele>2615</ele>
        <time>2021-03-08T12:34:13Z</time>
      </trkpt>
      <trkpt lat="45.02384" lon="6.49791">
        <ele>2615</ele>
        <time>2021-03-08T12:34:15Z</time>
      </trkpt>
      <trkpt lat="45.02393" lon="6.49796">
        <ele>2615</ele>
        <time>2021-03-08T12:34:17Z</time>
      </trkpt>
      <trkpt lat="45.02404" lon="6.49801">
        <ele>2608</ele>
        <time>2021-03-08T12:34:23Z</time>
      </trkpt>
      <trkpt lat="45.02406" lon="6.49816">
        <ele>2608</ele>
        <time>2021-03-08T12:34:29Z</time>
      </trkpt>
      <trkpt lat="45.02405" lon="6.49835">
        <ele>2608</ele>
        <time>2021-03-08T12:34:32Z</time>
      </trkpt>
      <trkpt lat="45.02405" lon="6.49853">
        <ele>2608</ele>
        <time>2021-03-08T12:34:34Z</time>
      </trkpt>
      <trkpt lat="45.02408" lon="6.4987">
        <ele>2608</ele>
        <time>2021-03-08T12:34:36Z</time>
      </trkpt>
      <trkpt lat="45.02408" lon="6.49888">
        <ele>2608</ele>
        <time>2021-03-08T12:34:38Z</time>
      </trkpt>
      <trkpt lat="45.02409" lon="6.49908">
        <ele>2608</ele>
        <time>2021-03-08T12:34:40Z</time>
      </trkpt>
      <trkpt lat="45.02409" lon="6.49918">
        <ele>2598</ele>
        <time>2021-03-08T12:34:41Z</time>
      </trkpt>
      <trkpt lat="45.0241" lon="6.49929">
        <ele>2598</ele>
        <time>2021-03-08T12:34:42Z</time>
      </trkpt>
      <trkpt lat="45.02411" lon="6.49939">
        <ele>2598</ele>
        <time>2021-03-08T12:34:43Z</time>
      </trkpt>
      <trkpt lat="45.02412" lon="6.49957">
        <ele>2598</ele>
        <time>2021-03-08T12:34:45Z</time>
      </trkpt>
      <trkpt lat="45.02413" lon="6.4997">
        <ele>2598</ele>
        <time>2021-03-08T12:34:47Z</time>
      </trkpt>
      <trkpt lat="45.02415" lon="6.49979">
        <ele>2598</ele>
        <time>2021-03-08T12:34:49Z</time>
      </trkpt>
      <trkpt lat="45.02415" lon="6.49988">
        <ele>2587</ele>
        <time>2021-03-08T12:34:51Z</time>
      </trkpt>
      <trkpt lat="45.02413" lon="6.49999">
        <ele>2587</ele>
        <time>2021-03-08T12:34:54Z</time>
      </trkpt>
      <trkpt lat="45.02408" lon="6.50009">
        <ele>2587</ele>
        <time>2021-03-08T12:34:58Z</time>
      </trkpt>
      <trkpt lat="45.02403" lon="6.50016">
        <ele>2584</ele>
        <time>2021-03-08T12:35:04Z</time>
      </trkpt>
      <trkpt lat="45.02396" lon="6.50019">
        <ele>2584</ele>
        <time>2021-03-08T12:35:17Z</time>
      </trkpt>
      <trkpt lat="45.02388" lon="6.50025">
        <ele>2584</ele>
        <time>2021-03-08T12:35:22Z</time>
      </trkpt>
      <trkpt lat="45.02381" lon="6.50031">
        <ele>2584</ele>
        <time>2021-03-08T12:35:25Z</time>
      </trkpt>
      <trkpt lat="45.02373" lon="6.50038">
        <ele>2584</ele>
        <time>2021-03-08T12:35:28Z</time>
      </trkpt>
      <trkpt lat="45.02366" lon="6.50044">
        <ele>2584</ele>
        <time>2021-03-08T12:35:30Z</time>
      </trkpt>
      <trkpt lat="45.02357" lon="6.50054">
        <ele>2581</ele>
        <time>2021-03-08T12:35:33Z</time>
      </trkpt>
      <trkpt lat="45.02351" lon="6.5006">
        <ele>2581</ele>
        <time>2021-03-08T12:35:36Z</time>
      </trkpt>
      <trkpt lat="45.02347" lon="6.50068">
        <ele>2578</ele>
        <time>2021-03-08T12:37:24Z</time>
      </trkpt>
      <trkpt lat="45.02343" lon="6.5008">
        <ele>2578</ele>
        <time>2021-03-08T12:37:27Z</time>
      </trkpt>
      <trkpt lat="45.02342" lon="6.50096">
        <ele>2578</ele>
        <time>2021-03-08T12:37:30Z</time>
      </trkpt>
      <trkpt lat="45.0234" lon="6.50114">
        <ele>2572</ele>
        <time>2021-03-08T12:37:33Z</time>
      </trkpt>
      <trkpt lat="45.02339" lon="6.50128">
        <ele>2572</ele>
        <time>2021-03-08T12:37:35Z</time>
      </trkpt>
      <trkpt lat="45.02338" lon="6.50145">
        <ele>2572</ele>
        <time>2021-03-08T12:37:37Z</time>
      </trkpt>
      <trkpt lat="45.02339" lon="6.50164">
        <ele>2572</ele>
        <time>2021-03-08T12:37:39Z</time>
      </trkpt>
      <trkpt lat="45.02336" lon="6.50186">
        <ele>2544</ele>
        <time>2021-03-08T12:37:41Z</time>
      </trkpt>
      <trkpt lat="45.02335" lon="6.50209">
        <ele>2544</ele>
        <time>2021-03-08T12:37:43Z</time>
      </trkpt>
      <trkpt lat="45.02335" lon="6.50233">
        <ele>2544</ele>
        <time>2021-03-08T12:37:45Z</time>
      </trkpt>
      <trkpt lat="45.0234" lon="6.50258">
        <ele>2544</ele>
        <time>2021-03-08T12:37:47Z</time>
      </trkpt>
      <trkpt lat="45.02344" lon="6.50284">
        <ele>2544</ele>
        <time>2021-03-08T12:37:49Z</time>
      </trkpt>
      <trkpt lat="45.02347" lon="6.50297">
        <ele>2544</ele>
        <time>2021-03-08T12:37:50Z</time>
      </trkpt>
      <trkpt lat="45.0235" lon="6.50311">
        <ele>2511</ele>
        <time>2021-03-08T12:37:51Z</time>
      </trkpt>
      <trkpt lat="45.02352" lon="6.50324">
        <ele>2511</ele>
        <time>2021-03-08T12:37:52Z</time>
      </trkpt>
      <trkpt lat="45.02355" lon="6.50336">
        <ele>2511</ele>
        <time>2021-03-08T12:37:53Z</time>
      </trkpt>
      <trkpt lat="45.02357" lon="6.50348">
        <ele>2511</ele>
        <time>2021-03-08T12:37:54Z</time>
      </trkpt>
      <trkpt lat="45.02362" lon="6.5036">
        <ele>2511</ele>
        <time>2021-03-08T12:37:55Z</time>
      </trkpt>
      <trkpt lat="45.02366" lon="6.50371">
        <ele>2511</ele>
        <time>2021-03-08T12:37:56Z</time>
      </trkpt>
      <trkpt lat="45.0237" lon="6.50382">
        <ele>2511</ele>
        <time>2021-03-08T12:37:57Z</time>
      </trkpt>
      <trkpt lat="45.02372" lon="6.50393">
        <ele>2511</ele>
        <time>2021-03-08T12:37:58Z</time>
      </trkpt>
      <trkpt lat="45.02374" lon="6.50403">
        <ele>2511</ele>
        <time>2021-03-08T12:37:59Z</time>
      </trkpt>
      <trkpt lat="45.02375" lon="6.50413">
        <ele>2511</ele>
        <time>2021-03-08T12:38:00Z</time>
      </trkpt>
      <trkpt lat="45.02375" lon="6.50423">
        <ele>2498</ele>
        <time>2021-03-08T12:38:01Z</time>
      </trkpt>
      <trkpt lat="45.02378" lon="6.50439">
        <ele>2498</ele>
        <time>2021-03-08T12:38:03Z</time>
      </trkpt>
      <trkpt lat="45.02382" lon="6.50453">
        <ele>2498</ele>
        <time>2021-03-08T12:38:05Z</time>
      </trkpt>
      <trkpt lat="45.02385" lon="6.50466">
        <ele>2498</ele>
        <time>2021-03-08T12:38:07Z</time>
      </trkpt>
      <trkpt lat="45.02388" lon="6.50478">
        <ele>2498</ele>
        <time>2021-03-08T12:38:09Z</time>
      </trkpt>
      <trkpt lat="45.0239" lon="6.50488">
        <ele>2494</ele>
        <time>2021-03-08T12:38:11Z</time>
      </trkpt>
      <trkpt lat="45.02392" lon="6.50496">
        <ele>2494</ele>
        <time>2021-03-08T12:38:13Z</time>
      </trkpt>
      <trkpt lat="45.02394" lon="6.50503">
        <ele>2494</ele>
        <time>2021-03-08T12:38:18Z</time>
      </trkpt>
      <trkpt lat="45.02397" lon="6.50513">
        <ele>2494</ele>
        <time>2021-03-08T12:38:23Z</time>
      </trkpt>
      <trkpt lat="45.02402" lon="6.50526">
        <ele>2494</ele>
        <time>2021-03-08T12:39:14Z</time>
      </trkpt>
      <trkpt lat="45.02404" lon="6.50542">
        <ele>2494</ele>
        <time>2021-03-08T12:39:19Z</time>
      </trkpt>
      <trkpt lat="45.02404" lon="6.50558">
        <ele>2493</ele>
        <time>2021-03-08T12:39:23Z</time>
      </trkpt>
      <trkpt lat="45.02405" lon="6.50572">
        <ele>2493</ele>
        <time>2021-03-08T12:39:26Z</time>
      </trkpt>
      <trkpt lat="45.02407" lon="6.50584">
        <ele>2493</ele>
        <time>2021-03-08T12:39:28Z</time>
      </trkpt>
      <trkpt lat="45.02407" lon="6.50591">
        <ele>2493</ele>
        <time>2021-03-08T12:39:29Z</time>
      </trkpt>
      <trkpt lat="45.02407" lon="6.50599">
        <ele>2493</ele>
        <time>2021-03-08T12:39:30Z</time>
      </trkpt>
      <trkpt lat="45.02407" lon="6.50607">
        <ele>2489</ele>
        <time>2021-03-08T12:39:31Z</time>
      </trkpt>
      <trkpt lat="45.02406" lon="6.50615">
        <ele>2489</ele>
        <time>2021-03-08T12:39:32Z</time>
      </trkpt>
      <trkpt lat="45.02406" lon="6.50623">
        <ele>2489</ele>
        <time>2021-03-08T12:39:33Z</time>
      </trkpt>
      <trkpt lat="45.02405" lon="6.50632">
        <ele>2489</ele>
        <time>2021-03-08T12:39:34Z</time>
      </trkpt>
      <trkpt lat="45.02405" lon="6.50641">
        <ele>2489</ele>
        <time>2021-03-08T12:39:35Z</time>
      </trkpt>
      <trkpt lat="45.02404" lon="6.5065">
        <ele>2489</ele>
        <time>2021-03-08T12:39:36Z</time>
      </trkpt>
      <trkpt lat="45.02403" lon="6.5066">
        <ele>2489</ele>
        <time>2021-03-08T12:39:37Z</time>
      </trkpt>
      <trkpt lat="45.02403" lon="6.50669">
        <ele>2489</ele>
        <time>2021-03-08T12:39:38Z</time>
      </trkpt>
      <trkpt lat="45.02403" lon="6.5068">
        <ele>2489</ele>
        <time>2021-03-08T12:39:39Z</time>
      </trkpt>
      <trkpt lat="45.02404" lon="6.5069">
        <ele>2489</ele>
        <time>2021-03-08T12:39:40Z</time>
      </trkpt>
      <trkpt lat="45.02404" lon="6.50709">
        <ele>2477</ele>
        <time>2021-03-08T12:39:42Z</time>
      </trkpt>
      <trkpt lat="45.02405" lon="6.5073">
        <ele>2477</ele>
        <time>2021-03-08T12:39:44Z</time>
      </trkpt>
      <trkpt lat="45.02406" lon="6.5074">
        <ele>2477</ele>
        <time>2021-03-08T12:39:45Z</time>
      </trkpt>
      <trkpt lat="45.02407" lon="6.5075">
        <ele>2477</ele>
        <time>2021-03-08T12:39:46Z</time>
      </trkpt>
      <trkpt lat="45.02408" lon="6.50761">
        <ele>2477</ele>
        <time>2021-03-08T12:39:47Z</time>
      </trkpt>
      <trkpt lat="45.0241" lon="6.50772">
        <ele>2477</ele>
        <time>2021-03-08T12:39:48Z</time>
      </trkpt>
      <trkpt lat="45.02411" lon="6.50784">
        <ele>2477</ele>
        <time>2021-03-08T12:39:49Z</time>
      </trkpt>
      <trkpt lat="45.02413" lon="6.50795">
        <ele>2477</ele>
        <time>2021-03-08T12:39:50Z</time>
      </trkpt>
      <trkpt lat="45.02414" lon="6.50806">
        <ele>2463</ele>
        <time>2021-03-08T12:39:51Z</time>
      </trkpt>
      <trkpt lat="45.02414" lon="6.50815">
        <ele>2463</ele>
        <time>2021-03-08T12:39:52Z</time>
      </trkpt>
      <trkpt lat="45.02414" lon="6.50824">
        <ele>2463</ele>
        <time>2021-03-08T12:39:53Z</time>
      </trkpt>
      <trkpt lat="45.02414" lon="6.50838">
        <ele>2463</ele>
        <time>2021-03-08T12:39:55Z</time>
      </trkpt>
      <trkpt lat="45.02414" lon="6.50853">
        <ele>2463</ele>
        <time>2021-03-08T12:39:58Z</time>
      </trkpt>
      <trkpt lat="45.02413" lon="6.5087">
        <ele>2457</ele>
        <time>2021-03-08T12:40:02Z</time>
      </trkpt>
      <trkpt lat="45.02413" lon="6.50885">
        <ele>2457</ele>
        <time>2021-03-08T12:40:05Z</time>
      </trkpt>
      <trkpt lat="45.02412" lon="6.50897">
        <ele>2457</ele>
        <time>2021-03-08T12:40:07Z</time>
      </trkpt>
      <trkpt lat="45.02412" lon="6.5091">
        <ele>2457</ele>
        <time>2021-03-08T12:40:09Z</time>
      </trkpt>
      <trkpt lat="45.02411" lon="6.50924">
        <ele>2454</ele>
        <time>2021-03-08T12:40:11Z</time>
      </trkpt>
      <trkpt lat="45.02411" lon="6.50936">
        <ele>2454</ele>
        <time>2021-03-08T12:40:13Z</time>
      </trkpt>
      <trkpt lat="45.02411" lon="6.5095">
        <ele>2454</ele>
        <time>2021-03-08T12:40:16Z</time>
      </trkpt>
      <trkpt lat="45.02413" lon="6.50967">
        <ele>2454</ele>
        <time>2021-03-08T12:40:20Z</time>
      </trkpt>
      <trkpt lat="45.02411" lon="6.50982">
        <ele>2453</ele>
        <time>2021-03-08T12:40:23Z</time>
      </trkpt>
      <trkpt lat="45.0241" lon="6.50994">
        <ele>2453</ele>
        <time>2021-03-08T12:40:25Z</time>
      </trkpt>
      <trkpt lat="45.02408" lon="6.51013">
        <ele>2453</ele>
        <time>2021-03-08T12:40:28Z</time>
      </trkpt>
      <trkpt lat="45.02406" lon="6.51028">
        <ele>2453</ele>
        <time>2021-03-08T12:40:30Z</time>
      </trkpt>
      <trkpt lat="45.02402" lon="6.51044">
        <ele>2450</ele>
        <time>2021-03-08T12:40:33Z</time>
      </trkpt>
      <trkpt lat="45.024" lon="6.51058">
        <ele>2450</ele>
        <time>2021-03-08T12:40:38Z</time>
      </trkpt>
      <trkpt lat="45.02398" lon="6.51065">
        <ele>2448</ele>
        <time>2021-03-08T12:40:48Z</time>
      </trkpt>
      <trkpt lat="45.02393" lon="6.51078">
        <ele>2448</ele>
        <time>2021-03-08T12:41:33Z</time>
      </trkpt>
      <trkpt lat="45.02388" lon="6.51092">
        <ele>2448</ele>
        <time>2021-03-08T12:41:37Z</time>
      </trkpt>
      <trkpt lat="45.02383" lon="6.51109">
        <ele>2445</ele>
        <time>2021-03-08T12:41:41Z</time>
      </trkpt>
      <trkpt lat="45.02378" lon="6.51124">
        <ele>2445</ele>
        <time>2021-03-08T12:41:44Z</time>
      </trkpt>
      <trkpt lat="45.02373" lon="6.51138">
        <ele>2445</ele>
        <time>2021-03-08T12:41:47Z</time>
      </trkpt>
      <trkpt lat="45.02369" lon="6.51146">
        <ele>2445</ele>
        <time>2021-03-08T12:41:49Z</time>
      </trkpt>
      <trkpt lat="45.02364" lon="6.51159">
        <ele>2442</ele>
        <time>2021-03-08T12:41:52Z</time>
      </trkpt>
      <trkpt lat="45.02359" lon="6.5117">
        <ele>2442</ele>
        <time>2021-03-08T12:41:55Z</time>
      </trkpt>
      <trkpt lat="45.02355" lon="6.51185">
        <ele>2442</ele>
        <time>2021-03-08T12:41:59Z</time>
      </trkpt>
      <trkpt lat="45.02349" lon="6.51198">
        <ele>2439</ele>
        <time>2021-03-08T12:42:03Z</time>
      </trkpt>
      <trkpt lat="45.02343" lon="6.51212">
        <ele>2439</ele>
        <time>2021-03-08T12:42:07Z</time>
      </trkpt>
      <trkpt lat="45.02336" lon="6.51224">
        <ele>2439</ele>
        <time>2021-03-08T12:42:10Z</time>
      </trkpt>
      <trkpt lat="45.02328" lon="6.51234">
        <ele>2437</ele>
        <time>2021-03-08T12:42:13Z</time>
      </trkpt>
      <trkpt lat="45.0232" lon="6.51245">
        <ele>2437</ele>
        <time>2021-03-08T12:42:16Z</time>
      </trkpt>
      <trkpt lat="45.02312" lon="6.51257">
        <ele>2437</ele>
        <time>2021-03-08T12:42:19Z</time>
      </trkpt>
      <trkpt lat="45.02306" lon="6.51265">
        <ele>2432</ele>
        <time>2021-03-08T12:42:21Z</time>
      </trkpt>
      <trkpt lat="45.02299" lon="6.5128">
        <ele>2432</ele>
        <time>2021-03-08T12:42:24Z</time>
      </trkpt>
      <trkpt lat="45.02293" lon="6.51295">
        <ele>2432</ele>
        <time>2021-03-08T12:42:26Z</time>
      </trkpt>
      <trkpt lat="45.02287" lon="6.5132">
        <ele>2432</ele>
        <time>2021-03-08T12:42:29Z</time>
      </trkpt>
      <trkpt lat="45.02283" lon="6.51338">
        <ele>2421</ele>
        <time>2021-03-08T12:42:31Z</time>
      </trkpt>
      <trkpt lat="45.02275" lon="6.51357">
        <ele>2421</ele>
        <time>2021-03-08T12:42:33Z</time>
      </trkpt>
      <trkpt lat="45.0227" lon="6.5137">
        <ele>2421</ele>
        <time>2021-03-08T12:42:34Z</time>
      </trkpt>
      <trkpt lat="45.02264" lon="6.51394">
        <ele>2421</ele>
        <time>2021-03-08T12:42:36Z</time>
      </trkpt>
      <trkpt lat="45.02262" lon="6.51413">
        <ele>2421</ele>
        <time>2021-03-08T12:42:38Z</time>
      </trkpt>
      <trkpt lat="45.02259" lon="6.51426">
        <ele>2421</ele>
        <time>2021-03-08T12:42:40Z</time>
      </trkpt>
      <trkpt lat="45.02258" lon="6.51443">
        <ele>2402</ele>
        <time>2021-03-08T12:42:44Z</time>
      </trkpt>
      <trkpt lat="45.02257" lon="6.5146">
        <ele>2402</ele>
        <time>2021-03-08T12:42:47Z</time>
      </trkpt>
      <trkpt lat="45.02258" lon="6.51477">
        <ele>2402</ele>
        <time>2021-03-08T12:42:49Z</time>
      </trkpt>
      <trkpt lat="45.02256" lon="6.51495">
        <ele>2398</ele>
        <time>2021-03-08T12:42:51Z</time>
      </trkpt>
      <trkpt lat="45.0225" lon="6.51509">
        <ele>2398</ele>
        <time>2021-03-08T12:42:53Z</time>
      </trkpt>
      <trkpt lat="45.02243" lon="6.51519">
        <ele>2398</ele>
        <time>2021-03-08T12:42:55Z</time>
      </trkpt>
      <trkpt lat="45.02235" lon="6.51528">
        <ele>2398</ele>
        <time>2021-03-08T12:42:58Z</time>
      </trkpt>
      <trkpt lat="45.02233" lon="6.51528">
        <ele>2391</ele>
        <time>2021-03-08T12:43:12Z</time>
      </trkpt>
      <trkpt lat="45.02231" lon="6.51532">
        <ele>2391</ele>
        <time>2021-03-08T12:43:33Z</time>
      </trkpt>
      <trkpt lat="45.02229" lon="6.51537">
        <ele>2390</ele>
        <time>2021-03-08T12:44:34Z</time>
      </trkpt>
      <trkpt lat="45.02224" lon="6.51544">
        <ele>2390</ele>
        <time>2021-03-08T12:44:36Z</time>
      </trkpt>
      <trkpt lat="45.02221" lon="6.51549">
        <ele>2390</ele>
        <time>2021-03-08T12:44:37Z</time>
      </trkpt>
      <trkpt lat="45.02214" lon="6.51562">
        <ele>2390</ele>
        <time>2021-03-08T12:44:39Z</time>
      </trkpt>
      <trkpt lat="45.02208" lon="6.51577">
        <ele>2385</ele>
        <time>2021-03-08T12:44:41Z</time>
      </trkpt>
      <trkpt lat="45.02206" lon="6.516">
        <ele>2385</ele>
        <time>2021-03-08T12:44:43Z</time>
      </trkpt>
      <trkpt lat="45.02198" lon="6.51621">
        <ele>2385</ele>
        <time>2021-03-08T12:44:45Z</time>
      </trkpt>
      <trkpt lat="45.02188" lon="6.51634">
        <ele>2385</ele>
        <time>2021-03-08T12:44:47Z</time>
      </trkpt>
      <trkpt lat="45.02185" lon="6.51648">
        <ele>2385</ele>
        <time>2021-03-08T12:44:49Z</time>
      </trkpt>
      <trkpt lat="45.02187" lon="6.51665">
        <ele>2368</ele>
        <time>2021-03-08T12:44:51Z</time>
      </trkpt>
      <trkpt lat="45.0219" lon="6.51684">
        <ele>2368</ele>
        <time>2021-03-08T12:44:53Z</time>
      </trkpt>
      <trkpt lat="45.02189" lon="6.51703">
        <ele>2368</ele>
        <time>2021-03-08T12:44:56Z</time>
      </trkpt>
      <trkpt lat="45.02189" lon="6.51717">
        <ele>2368</ele>
        <time>2021-03-08T12:45:00Z</time>
      </trkpt>
      <trkpt lat="45.02187" lon="6.51733">
        <ele>2360</ele>
        <time>2021-03-08T12:45:04Z</time>
      </trkpt>
      <trkpt lat="45.02185" lon="6.51751">
        <ele>2360</ele>
        <time>2021-03-08T12:45:08Z</time>
      </trkpt>
      <trkpt lat="45.02183" lon="6.51763">
        <ele>2358</ele>
        <time>2021-03-08T12:45:11Z</time>
      </trkpt>
      <trkpt lat="45.02182" lon="6.51778">
        <ele>2358</ele>
        <time>2021-03-08T12:45:14Z</time>
      </trkpt>
      <trkpt lat="45.02181" lon="6.51792">
        <ele>2358</ele>
        <time>2021-03-08T12:45:16Z</time>
      </trkpt>
      <trkpt lat="45.0218" lon="6.51814">
        <ele>2358</ele>
        <time>2021-03-08T12:45:18Z</time>
      </trkpt>
      <trkpt lat="45.02181" lon="6.5184">
        <ele>2358</ele>
        <time>2021-03-08T12:45:20Z</time>
      </trkpt>
      <trkpt lat="45.02186" lon="6.5186">
        <ele>2351</ele>
        <time>2021-03-08T12:45:22Z</time>
      </trkpt>
      <trkpt lat="45.02191" lon="6.51878">
        <ele>2351</ele>
        <time>2021-03-08T12:45:24Z</time>
      </trkpt>
      <trkpt lat="45.02194" lon="6.51887">
        <ele>2351</ele>
        <time>2021-03-08T12:45:25Z</time>
      </trkpt>
      <trkpt lat="45.02197" lon="6.51897">
        <ele>2351</ele>
        <time>2021-03-08T12:45:26Z</time>
      </trkpt>
      <trkpt lat="45.02204" lon="6.51916">
        <ele>2351</ele>
        <time>2021-03-08T12:45:28Z</time>
      </trkpt>
      <trkpt lat="45.02207" lon="6.51926">
        <ele>2351</ele>
        <time>2021-03-08T12:45:29Z</time>
      </trkpt>
      <trkpt lat="45.02211" lon="6.51936">
        <ele>2351</ele>
        <time>2021-03-08T12:45:30Z</time>
      </trkpt>
      <trkpt lat="45.02215" lon="6.51945">
        <ele>2335</ele>
        <time>2021-03-08T12:45:31Z</time>
      </trkpt>
      <trkpt lat="45.02218" lon="6.51954">
        <ele>2335</ele>
        <time>2021-03-08T12:45:32Z</time>
      </trkpt>
      <trkpt lat="45.02222" lon="6.51963">
        <ele>2335</ele>
        <time>2021-03-08T12:45:33Z</time>
      </trkpt>
      <trkpt lat="45.02226" lon="6.51972">
        <ele>2335</ele>
        <time>2021-03-08T12:45:34Z</time>
      </trkpt>
      <trkpt lat="45.0223" lon="6.51981">
        <ele>2335</ele>
        <time>2021-03-08T12:45:35Z</time>
      </trkpt>
      <trkpt lat="45.02241" lon="6.52">
        <ele>2335</ele>
        <time>2021-03-08T12:45:37Z</time>
      </trkpt>
      <trkpt lat="45.02247" lon="6.52009">
        <ele>2335</ele>
        <time>2021-03-08T12:45:38Z</time>
      </trkpt>
      <trkpt lat="45.02252" lon="6.52016">
        <ele>2335</ele>
        <time>2021-03-08T12:45:39Z</time>
      </trkpt>
      <trkpt lat="45.02258" lon="6.52024">
        <ele>2325</ele>
        <time>2021-03-08T12:45:40Z</time>
      </trkpt>
      <trkpt lat="45.02267" lon="6.52037">
        <ele>2325</ele>
        <time>2021-03-08T12:45:42Z</time>
      </trkpt>
      <trkpt lat="45.02277" lon="6.5205">
        <ele>2325</ele>
        <time>2021-03-08T12:45:44Z</time>
      </trkpt>
      <trkpt lat="45.0229" lon="6.52066">
        <ele>2325</ele>
        <time>2021-03-08T12:45:47Z</time>
      </trkpt>
      <trkpt lat="45.02295" lon="6.52071">
        <ele>2325</ele>
        <time>2021-03-08T12:45:48Z</time>
      </trkpt>
      <trkpt lat="45.02299" lon="6.52077">
        <ele>2325</ele>
        <time>2021-03-08T12:45:49Z</time>
      </trkpt>
      <trkpt lat="45.02304" lon="6.52082">
        <ele>2317</ele>
        <time>2021-03-08T12:45:50Z</time>
      </trkpt>
      <trkpt lat="45.02314" lon="6.52093">
        <ele>2317</ele>
        <time>2021-03-08T12:45:52Z</time>
      </trkpt>
      <trkpt lat="45.02324" lon="6.52105">
        <ele>2317</ele>
        <time>2021-03-08T12:45:54Z</time>
      </trkpt>
      <trkpt lat="45.02338" lon="6.52123">
        <ele>2317</ele>
        <time>2021-03-08T12:45:57Z</time>
      </trkpt>
      <trkpt lat="45.02347" lon="6.52133">
        <ele>2317</ele>
        <time>2021-03-08T12:45:59Z</time>
      </trkpt>
      <trkpt lat="45.02356" lon="6.52142">
        <ele>2309</ele>
        <time>2021-03-08T12:46:01Z</time>
      </trkpt>
      <trkpt lat="45.02367" lon="6.52152">
        <ele>2309</ele>
        <time>2021-03-08T12:46:03Z</time>
      </trkpt>
      <trkpt lat="45.02374" lon="6.52165">
        <ele>2309</ele>
        <time>2021-03-08T12:46:05Z</time>
      </trkpt>
      <trkpt lat="45.02381" lon="6.52178">
        <ele>2309</ele>
        <time>2021-03-08T12:46:07Z</time>
      </trkpt>
      <trkpt lat="45.02389" lon="6.52194">
        <ele>2309</ele>
        <time>2021-03-08T12:46:10Z</time>
      </trkpt>
      <trkpt lat="45.02396" lon="6.52206">
        <ele>2303</ele>
        <time>2021-03-08T12:46:13Z</time>
      </trkpt>
      <trkpt lat="45.02402" lon="6.52219">
        <ele>2303</ele>
        <time>2021-03-08T12:46:16Z</time>
      </trkpt>
      <trkpt lat="45.02406" lon="6.52229">
        <ele>2303</ele>
        <time>2021-03-08T12:46:18Z</time>
      </trkpt>
      <trkpt lat="45.02412" lon="6.5224">
        <ele>2303</ele>
        <time>2021-03-08T12:46:20Z</time>
      </trkpt>
      <trkpt lat="45.02418" lon="6.52251">
        <ele>2300</ele>
        <time>2021-03-08T12:46:23Z</time>
      </trkpt>
      <trkpt lat="45.02426" lon="6.52261">
        <ele>2300</ele>
        <time>2021-03-08T12:46:26Z</time>
      </trkpt>
      <trkpt lat="45.02436" lon="6.52271">
        <ele>2300</ele>
        <time>2021-03-08T12:46:29Z</time>
      </trkpt>
      <trkpt lat="45.02448" lon="6.5228">
        <ele>2298</ele>
        <time>2021-03-08T12:46:32Z</time>
      </trkpt>
      <trkpt lat="45.02459" lon="6.52286">
        <ele>2298</ele>
        <time>2021-03-08T12:46:34Z</time>
      </trkpt>
      <trkpt lat="45.02471" lon="6.52289">
        <ele>2298</ele>
        <time>2021-03-08T12:46:37Z</time>
      </trkpt>
      <trkpt lat="45.02477" lon="6.52291">
        <ele>2298</ele>
        <time>2021-03-08T12:46:39Z</time>
      </trkpt>
      <trkpt lat="45.02485" lon="6.5229">
        <ele>2292</ele>
        <time>2021-03-08T12:46:44Z</time>
      </trkpt>
      <trkpt lat="45.02491" lon="6.52288">
        <ele>2292</ele>
        <time>2021-03-08T12:46:48Z</time>
      </trkpt>
      <trkpt lat="45.02497" lon="6.52285">
        <ele>2294</ele>
        <time>2021-03-08T12:46:52Z</time>
      </trkpt>
      <trkpt lat="45.02502" lon="6.5228">
        <ele>2294</ele>
        <time>2021-03-08T12:47:30Z</time>
      </trkpt>
      <trkpt lat="45.02511" lon="6.52274">
        <ele>2294</ele>
        <time>2021-03-08T12:47:34Z</time>
      </trkpt>
      <trkpt lat="45.0252" lon="6.52269">
        <ele>2294</ele>
        <time>2021-03-08T12:47:39Z</time>
      </trkpt>
      <trkpt lat="45.02531" lon="6.52271">
        <ele>2294</ele>
        <time>2021-03-08T12:47:47Z</time>
      </trkpt>
      <trkpt lat="45.02535" lon="6.52274">
        <ele>2295</ele>
        <time>2021-03-08T12:48:06Z</time>
      </trkpt>
      <trkpt lat="45.02545" lon="6.52278">
        <ele>2294</ele>
        <time>2021-03-08T12:49:31Z</time>
      </trkpt>
      <trkpt lat="45.02557" lon="6.52281">
        <ele>2294</ele>
        <time>2021-03-08T12:49:35Z</time>
      </trkpt>
      <trkpt lat="45.02566" lon="6.52289">
        <ele>2294</ele>
        <time>2021-03-08T12:49:40Z</time>
      </trkpt>
      <trkpt lat="45.0258" lon="6.52302">
        <ele>2292</ele>
        <time>2021-03-08T12:49:45Z</time>
      </trkpt>
      <trkpt lat="45.02589" lon="6.52313">
        <ele>2292</ele>
        <time>2021-03-08T12:49:48Z</time>
      </trkpt>
      <trkpt lat="45.02594" lon="6.52323">
        <ele>2288</ele>
        <time>2021-03-08T12:49:51Z</time>
      </trkpt>
      <trkpt lat="45.026" lon="6.52334">
        <ele>2288</ele>
        <time>2021-03-08T12:49:56Z</time>
      </trkpt>
      <trkpt lat="45.02605" lon="6.52344">
        <ele>2288</ele>
        <time>2021-03-08T12:50:00Z</time>
      </trkpt>
      <trkpt lat="45.02611" lon="6.52355">
        <ele>2287</ele>
        <time>2021-03-08T12:50:05Z</time>
      </trkpt>
      <trkpt lat="45.02618" lon="6.52366">
        <ele>2287</ele>
        <time>2021-03-08T12:50:10Z</time>
      </trkpt>
      <trkpt lat="45.02628" lon="6.52378">
        <ele>2287</ele>
        <time>2021-03-08T12:50:14Z</time>
      </trkpt>
      <trkpt lat="45.02639" lon="6.52388">
        <ele>2287</ele>
        <time>2021-03-08T12:50:17Z</time>
      </trkpt>
      <trkpt lat="45.02651" lon="6.52396">
        <ele>2287</ele>
        <time>2021-03-08T12:50:20Z</time>
      </trkpt>
      <trkpt lat="45.02662" lon="6.52401">
        <ele>2283</ele>
        <time>2021-03-08T12:50:23Z</time>
      </trkpt>
      <trkpt lat="45.02671" lon="6.52404">
        <ele>2283</ele>
        <time>2021-03-08T12:50:26Z</time>
      </trkpt>
      <trkpt lat="45.02682" lon="6.52407">
        <ele>2283</ele>
        <time>2021-03-08T12:50:30Z</time>
      </trkpt>
      <trkpt lat="45.02692" lon="6.52411">
        <ele>2280</ele>
        <time>2021-03-08T12:50:34Z</time>
      </trkpt>
      <trkpt lat="45.02699" lon="6.52413">
        <ele>2280</ele>
        <time>2021-03-08T12:50:37Z</time>
      </trkpt>
      <trkpt lat="45.02705" lon="6.52418">
        <ele>2281</ele>
        <time>2021-03-08T12:50:41Z</time>
      </trkpt>
      <trkpt lat="45.02712" lon="6.52422">
        <ele>2281</ele>
        <time>2021-03-08T12:50:47Z</time>
      </trkpt>
      <trkpt lat="45.02716" lon="6.52429">
        <ele>2281</ele>
        <time>2021-03-08T12:50:55Z</time>
      </trkpt>
      <trkpt lat="45.02721" lon="6.52438">
        <ele>2281</ele>
        <time>2021-03-08T12:51:00Z</time>
      </trkpt>
      <trkpt lat="45.02726" lon="6.52445">
        <ele>2280</ele>
        <time>2021-03-08T12:51:04Z</time>
      </trkpt>
      <trkpt lat="45.02731" lon="6.52454">
        <ele>2280</ele>
        <time>2021-03-08T12:51:09Z</time>
      </trkpt>
      <trkpt lat="45.02735" lon="6.52461">
        <ele>2281</ele>
        <time>2021-03-08T12:51:12Z</time>
      </trkpt>
      <trkpt lat="45.02741" lon="6.52467">
        <ele>2281</ele>
        <time>2021-03-08T12:51:16Z</time>
      </trkpt>
      <trkpt lat="45.02748" lon="6.52473">
        <ele>2281</ele>
        <time>2021-03-08T12:51:20Z</time>
      </trkpt>
      <trkpt lat="45.02752" lon="6.5248">
        <ele>2281</ele>
        <time>2021-03-08T12:51:23Z</time>
      </trkpt>
      <trkpt lat="45.02756" lon="6.52486">
        <ele>2281</ele>
        <time>2021-03-08T12:51:25Z</time>
      </trkpt>
      <trkpt lat="45.02764" lon="6.52494">
        <ele>2281</ele>
        <time>2021-03-08T12:51:27Z</time>
      </trkpt>
      <trkpt lat="45.0277" lon="6.525">
        <ele>2281</ele>
        <time>2021-03-08T12:51:29Z</time>
      </trkpt>
      <trkpt lat="45.02777" lon="6.52508">
        <ele>2279</ele>
        <time>2021-03-08T12:51:34Z</time>
      </trkpt>
      <trkpt lat="45.02784" lon="6.52514">
        <ele>2279</ele>
        <time>2021-03-08T12:51:39Z</time>
      </trkpt>
      <trkpt lat="45.02788" lon="6.5252">
        <ele>2279</ele>
        <time>2021-03-08T12:51:43Z</time>
      </trkpt>
      <trkpt lat="45.02797" lon="6.52532">
        <ele>2277</ele>
        <time>2021-03-08T12:55:51Z</time>
      </trkpt>
      <trkpt lat="45.028" lon="6.5255">
        <ele>2277</ele>
        <time>2021-03-08T12:55:53Z</time>
      </trkpt>
      <trkpt lat="45.02801" lon="6.52569">
        <ele>2277</ele>
        <time>2021-03-08T12:55:55Z</time>
      </trkpt>
      <trkpt lat="45.02801" lon="6.52583">
        <ele>2277</ele>
        <time>2021-03-08T12:55:57Z</time>
      </trkpt>
      <trkpt lat="45.028" lon="6.52597">
        <ele>2277</ele>
        <time>2021-03-08T12:56:00Z</time>
      </trkpt>
      <trkpt lat="45.02802" lon="6.52618">
        <ele>2259</ele>
        <time>2021-03-08T12:56:03Z</time>
      </trkpt>
      <trkpt lat="45.02799" lon="6.52632">
        <ele>2259</ele>
        <time>2021-03-08T12:56:05Z</time>
      </trkpt>
      <trkpt lat="45.02794" lon="6.52647">
        <ele>2259</ele>
        <time>2021-03-08T12:56:08Z</time>
      </trkpt>
      <trkpt lat="45.02797" lon="6.5266">
        <ele>2244</ele>
        <time>2021-03-08T12:56:11Z</time>
      </trkpt>
      <trkpt lat="45.02802" lon="6.52678">
        <ele>2244</ele>
        <time>2021-03-08T12:56:14Z</time>
      </trkpt>
      <trkpt lat="45.02803" lon="6.527">
        <ele>2244</ele>
        <time>2021-03-08T12:56:16Z</time>
      </trkpt>
      <trkpt lat="45.0281" lon="6.52725">
        <ele>2244</ele>
        <time>2021-03-08T12:56:18Z</time>
      </trkpt>
      <trkpt lat="45.02817" lon="6.52738">
        <ele>2244</ele>
        <time>2021-03-08T12:56:19Z</time>
      </trkpt>
      <trkpt lat="45.02824" lon="6.52748">
        <ele>2244</ele>
        <time>2021-03-08T12:56:20Z</time>
      </trkpt>
      <trkpt lat="45.02833" lon="6.52759">
        <ele>2212</ele>
        <time>2021-03-08T12:56:21Z</time>
      </trkpt>
      <trkpt lat="45.02841" lon="6.52769">
        <ele>2212</ele>
        <time>2021-03-08T12:56:22Z</time>
      </trkpt>
      <trkpt lat="45.02849" lon="6.52778">
        <ele>2212</ele>
        <time>2021-03-08T12:56:23Z</time>
      </trkpt>
      <trkpt lat="45.02863" lon="6.52796">
        <ele>2212</ele>
        <time>2021-03-08T12:56:25Z</time>
      </trkpt>
      <trkpt lat="45.02876" lon="6.52811">
        <ele>2212</ele>
        <time>2021-03-08T12:56:27Z</time>
      </trkpt>
      <trkpt lat="45.02888" lon="6.52826">
        <ele>2212</ele>
        <time>2021-03-08T12:56:29Z</time>
      </trkpt>
      <trkpt lat="45.02899" lon="6.52836">
        <ele>2197</ele>
        <time>2021-03-08T12:56:31Z</time>
      </trkpt>
      <trkpt lat="45.0291" lon="6.52844">
        <ele>2197</ele>
        <time>2021-03-08T12:56:34Z</time>
      </trkpt>
      <trkpt lat="45.0292" lon="6.52847">
        <ele>2199</ele>
        <time>2021-03-08T12:56:46Z</time>
      </trkpt>
      <trkpt lat="45.02929" lon="6.52855">
        <ele>2201</ele>
        <time>2021-03-08T12:57:01Z</time>
      </trkpt>
      <trkpt lat="45.02937" lon="6.52859">
        <ele>2203</ele>
        <time>2021-03-08T12:57:19Z</time>
      </trkpt>
      <trkpt lat="45.02947" lon="6.52864">
        <ele>2204</ele>
        <time>2021-03-08T12:57:49Z</time>
      </trkpt>
      <trkpt lat="45.02956" lon="6.52871">
        <ele>2204</ele>
        <time>2021-03-08T12:58:00Z</time>
      </trkpt>
      <trkpt lat="45.02965" lon="6.52878">
        <ele>2204</ele>
        <time>2021-03-08T12:58:08Z</time>
      </trkpt>
      <trkpt lat="45.02974" lon="6.52884">
        <ele>2204</ele>
        <time>2021-03-08T12:58:17Z</time>
      </trkpt>
      <trkpt lat="45.02981" lon="6.52894">
        <ele>2204</ele>
        <time>2021-03-08T12:58:25Z</time>
      </trkpt>
      <trkpt lat="45.0299" lon="6.52902">
        <ele>2203</ele>
        <time>2021-03-08T12:58:30Z</time>
      </trkpt>
      <trkpt lat="45.02999" lon="6.52914">
        <ele>2203</ele>
        <time>2021-03-08T12:58:35Z</time>
      </trkpt>
      <trkpt lat="45.03006" lon="6.52924">
        <ele>2203</ele>
        <time>2021-03-08T12:58:38Z</time>
      </trkpt>
      <trkpt lat="45.03011" lon="6.52936">
        <ele>2202</ele>
        <time>2021-03-08T12:58:41Z</time>
      </trkpt>
      <trkpt lat="45.03015" lon="6.5295">
        <ele>2202</ele>
        <time>2021-03-08T12:58:45Z</time>
      </trkpt>
      <trkpt lat="45.03019" lon="6.52964">
        <ele>2202</ele>
        <time>2021-03-08T12:58:49Z</time>
      </trkpt>
      <trkpt lat="45.0302" lon="6.52974">
        <ele>2198</ele>
        <time>2021-03-08T13:00:35Z</time>
      </trkpt>
      <trkpt lat="45.03026" lon="6.52959">
        <ele>2199</ele>
        <time>2021-03-08T13:01:23Z</time>
      </trkpt>
      <trkpt lat="45.03034" lon="6.5295">
        <ele>2199</ele>
        <time>2021-03-08T13:01:26Z</time>
      </trkpt>
      <trkpt lat="45.03045" lon="6.52949">
        <ele>2199</ele>
        <time>2021-03-08T13:01:30Z</time>
      </trkpt>
      <trkpt lat="45.03048" lon="6.52965">
        <ele>2192</ele>
        <time>2021-03-08T13:01:35Z</time>
      </trkpt>
      <trkpt lat="45.0306" lon="6.52974">
        <ele>2192</ele>
        <time>2021-03-08T13:01:40Z</time>
      </trkpt>
      <trkpt lat="45.03068" lon="6.52984">
        <ele>2176</ele>
        <time>2021-03-08T13:01:42Z</time>
      </trkpt>
      <trkpt lat="45.03077" lon="6.5299">
        <ele>2176</ele>
        <time>2021-03-08T13:01:44Z</time>
      </trkpt>
      <trkpt lat="45.03089" lon="6.52995">
        <ele>2176</ele>
        <time>2021-03-08T13:01:47Z</time>
      </trkpt>
      <trkpt lat="45.03099" lon="6.53004">
        <ele>2160</ele>
        <time>2021-03-08T13:03:29Z</time>
      </trkpt>
      <trkpt lat="45.03103" lon="6.53021">
        <ele>2159</ele>
        <time>2021-03-08T13:03:33Z</time>
      </trkpt>
      <trkpt lat="45.03098" lon="6.53035">
        <ele>2159</ele>
        <time>2021-03-08T13:03:35Z</time>
      </trkpt>
      <trkpt lat="45.03101" lon="6.53049">
        <ele>2159</ele>
        <time>2021-03-08T13:03:40Z</time>
      </trkpt>
      <trkpt lat="45.03111" lon="6.53055">
        <ele>2152</ele>
        <time>2021-03-08T13:03:43Z</time>
      </trkpt>
      <trkpt lat="45.03123" lon="6.53062">
        <ele>2152</ele>
        <time>2021-03-08T13:03:47Z</time>
      </trkpt>
      <trkpt lat="45.03134" lon="6.53064">
        <ele>2152</ele>
        <time>2021-03-08T13:03:50Z</time>
      </trkpt>
      <trkpt lat="45.03141" lon="6.53074">
        <ele>2137</ele>
        <time>2021-03-08T13:03:52Z</time>
      </trkpt>
      <trkpt lat="45.03145" lon="6.53088">
        <ele>2137</ele>
        <time>2021-03-08T13:03:55Z</time>
      </trkpt>
      <trkpt lat="45.03151" lon="6.53101">
        <ele>2137</ele>
        <time>2021-03-08T13:03:58Z</time>
      </trkpt>
      <trkpt lat="45.03161" lon="6.53106">
        <ele>2124</ele>
        <time>2021-03-08T13:04:03Z</time>
      </trkpt>
      <trkpt lat="45.03167" lon="6.53118">
        <ele>2115</ele>
        <time>2021-03-08T13:04:13Z</time>
      </trkpt>
      <trkpt lat="45.03174" lon="6.53131">
        <ele>2115</ele>
        <time>2021-03-08T13:04:19Z</time>
      </trkpt>
      <trkpt lat="45.0318" lon="6.53145">
        <ele>2112</ele>
        <time>2021-03-08T13:04:22Z</time>
      </trkpt>
      <trkpt lat="45.03186" lon="6.5316">
        <ele>2112</ele>
        <time>2021-03-08T13:04:25Z</time>
      </trkpt>
      <trkpt lat="45.03191" lon="6.53175">
        <ele>2112</ele>
        <time>2021-03-08T13:04:28Z</time>
      </trkpt>
      <trkpt lat="45.03194" lon="6.53189">
        <ele>2105</ele>
        <time>2021-03-08T13:04:32Z</time>
      </trkpt>
      <trkpt lat="45.03199" lon="6.53205">
        <ele>2102</ele>
        <time>2021-03-08T13:05:05Z</time>
      </trkpt>
      <trkpt lat="45.03201" lon="6.53221">
        <ele>2102</ele>
        <time>2021-03-08T13:05:08Z</time>
      </trkpt>
      <trkpt lat="45.03203" lon="6.53237">
        <ele>2098</ele>
        <time>2021-03-08T13:05:16Z</time>
      </trkpt>
      <trkpt lat="45.03206" lon="6.53251">
        <ele>2091</ele>
        <time>2021-03-08T13:05:21Z</time>
      </trkpt>
      <trkpt lat="45.03212" lon="6.53263">
        <ele>2086</ele>
        <time>2021-03-08T13:05:31Z</time>
      </trkpt>
      <trkpt lat="45.03217" lon="6.53276">
        <ele>2086</ele>
        <time>2021-03-08T13:05:38Z</time>
      </trkpt>
      <trkpt lat="45.03224" lon="6.53288">
        <ele>2078</ele>
        <time>2021-03-08T13:05:43Z</time>
      </trkpt>
      <trkpt lat="45.03232" lon="6.53297">
        <ele>2072</ele>
        <time>2021-03-08T13:05:51Z</time>
      </trkpt>
      <trkpt lat="45.03241" lon="6.53308">
        <ele>2072</ele>
        <time>2021-03-08T13:05:55Z</time>
      </trkpt>
      <trkpt lat="45.03244" lon="6.53322">
        <ele>2072</ele>
        <time>2021-03-08T13:05:57Z</time>
      </trkpt>
      <trkpt lat="45.03251" lon="6.53333">
        <ele>2072</ele>
        <time>2021-03-08T13:05:59Z</time>
      </trkpt>
      <trkpt lat="45.03261" lon="6.53342">
        <ele>2059</ele>
        <time>2021-03-08T13:06:01Z</time>
      </trkpt>
      <trkpt lat="45.03269" lon="6.53355">
        <ele>2059</ele>
        <time>2021-03-08T13:06:04Z</time>
      </trkpt>
      <trkpt lat="45.03274" lon="6.5335">
        <ele>2055</ele>
        <time>2021-03-08T13:07:38Z</time>
      </trkpt>
      <trkpt lat="45.03275" lon="6.5335">
        <ele>2055</ele>
        <time>2021-03-08T13:10:14Z</time>
      </trkpt>
      <trkpt lat="45.03272" lon="6.53341">
        <ele>2055</ele>
        <time>2021-03-08T13:10:42Z</time>
      </trkpt>
      <trkpt lat="45.03279" lon="6.53331">
        <ele>2052</ele>
        <time>2021-03-08T13:10:52Z</time>
      </trkpt>
      <trkpt lat="45.03286" lon="6.53333">
        <ele>2047</ele>
        <time>2021-03-08T13:11:54Z</time>
      </trkpt>
      <trkpt lat="45.03288" lon="6.53326">
        <ele>2047</ele>
        <time>2021-03-08T13:13:20Z</time>
      </trkpt>
      <trkpt lat="45.03286" lon="6.53315">
        <ele>2050</ele>
        <time>2021-03-08T13:13:39Z</time>
      </trkpt>
      <trkpt lat="45.03294" lon="6.5332">
        <ele>2052</ele>
        <time>2021-03-08T13:14:16Z</time>
      </trkpt>
      <trkpt lat="45.03301" lon="6.53318">
        <ele>2053</ele>
        <time>2021-03-08T13:14:33Z</time>
      </trkpt>
      <trkpt lat="45.03308" lon="6.53323">
        <ele>2056</ele>
        <time>2021-03-08T13:15:37Z</time>
      </trkpt>
      <trkpt lat="45.03317" lon="6.53333">
        <ele>2056</ele>
        <time>2021-03-08T13:15:40Z</time>
      </trkpt>
      <trkpt lat="45.03324" lon="6.53342">
        <ele>2055</ele>
        <time>2021-03-08T13:15:42Z</time>
      </trkpt>
      <trkpt lat="45.03333" lon="6.53353">
        <ele>2055</ele>
        <time>2021-03-08T13:15:45Z</time>
      </trkpt>
      <trkpt lat="45.03335" lon="6.53366">
        <ele>2055</ele>
        <time>2021-03-08T13:15:48Z</time>
      </trkpt>
      <trkpt lat="45.03339" lon="6.5338">
        <ele>2052</ele>
        <time>2021-03-08T13:15:51Z</time>
      </trkpt>
      <trkpt lat="45.0334" lon="6.53395">
        <ele>2052</ele>
        <time>2021-03-08T13:15:55Z</time>
      </trkpt>
      <trkpt lat="45.0334" lon="6.53411">
        <ele>2047</ele>
        <time>2021-03-08T13:16:02Z</time>
      </trkpt>
      <trkpt lat="45.0334" lon="6.53425">
        <ele>2047</ele>
        <time>2021-03-08T13:16:10Z</time>
      </trkpt>
      <trkpt lat="45.03338" lon="6.53439">
        <ele>2048</ele>
        <time>2021-03-08T13:16:17Z</time>
      </trkpt>
      <trkpt lat="45.0334" lon="6.53454">
        <ele>2048</ele>
        <time>2021-03-08T13:16:26Z</time>
      </trkpt>
      <trkpt lat="45.03346" lon="6.53459">
        <ele>2050</ele>
        <time>2021-03-08T13:17:01Z</time>
      </trkpt>
      <trkpt lat="45.03351" lon="6.53466">
        <ele>2050</ele>
        <time>2021-03-08T13:17:09Z</time>
      </trkpt>
      <trkpt lat="45.03354" lon="6.53469">
        <ele>2049</ele>
        <time>2021-03-08T13:17:14Z</time>
      </trkpt>
      <trkpt lat="45.0336" lon="6.53466">
        <ele>2048</ele>
        <time>2021-03-08T13:18:22Z</time>
      </trkpt>
      <trkpt lat="45.03362" lon="6.53479">
        <ele>2049</ele>
        <time>2021-03-08T13:19:39Z</time>
      </trkpt>
      <trkpt lat="45.03365" lon="6.53488">
        <ele>2047</ele>
        <time>2021-03-08T13:19:45Z</time>
      </trkpt>
      <trkpt lat="45.03368" lon="6.53499">
        <ele>2045</ele>
        <time>2021-03-08T13:19:53Z</time>
      </trkpt>
      <trkpt lat="45.03372" lon="6.53508">
        <ele>2046</ele>
        <time>2021-03-08T13:20:02Z</time>
      </trkpt>
      <trkpt lat="45.03375" lon="6.53521">
        <ele>2047</ele>
        <time>2021-03-08T13:25:03Z</time>
      </trkpt>
      <trkpt lat="45.03376" lon="6.5354">
        <ele>2047</ele>
        <time>2021-03-08T13:25:06Z</time>
      </trkpt>
      <trkpt lat="45.03372" lon="6.53559">
        <ele>2047</ele>
        <time>2021-03-08T13:25:09Z</time>
      </trkpt>
      <trkpt lat="45.03377" lon="6.53578">
        <ele>2043</ele>
        <time>2021-03-08T13:25:12Z</time>
      </trkpt>
      <trkpt lat="45.03382" lon="6.53597">
        <ele>2043</ele>
        <time>2021-03-08T13:25:15Z</time>
      </trkpt>
      <trkpt lat="45.03382" lon="6.5361">
        <ele>2043</ele>
        <time>2021-03-08T13:25:17Z</time>
      </trkpt>
      <trkpt lat="45.03382" lon="6.53629">
        <ele>2043</ele>
        <time>2021-03-08T13:25:20Z</time>
      </trkpt>
      <trkpt lat="45.03388" lon="6.53645">
        <ele>2030</ele>
        <time>2021-03-08T13:25:23Z</time>
      </trkpt>
      <trkpt lat="45.03393" lon="6.53659">
        <ele>2030</ele>
        <time>2021-03-08T13:25:26Z</time>
      </trkpt>
      <trkpt lat="45.03397" lon="6.53667">
        <ele>2030</ele>
        <time>2021-03-08T13:25:28Z</time>
      </trkpt>
      <trkpt lat="45.034" lon="6.53674">
        <ele>2030</ele>
        <time>2021-03-08T13:25:30Z</time>
      </trkpt>
      <trkpt lat="45.03404" lon="6.53687">
        <ele>2023</ele>
        <time>2021-03-08T13:25:33Z</time>
      </trkpt>
      <trkpt lat="45.03412" lon="6.53696">
        <ele>2023</ele>
        <time>2021-03-08T13:25:36Z</time>
      </trkpt>
      <trkpt lat="45.03418" lon="6.53704">
        <ele>2023</ele>
        <time>2021-03-08T13:25:38Z</time>
      </trkpt>
      <trkpt lat="45.03423" lon="6.53713">
        <ele>2023</ele>
        <time>2021-03-08T13:25:40Z</time>
      </trkpt>
      <trkpt lat="45.03426" lon="6.53723">
        <ele>2017</ele>
        <time>2021-03-08T13:25:42Z</time>
      </trkpt>
      <trkpt lat="45.03428" lon="6.53737">
        <ele>2017</ele>
        <time>2021-03-08T13:25:44Z</time>
      </trkpt>
      <trkpt lat="45.03431" lon="6.53751">
        <ele>2017</ele>
        <time>2021-03-08T13:25:46Z</time>
      </trkpt>
      <trkpt lat="45.03438" lon="6.53762">
        <ele>2017</ele>
        <time>2021-03-08T13:25:48Z</time>
      </trkpt>
      <trkpt lat="45.03449" lon="6.53768">
        <ele>2017</ele>
        <time>2021-03-08T13:25:50Z</time>
      </trkpt>
      <trkpt lat="45.03458" lon="6.53772">
        <ele>2008</ele>
        <time>2021-03-08T13:25:53Z</time>
      </trkpt>
      <trkpt lat="45.03456" lon="6.53789">
        <ele>2007</ele>
        <time>2021-03-08T13:28:28Z</time>
      </trkpt>
      <trkpt lat="45.03458" lon="6.53809">
        <ele>2005</ele>
        <time>2021-03-08T13:28:31Z</time>
      </trkpt>
      <trkpt lat="45.03464" lon="6.53826">
        <ele>2005</ele>
        <time>2021-03-08T13:28:33Z</time>
      </trkpt>
      <trkpt lat="45.03473" lon="6.53844">
        <ele>2005</ele>
        <time>2021-03-08T13:28:35Z</time>
      </trkpt>
      <trkpt lat="45.03481" lon="6.53859">
        <ele>2005</ele>
        <time>2021-03-08T13:28:37Z</time>
      </trkpt>
      <trkpt lat="45.03487" lon="6.53869">
        <ele>1990</ele>
        <time>2021-03-08T13:28:45Z</time>
      </trkpt>
      <trkpt lat="45.03491" lon="6.53875">
        <ele>1991</ele>
        <time>2021-03-08T13:29:04Z</time>
      </trkpt>
      <trkpt lat="45.03495" lon="6.53884">
        <ele>1991</ele>
        <time>2021-03-08T13:29:08Z</time>
      </trkpt>
      <trkpt lat="45.03501" lon="6.5389">
        <ele>1991</ele>
        <time>2021-03-08T13:29:10Z</time>
      </trkpt>
      <trkpt lat="45.03508" lon="6.53893">
        <ele>1990</ele>
        <time>2021-03-08T13:29:12Z</time>
      </trkpt>
      <trkpt lat="45.03518" lon="6.53889">
        <ele>1990</ele>
        <time>2021-03-08T13:29:15Z</time>
      </trkpt>
      <trkpt lat="45.03527" lon="6.53885">
        <ele>1990</ele>
        <time>2021-03-08T13:29:18Z</time>
      </trkpt>
      <trkpt lat="45.03537" lon="6.53882">
        <ele>1987</ele>
        <time>2021-03-08T13:29:21Z</time>
      </trkpt>
      <trkpt lat="45.03551" lon="6.53876">
        <ele>1987</ele>
        <time>2021-03-08T13:29:25Z</time>
      </trkpt>
      <trkpt lat="45.03558" lon="6.53874">
        <ele>1987</ele>
        <time>2021-03-08T13:29:27Z</time>
      </trkpt>
      <trkpt lat="45.03567" lon="6.53887">
        <ele>1987</ele>
        <time>2021-03-08T13:29:30Z</time>
      </trkpt>
      <trkpt lat="45.03573" lon="6.53902">
        <ele>1978</ele>
        <time>2021-03-08T13:29:32Z</time>
      </trkpt>
      <trkpt lat="45.0358" lon="6.53913">
        <ele>1978</ele>
        <time>2021-03-08T13:29:34Z</time>
      </trkpt>
      <trkpt lat="45.03587" lon="6.53924">
        <ele>1978</ele>
        <time>2021-03-08T13:29:36Z</time>
      </trkpt>
      <trkpt lat="45.03593" lon="6.53936">
        <ele>1978</ele>
        <time>2021-03-08T13:29:38Z</time>
      </trkpt>
      <trkpt lat="45.03598" lon="6.53945">
        <ele>1978</ele>
        <time>2021-03-08T13:29:40Z</time>
      </trkpt>
      <trkpt lat="45.03603" lon="6.53943">
        <ele>1964</ele>
        <time>2021-03-08T13:29:56Z</time>
      </trkpt>
      <trkpt lat="45.03609" lon="6.5394">
        <ele>1964</ele>
        <time>2021-03-08T13:30:01Z</time>
      </trkpt>
      <trkpt lat="45.03619" lon="6.53928">
        <ele>1964</ele>
        <time>2021-03-08T13:30:04Z</time>
      </trkpt>
      <trkpt lat="45.0363" lon="6.53919">
        <ele>1964</ele>
        <time>2021-03-08T13:30:07Z</time>
      </trkpt>
      <trkpt lat="45.03641" lon="6.53911">
        <ele>1964</ele>
        <time>2021-03-08T13:30:10Z</time>
      </trkpt>
      <trkpt lat="45.03653" lon="6.53905">
        <ele>1962</ele>
        <time>2021-03-08T13:30:13Z</time>
      </trkpt>
      <trkpt lat="45.03665" lon="6.53901">
        <ele>1962</ele>
        <time>2021-03-08T13:30:16Z</time>
      </trkpt>
      <trkpt lat="45.03677" lon="6.53899">
        <ele>1962</ele>
        <time>2021-03-08T13:30:19Z</time>
      </trkpt>
      <trkpt lat="45.03687" lon="6.53894">
        <ele>1953</ele>
        <time>2021-03-08T13:30:21Z</time>
      </trkpt>
      <trkpt lat="45.03696" lon="6.53901">
        <ele>1953</ele>
        <time>2021-03-08T13:30:24Z</time>
      </trkpt>
      <trkpt lat="45.03696" lon="6.53916">
        <ele>1953</ele>
        <time>2021-03-08T13:30:26Z</time>
      </trkpt>
      <trkpt lat="45.03691" lon="6.53928">
        <ele>1953</ele>
        <time>2021-03-08T13:30:28Z</time>
      </trkpt>
      <trkpt lat="45.03683" lon="6.5394">
        <ele>1939</ele>
        <time>2021-03-08T13:30:31Z</time>
      </trkpt>
      <trkpt lat="45.03675" lon="6.53954">
        <ele>1939</ele>
        <time>2021-03-08T13:30:34Z</time>
      </trkpt>
      <trkpt lat="45.03668" lon="6.53965">
        <ele>1939</ele>
        <time>2021-03-08T13:30:36Z</time>
      </trkpt>
      <trkpt lat="45.03665" lon="6.53978">
        <ele>1939</ele>
        <time>2021-03-08T13:30:38Z</time>
      </trkpt>
      <trkpt lat="45.03661" lon="6.53994">
        <ele>1939</ele>
        <time>2021-03-08T13:30:40Z</time>
      </trkpt>
      <trkpt lat="45.03657" lon="6.54011">
        <ele>1926</ele>
        <time>2021-03-08T13:30:44Z</time>
      </trkpt>
      <trkpt lat="45.03658" lon="6.54024">
        <ele>1919</ele>
        <time>2021-03-08T13:31:24Z</time>
      </trkpt>
      <trkpt lat="45.03647" lon="6.54029">
        <ele>1919</ele>
        <time>2021-03-08T13:31:28Z</time>
      </trkpt>
      <trkpt lat="45.03643" lon="6.54043">
        <ele>1916</ele>
        <time>2021-03-08T13:31:32Z</time>
      </trkpt>
      <trkpt lat="45.0364" lon="6.5406">
        <ele>1916</ele>
        <time>2021-03-08T13:31:35Z</time>
      </trkpt>
      <trkpt lat="45.03634" lon="6.54076">
        <ele>1916</ele>
        <time>2021-03-08T13:31:38Z</time>
      </trkpt>
      <trkpt lat="45.03626" lon="6.54079">
        <ele>1908</ele>
        <time>2021-03-08T13:31:42Z</time>
      </trkpt>
      <trkpt lat="45.03634" lon="6.54078">
        <ele>1905</ele>
        <time>2021-03-08T13:31:51Z</time>
      </trkpt>
      <trkpt lat="45.03638" lon="6.5409">
        <ele>1905</ele>
        <time>2021-03-08T13:31:55Z</time>
      </trkpt>
      <trkpt lat="45.03629" lon="6.54098">
        <ele>1905</ele>
        <time>2021-03-08T13:31:58Z</time>
      </trkpt>
      <trkpt lat="45.03629" lon="6.54114">
        <ele>1894</ele>
        <time>2021-03-08T13:32:02Z</time>
      </trkpt>
      <trkpt lat="45.03621" lon="6.5413">
        <ele>1894</ele>
        <time>2021-03-08T13:32:04Z</time>
      </trkpt>
      <trkpt lat="45.03615" lon="6.54138">
        <ele>1894</ele>
        <time>2021-03-08T13:32:05Z</time>
      </trkpt>
      <trkpt lat="45.03606" lon="6.54154">
        <ele>1894</ele>
        <time>2021-03-08T13:32:07Z</time>
      </trkpt>
      <trkpt lat="45.03598" lon="6.54163">
        <ele>1894</ele>
        <time>2021-03-08T13:32:09Z</time>
      </trkpt>
      <trkpt lat="45.03599" lon="6.54184">
        <ele>1878</ele>
        <time>2021-03-08T13:33:06Z</time>
      </trkpt>
      <trkpt lat="45.03597" lon="6.54198">
        <ele>1878</ele>
        <time>2021-03-08T13:33:09Z</time>
      </trkpt>
      <trkpt lat="45.03592" lon="6.5421">
        <ele>1875</ele>
        <time>2021-03-08T13:33:13Z</time>
      </trkpt>
      <trkpt lat="45.03588" lon="6.54226">
        <ele>1875</ele>
        <time>2021-03-08T13:33:19Z</time>
      </trkpt>
      <trkpt lat="45.03591" lon="6.54239">
        <ele>1873</ele>
        <time>2021-03-08T13:33:24Z</time>
      </trkpt>
      <trkpt lat="45.03599" lon="6.54249">
        <ele>1873</ele>
        <time>2021-03-08T13:33:27Z</time>
      </trkpt>
      <trkpt lat="45.03608" lon="6.54257">
        <ele>1873</ele>
        <time>2021-03-08T13:33:30Z</time>
      </trkpt>
      <trkpt lat="45.03614" lon="6.54268">
        <ele>1870</ele>
        <time>2021-03-08T13:33:32Z</time>
      </trkpt>
      <trkpt lat="45.03623" lon="6.54282">
        <ele>1870</ele>
        <time>2021-03-08T13:33:35Z</time>
      </trkpt>
      <trkpt lat="45.0363" lon="6.54289">
        <ele>1870</ele>
        <time>2021-03-08T13:33:38Z</time>
      </trkpt>
      <trkpt lat="45.03639" lon="6.54286">
        <ele>1864</ele>
        <time>2021-03-08T13:33:45Z</time>
      </trkpt>
      <trkpt lat="45.03647" lon="6.54283">
        <ele>1864</ele>
        <time>2021-03-08T13:33:49Z</time>
      </trkpt>
      <trkpt lat="45.03651" lon="6.54281">
        <ele>1864</ele>
        <time>2021-03-08T13:36:58Z</time>
      </trkpt>
      <trkpt lat="45.03656" lon="6.54281">
        <ele>1865</ele>
        <time>2021-03-08T13:43:28Z</time>
      </trkpt>
      <trkpt lat="45.03661" lon="6.54282">
        <ele>1864</ele>
        <time>2021-03-08T13:45:43Z</time>
      </trkpt>
      <trkpt lat="45.03667" lon="6.54283">
        <ele>1864</ele>
        <time>2021-03-08T13:46:01Z</time>
      </trkpt>
      <trkpt lat="45.03672" lon="6.54284">
        <ele>1864</ele>
        <time>2021-03-08T13:46:06Z</time>
      </trkpt>
      <trkpt lat="45.03678" lon="6.54285">
        <ele>1864</ele>
        <time>2021-03-08T13:46:19Z</time>
      </trkpt>
      <trkpt lat="45.03685" lon="6.54282">
        <ele>1864</ele>
        <time>2021-03-08T13:46:25Z</time>
      </trkpt>
      <trkpt lat="45.03693" lon="6.54278">
        <ele>1864</ele>
        <time>2021-03-08T13:46:32Z</time>
      </trkpt>
      <trkpt lat="45.03703" lon="6.54275">
        <ele>1865</ele>
        <time>2021-03-08T13:46:42Z</time>
      </trkpt>
      <trkpt lat="45.03714" lon="6.54271">
        <ele>1865</ele>
        <time>2021-03-08T13:46:50Z</time>
      </trkpt>
      <trkpt lat="45.03724" lon="6.54267">
        <ele>1865</ele>
        <time>2021-03-08T13:46:58Z</time>
      </trkpt>
      <trkpt lat="45.03733" lon="6.54259">
        <ele>1864</ele>
        <time>2021-03-08T13:47:06Z</time>
      </trkpt>
      <trkpt lat="45.03742" lon="6.54251">
        <ele>1864</ele>
        <time>2021-03-08T13:47:15Z</time>
      </trkpt>
      <trkpt lat="45.0375" lon="6.54242">
        <ele>1864</ele>
        <time>2021-03-08T13:47:25Z</time>
      </trkpt>
      <trkpt lat="45.0376" lon="6.54235">
        <ele>1864</ele>
        <time>2021-03-08T13:47:31Z</time>
      </trkpt>
      <trkpt lat="45.03769" lon="6.5423">
        <ele>1864</ele>
        <time>2021-03-08T13:47:37Z</time>
      </trkpt>
      <trkpt lat="45.0378" lon="6.54225">
        <ele>1864</ele>
        <time>2021-03-08T13:47:46Z</time>
      </trkpt>
      <trkpt lat="45.0379" lon="6.5422">
        <ele>1864</ele>
        <time>2021-03-08T13:47:55Z</time>
      </trkpt>
      <trkpt lat="45.038" lon="6.54213">
        <ele>1865</ele>
        <time>2021-03-08T13:48:03Z</time>
      </trkpt>
      <trkpt lat="45.03809" lon="6.54206">
        <ele>1865</ele>
        <time>2021-03-08T13:48:10Z</time>
      </trkpt>
      <trkpt lat="45.03818" lon="6.54199">
        <ele>1865</ele>
        <time>2021-03-08T13:48:18Z</time>
      </trkpt>
      <trkpt lat="45.03827" lon="6.54191">
        <ele>1865</ele>
        <time>2021-03-08T13:48:26Z</time>
      </trkpt>
      <trkpt lat="45.03837" lon="6.54185">
        <ele>1865</ele>
        <time>2021-03-08T13:48:33Z</time>
      </trkpt>
      <trkpt lat="45.03846" lon="6.54179">
        <ele>1865</ele>
        <time>2021-03-08T13:48:40Z</time>
      </trkpt>
      <trkpt lat="45.03853" lon="6.54176">
        <ele>1864</ele>
        <time>2021-03-08T13:48:45Z</time>
      </trkpt>
      <trkpt lat="45.03859" lon="6.54175">
        <ele>1864</ele>
        <time>2021-03-08T13:48:49Z</time>
      </trkpt>
      <trkpt lat="45.03865" lon="6.54172">
        <ele>1865</ele>
        <time>2021-03-08T13:48:53Z</time>
      </trkpt>
      <trkpt lat="45.03872" lon="6.54171">
        <ele>1865</ele>
        <time>2021-03-08T13:48:58Z</time>
      </trkpt>
      <trkpt lat="45.0388" lon="6.54168">
        <ele>1866</ele>
        <time>2021-03-08T13:49:04Z</time>
      </trkpt>
      <trkpt lat="45.03888" lon="6.54162">
        <ele>1865</ele>
        <time>2021-03-08T13:49:12Z</time>
      </trkpt>
      <trkpt lat="45.03896" lon="6.54158">
        <ele>1865</ele>
        <time>2021-03-08T13:49:19Z</time>
      </trkpt>
      <trkpt lat="45.03902" lon="6.54153">
        <ele>1865</ele>
        <time>2021-03-08T13:49:24Z</time>
      </trkpt>
      <trkpt lat="45.03908" lon="6.54146">
        <ele>1865</ele>
        <time>2021-03-08T13:49:30Z</time>
      </trkpt>
      <trkpt lat="45.03913" lon="6.54139">
        <ele>1865</ele>
        <time>2021-03-08T13:49:37Z</time>
      </trkpt>
      <trkpt lat="45.03919" lon="6.54132">
        <ele>1864</ele>
        <time>2021-03-08T13:49:46Z</time>
      </trkpt>
      <trkpt lat="45.03923" lon="6.54126">
        <ele>1864</ele>
        <time>2021-03-08T13:49:50Z</time>
      </trkpt>
      <trkpt lat="45.03928" lon="6.54118">
        <ele>1866</ele>
        <time>2021-03-08T13:49:55Z</time>
      </trkpt>
      <trkpt lat="45.03933" lon="6.54112">
        <ele>1866</ele>
        <time>2021-03-08T13:49:59Z</time>
      </trkpt>
      <trkpt lat="45.03936" lon="6.54108">
        <ele>1865</ele>
        <time>2021-03-08T13:50:02Z</time>
      </trkpt>
      <trkpt lat="45.03943" lon="6.54103">
        <ele>1865</ele>
        <time>2021-03-08T13:50:08Z</time>
      </trkpt>
      <trkpt lat="45.03949" lon="6.541">
        <ele>1865</ele>
        <time>2021-03-08T13:50:12Z</time>
      </trkpt>
      <trkpt lat="45.03958" lon="6.54098">
        <ele>1865</ele>
        <time>2021-03-08T13:50:18Z</time>
      </trkpt>
      <trkpt lat="45.03965" lon="6.54097">
        <ele>1866</ele>
        <time>2021-03-08T13:50:23Z</time>
      </trkpt>
      <trkpt lat="45.03972" lon="6.54097">
        <ele>1866</ele>
        <time>2021-03-08T13:50:28Z</time>
      </trkpt>
      <trkpt lat="45.03979" lon="6.54097">
        <ele>1866</ele>
        <time>2021-03-08T13:50:33Z</time>
      </trkpt>
      <trkpt lat="45.03984" lon="6.54099">
        <ele>1866</ele>
        <time>2021-03-08T13:50:37Z</time>
      </trkpt>
      <trkpt lat="45.03991" lon="6.54102">
        <ele>1865</ele>
        <time>2021-03-08T13:50:42Z</time>
      </trkpt>
      <trkpt lat="45.03997" lon="6.54106">
        <ele>1865</ele>
        <time>2021-03-08T13:50:47Z</time>
      </trkpt>
      <trkpt lat="45.04002" lon="6.54109">
        <ele>1865</ele>
        <time>2021-03-08T13:50:51Z</time>
      </trkpt>
      <trkpt lat="45.04009" lon="6.54114">
        <ele>1865</ele>
        <time>2021-03-08T13:50:56Z</time>
      </trkpt>
      <trkpt lat="45.04015" lon="6.54119">
        <ele>1866</ele>
        <time>2021-03-08T13:51:02Z</time>
      </trkpt>
      <trkpt lat="45.0402" lon="6.54122">
        <ele>1866</ele>
        <time>2021-03-08T13:51:07Z</time>
      </trkpt>
      <trkpt lat="45.04025" lon="6.54123">
        <ele>1866</ele>
        <time>2021-03-08T13:52:15Z</time>
      </trkpt>
      <trkpt lat="45.0403" lon="6.5413">
        <ele>1866</ele>
        <time>2021-03-08T13:52:47Z</time>
      </trkpt>
      <trkpt lat="45.04035" lon="6.54133">
        <ele>1868</ele>
        <time>2021-03-08T13:53:07Z</time>
      </trkpt>
      <trkpt lat="45.04041" lon="6.54137">
        <ele>1866</ele>
        <time>2021-03-08T13:53:12Z</time>
      </trkpt>
      <trkpt lat="45.04047" lon="6.54138">
        <ele>1866</ele>
        <time>2021-03-08T13:53:16Z</time>
      </trkpt>
      <trkpt lat="45.04053" lon="6.54139">
        <ele>1866</ele>
        <time>2021-03-08T13:53:20Z</time>
      </trkpt>
      <trkpt lat="45.04058" lon="6.54138">
        <ele>1866</ele>
        <time>2021-03-08T13:53:24Z</time>
      </trkpt>
      <trkpt lat="45.04063" lon="6.54137">
        <ele>1866</ele>
        <time>2021-03-08T13:53:27Z</time>
      </trkpt>
      <trkpt lat="45.0407" lon="6.54136">
        <ele>1866</ele>
        <time>2021-03-08T13:53:32Z</time>
      </trkpt>
      <trkpt lat="45.04076" lon="6.54134">
        <ele>1866</ele>
        <time>2021-03-08T13:53:37Z</time>
      </trkpt>
      <trkpt lat="45.04082" lon="6.54132">
        <ele>1867</ele>
        <time>2021-03-08T13:53:42Z</time>
      </trkpt>
      <trkpt lat="45.04087" lon="6.54131">
        <ele>1867</ele>
        <time>2021-03-08T13:53:46Z</time>
      </trkpt>
      <trkpt lat="45.04093" lon="6.54128">
        <ele>1869</ele>
        <time>2021-03-08T13:53:52Z</time>
      </trkpt>
      <trkpt lat="45.041" lon="6.54123">
        <ele>1869</ele>
        <time>2021-03-08T13:53:59Z</time>
      </trkpt>
      <trkpt lat="45.04104" lon="6.54118">
        <ele>1868</ele>
        <time>2021-03-08T13:54:05Z</time>
      </trkpt>
      <trkpt lat="45.0411" lon="6.54112">
        <ele>1869</ele>
        <time>2021-03-08T13:54:12Z</time>
      </trkpt>
      <trkpt lat="45.04116" lon="6.54106">
        <ele>1869</ele>
        <time>2021-03-08T13:54:18Z</time>
      </trkpt>
      <trkpt lat="45.04122" lon="6.54099">
        <ele>1869</ele>
        <time>2021-03-08T13:54:25Z</time>
      </trkpt>
      <trkpt lat="45.04125" lon="6.54095">
        <ele>1869</ele>
        <time>2021-03-08T13:54:28Z</time>
      </trkpt>
      <trkpt lat="45.04127" lon="6.54087">
        <ele>1871</ele>
        <time>2021-03-08T13:54:33Z</time>
      </trkpt>
      <trkpt lat="45.04129" lon="6.5408">
        <ele>1871</ele>
        <time>2021-03-08T13:54:37Z</time>
      </trkpt>
      <trkpt lat="45.04132" lon="6.5407">
        <ele>1871</ele>
        <time>2021-03-08T13:54:44Z</time>
      </trkpt>
      <trkpt lat="45.04136" lon="6.54057">
        <ele>1872</ele>
        <time>2021-03-08T13:54:53Z</time>
      </trkpt>
      <trkpt lat="45.04141" lon="6.54045">
        <ele>1874</ele>
        <time>2021-03-08T13:55:02Z</time>
      </trkpt>
      <trkpt lat="45.04148" lon="6.54034">
        <ele>1874</ele>
        <time>2021-03-08T13:55:12Z</time>
      </trkpt>
      <trkpt lat="45.04156" lon="6.54024">
        <ele>1874</ele>
        <time>2021-03-08T13:55:20Z</time>
      </trkpt>
      <trkpt lat="45.04165" lon="6.54017">
        <ele>1876</ele>
        <time>2021-03-08T13:55:28Z</time>
      </trkpt>
      <trkpt lat="45.04172" lon="6.54012">
        <ele>1877</ele>
        <time>2021-03-08T13:55:35Z</time>
      </trkpt>
      <trkpt lat="45.04181" lon="6.54005">
        <ele>1877</ele>
        <time>2021-03-08T13:55:44Z</time>
      </trkpt>
      <trkpt lat="45.04188" lon="6.54001">
        <ele>1879</ele>
        <time>2021-03-08T13:55:52Z</time>
      </trkpt>
      <trkpt lat="45.04196" lon="6.53999">
        <ele>1879</ele>
        <time>2021-03-08T13:56:00Z</time>
      </trkpt>
      <trkpt lat="45.04206" lon="6.53995">
        <ele>1880</ele>
        <time>2021-03-08T13:56:10Z</time>
      </trkpt>
      <trkpt lat="45.04213" lon="6.53992">
        <ele>1881</ele>
        <time>2021-03-08T13:56:19Z</time>
      </trkpt>
      <trkpt lat="45.04221" lon="6.53989">
        <ele>1881</ele>
        <time>2021-03-08T13:56:26Z</time>
      </trkpt>
      <trkpt lat="45.04228" lon="6.53987">
        <ele>1883</ele>
        <time>2021-03-08T13:56:33Z</time>
      </trkpt>
      <trkpt lat="45.04235" lon="6.53986">
        <ele>1883</ele>
        <time>2021-03-08T13:56:40Z</time>
      </trkpt>
      <trkpt lat="45.04242" lon="6.53988">
        <ele>1883</ele>
        <time>2021-03-08T13:56:47Z</time>
      </trkpt>
      <trkpt lat="45.04249" lon="6.53989">
        <ele>1883</ele>
        <time>2021-03-08T13:56:55Z</time>
      </trkpt>
      <trkpt lat="45.04253" lon="6.5399">
        <ele>1883</ele>
        <time>2021-03-08T13:57:00Z</time>
      </trkpt>
      <trkpt lat="45.0426" lon="6.53988">
        <ele>1885</ele>
        <time>2021-03-08T13:57:07Z</time>
      </trkpt>
      <trkpt lat="45.04267" lon="6.53985">
        <ele>1885</ele>
        <time>2021-03-08T13:57:14Z</time>
      </trkpt>
      <trkpt lat="45.04274" lon="6.53983">
        <ele>1885</ele>
        <time>2021-03-08T13:57:20Z</time>
      </trkpt>
      <trkpt lat="45.04281" lon="6.5398">
        <ele>1886</ele>
        <time>2021-03-08T13:57:30Z</time>
      </trkpt>
      <trkpt lat="45.04286" lon="6.53978">
        <ele>1888</ele>
        <time>2021-03-08T13:57:36Z</time>
      </trkpt>
      <trkpt lat="45.04292" lon="6.53974">
        <ele>1889</ele>
        <time>2021-03-08T13:57:41Z</time>
      </trkpt>
      <trkpt lat="45.04295" lon="6.53973">
        <ele>1889</ele>
        <time>2021-03-08T13:57:45Z</time>
      </trkpt>
      <trkpt lat="45.04299" lon="6.53972">
        <ele>1890</ele>
        <time>2021-03-08T13:57:51Z</time>
      </trkpt>
      <trkpt lat="45.04302" lon="6.5397">
        <ele>1890</ele>
        <time>2021-03-08T13:57:55Z</time>
      </trkpt>
      <trkpt lat="45.04306" lon="6.53968">
        <ele>1889</ele>
        <time>2021-03-08T13:58:01Z</time>
      </trkpt>
      <trkpt lat="45.0431" lon="6.53964">
        <ele>1889</ele>
        <time>2021-03-08T13:58:06Z</time>
      </trkpt>
      <trkpt lat="45.04313" lon="6.53962">
        <ele>1889</ele>
        <time>2021-03-08T13:58:09Z</time>
      </trkpt>
      <trkpt lat="45.04316" lon="6.5396">
        <ele>1891</ele>
        <time>2021-03-08T13:58:12Z</time>
      </trkpt>
      <trkpt lat="45.04318" lon="6.53958">
        <ele>1891</ele>
        <time>2021-03-08T13:58:15Z</time>
      </trkpt>
      <trkpt lat="45.04321" lon="6.53956">
        <ele>1891</ele>
        <time>2021-03-08T13:58:18Z</time>
      </trkpt>
      <trkpt lat="45.04324" lon="6.53954">
        <ele>1892</ele>
        <time>2021-03-08T13:58:21Z</time>
      </trkpt>
      <trkpt lat="45.04328" lon="6.53951">
        <ele>1892</ele>
        <time>2021-03-08T13:58:27Z</time>
      </trkpt>
      <trkpt lat="45.04333" lon="6.53949">
        <ele>1892</ele>
        <time>2021-03-08T13:58:32Z</time>
      </trkpt>
      <trkpt lat="45.04339" lon="6.53944">
        <ele>1892</ele>
        <time>2021-03-08T13:58:39Z</time>
      </trkpt>
      <trkpt lat="45.04346" lon="6.53943">
        <ele>1893</ele>
        <time>2021-03-08T13:58:47Z</time>
      </trkpt>
      <trkpt lat="45.04353" lon="6.5394">
        <ele>1894</ele>
        <time>2021-03-08T13:58:53Z</time>
      </trkpt>
      <trkpt lat="45.04358" lon="6.53937">
        <ele>1894</ele>
        <time>2021-03-08T13:59:00Z</time>
      </trkpt>
      <trkpt lat="45.04364" lon="6.53932">
        <ele>1895</ele>
        <time>2021-03-08T13:59:06Z</time>
      </trkpt>
      <trkpt lat="45.04369" lon="6.53927">
        <ele>1896</ele>
        <time>2021-03-08T13:59:12Z</time>
      </trkpt>
      <trkpt lat="45.04375" lon="6.53922">
        <ele>1896</ele>
        <time>2021-03-08T13:59:19Z</time>
      </trkpt>
      <trkpt lat="45.04382" lon="6.53917">
        <ele>1898</ele>
        <time>2021-03-08T13:59:26Z</time>
      </trkpt>
      <trkpt lat="45.04388" lon="6.53912">
        <ele>1898</ele>
        <time>2021-03-08T13:59:32Z</time>
      </trkpt>
      <trkpt lat="45.04395" lon="6.53906">
        <ele>1900</ele>
        <time>2021-03-08T13:59:41Z</time>
      </trkpt>
      <trkpt lat="45.04401" lon="6.53901">
        <ele>1900</ele>
        <time>2021-03-08T13:59:49Z</time>
      </trkpt>
      <trkpt lat="45.04407" lon="6.53893">
        <ele>1901</ele>
        <time>2021-03-08T13:59:57Z</time>
      </trkpt>
      <trkpt lat="45.04411" lon="6.53887">
        <ele>1902</ele>
        <time>2021-03-08T14:00:03Z</time>
      </trkpt>
      <trkpt lat="45.04415" lon="6.53882">
        <ele>1902</ele>
        <time>2021-03-08T14:00:09Z</time>
      </trkpt>
      <trkpt lat="45.04418" lon="6.53878">
        <ele>1903</ele>
        <time>2021-03-08T14:00:14Z</time>
      </trkpt>
      <trkpt lat="45.04425" lon="6.5387">
        <ele>1904</ele>
        <time>2021-03-08T14:00:26Z</time>
      </trkpt>
      <trkpt lat="45.04427" lon="6.53866">
        <ele>1904</ele>
        <time>2021-03-08T14:00:30Z</time>
      </trkpt>
      <trkpt lat="45.04429" lon="6.53861">
        <ele>1906</ele>
        <time>2021-03-08T14:00:35Z</time>
      </trkpt>
      <trkpt lat="45.04436" lon="6.53853">
        <ele>1907</ele>
        <time>2021-03-08T14:00:45Z</time>
      </trkpt>
      <trkpt lat="45.04439" lon="6.53849">
        <ele>1907</ele>
        <time>2021-03-08T14:00:49Z</time>
      </trkpt>
      <trkpt lat="45.04441" lon="6.53846">
        <ele>1908</ele>
        <time>2021-03-08T14:00:52Z</time>
      </trkpt>
      <trkpt lat="45.04443" lon="6.53843">
        <ele>1908</ele>
        <time>2021-03-08T14:00:55Z</time>
      </trkpt>
      <trkpt lat="45.04445" lon="6.53839">
        <ele>1908</ele>
        <time>2021-03-08T14:00:59Z</time>
      </trkpt>
      <trkpt lat="45.0445" lon="6.53832">
        <ele>1909</ele>
        <time>2021-03-08T14:01:05Z</time>
      </trkpt>
      <trkpt lat="45.04453" lon="6.53829">
        <ele>1909</ele>
        <time>2021-03-08T14:01:09Z</time>
      </trkpt>
      <trkpt lat="45.04459" lon="6.53822">
        <ele>1909</ele>
        <time>2021-03-08T14:01:17Z</time>
      </trkpt>
      <trkpt lat="45.04464" lon="6.53818">
        <ele>1910</ele>
        <time>2021-03-08T14:01:23Z</time>
      </trkpt>
      <trkpt lat="45.0447" lon="6.53812">
        <ele>1911</ele>
        <time>2021-03-08T14:01:31Z</time>
      </trkpt>
      <trkpt lat="45.04475" lon="6.53806">
        <ele>1911</ele>
        <time>2021-03-08T14:01:38Z</time>
      </trkpt>
      <trkpt lat="45.04482" lon="6.53802">
        <ele>1913</ele>
        <time>2021-03-08T14:01:44Z</time>
      </trkpt>
      <trkpt lat="45.04489" lon="6.538">
        <ele>1913</ele>
        <time>2021-03-08T14:01:50Z</time>
      </trkpt>
      <trkpt lat="45.04495" lon="6.53798">
        <ele>1913</ele>
        <time>2021-03-08T14:01:56Z</time>
      </trkpt>
      <trkpt lat="45.04502" lon="6.53794">
        <ele>1914</ele>
        <time>2021-03-08T14:02:04Z</time>
      </trkpt>
      <trkpt lat="45.04508" lon="6.53788">
        <ele>1917</ele>
        <time>2021-03-08T14:02:13Z</time>
      </trkpt>
      <trkpt lat="45.04514" lon="6.53782">
        <ele>1917</ele>
        <time>2021-03-08T14:02:20Z</time>
      </trkpt>
      <trkpt lat="45.04519" lon="6.53774">
        <ele>1917</ele>
        <time>2021-03-08T14:02:27Z</time>
      </trkpt>
      <trkpt lat="45.04524" lon="6.53765">
        <ele>1919</ele>
        <time>2021-03-08T14:02:35Z</time>
      </trkpt>
      <trkpt lat="45.04529" lon="6.53758">
        <ele>1919</ele>
        <time>2021-03-08T14:02:41Z</time>
      </trkpt>
      <trkpt lat="45.04536" lon="6.53753">
        <ele>1919</ele>
        <time>2021-03-08T14:02:48Z</time>
      </trkpt>
      <trkpt lat="45.04542" lon="6.53747">
        <ele>1920</ele>
        <time>2021-03-08T14:02:55Z</time>
      </trkpt>
      <trkpt lat="45.04547" lon="6.5374">
        <ele>1922</ele>
        <time>2021-03-08T14:03:02Z</time>
      </trkpt>
      <trkpt lat="45.04555" lon="6.53733">
        <ele>1922</ele>
        <time>2021-03-08T14:03:12Z</time>
      </trkpt>
      <trkpt lat="45.04564" lon="6.53727">
        <ele>1925</ele>
        <time>2021-03-08T14:03:23Z</time>
      </trkpt>
      <trkpt lat="45.04572" lon="6.53721">
        <ele>1926</ele>
        <time>2021-03-08T14:03:31Z</time>
      </trkpt>
      <trkpt lat="45.0458" lon="6.53711">
        <ele>1926</ele>
        <time>2021-03-08T14:03:42Z</time>
      </trkpt>
      <trkpt lat="45.04585" lon="6.53699">
        <ele>1927</ele>
        <time>2021-03-08T14:03:54Z</time>
      </trkpt>
      <trkpt lat="45.04589" lon="6.5369">
        <ele>1928</ele>
        <time>2021-03-08T14:04:02Z</time>
      </trkpt>
      <trkpt lat="45.04593" lon="6.5368">
        <ele>1928</ele>
        <time>2021-03-08T14:04:11Z</time>
      </trkpt>
      <trkpt lat="45.04599" lon="6.53672">
        <ele>1928</ele>
        <time>2021-03-08T14:04:18Z</time>
      </trkpt>
      <trkpt lat="45.04604" lon="6.53667">
        <ele>1929</ele>
        <time>2021-03-08T14:04:24Z</time>
      </trkpt>
      <trkpt lat="45.04612" lon="6.53664">
        <ele>1930</ele>
        <time>2021-03-08T14:04:31Z</time>
      </trkpt>
      <trkpt lat="45.04619" lon="6.5366">
        <ele>1930</ele>
        <time>2021-03-08T14:04:38Z</time>
      </trkpt>
      <trkpt lat="45.04627" lon="6.53659">
        <ele>1932</ele>
        <time>2021-03-08T14:04:47Z</time>
      </trkpt>
      <trkpt lat="45.04635" lon="6.53657">
        <ele>1932</ele>
        <time>2021-03-08T14:04:55Z</time>
      </trkpt>
      <trkpt lat="45.04641" lon="6.53653">
        <ele>1932</ele>
        <time>2021-03-08T14:05:01Z</time>
      </trkpt>
      <trkpt lat="45.04648" lon="6.5365">
        <ele>1932</ele>
        <time>2021-03-08T14:05:08Z</time>
      </trkpt>
      <trkpt lat="45.04655" lon="6.53648">
        <ele>1933</ele>
        <time>2021-03-08T14:05:17Z</time>
      </trkpt>
      <trkpt lat="45.0466" lon="6.53644">
        <ele>1933</ele>
        <time>2021-03-08T14:05:22Z</time>
      </trkpt>
      <trkpt lat="45.04667" lon="6.53643">
        <ele>1933</ele>
        <time>2021-03-08T14:05:29Z</time>
      </trkpt>
      <trkpt lat="45.04673" lon="6.53641">
        <ele>1934</ele>
        <time>2021-03-08T14:05:36Z</time>
      </trkpt>
      <trkpt lat="45.04678" lon="6.53639">
        <ele>1934</ele>
        <time>2021-03-08T14:05:41Z</time>
      </trkpt>
      <trkpt lat="45.04684" lon="6.53639">
        <ele>1934</ele>
        <time>2021-03-08T14:05:47Z</time>
      </trkpt>
      <trkpt lat="45.04691" lon="6.53637">
        <ele>1936</ele>
        <time>2021-03-08T14:05:54Z</time>
      </trkpt>
      <trkpt lat="45.04696" lon="6.53634">
        <ele>1936</ele>
        <time>2021-03-08T14:05:59Z</time>
      </trkpt>
      <trkpt lat="45.04702" lon="6.53633">
        <ele>1936</ele>
        <time>2021-03-08T14:06:05Z</time>
      </trkpt>
      <trkpt lat="45.04707" lon="6.53633">
        <ele>1937</ele>
        <time>2021-03-08T14:06:11Z</time>
      </trkpt>
      <trkpt lat="45.04714" lon="6.5363">
        <ele>1937</ele>
        <time>2021-03-08T14:06:18Z</time>
      </trkpt>
      <trkpt lat="45.0472" lon="6.53628">
        <ele>1938</ele>
        <time>2021-03-08T14:06:24Z</time>
      </trkpt>
      <trkpt lat="45.04726" lon="6.53626">
        <ele>1938</ele>
        <time>2021-03-08T14:06:30Z</time>
      </trkpt>
      <trkpt lat="45.04732" lon="6.53623">
        <ele>1938</ele>
        <time>2021-03-08T14:06:36Z</time>
      </trkpt>
      <trkpt lat="45.04738" lon="6.5362">
        <ele>1939</ele>
        <time>2021-03-08T14:06:43Z</time>
      </trkpt>
      <trkpt lat="45.04744" lon="6.53618">
        <ele>1939</ele>
        <time>2021-03-08T14:06:50Z</time>
      </trkpt>
      <trkpt lat="45.0475" lon="6.53615">
        <ele>1940</ele>
        <time>2021-03-08T14:06:59Z</time>
      </trkpt>
      <trkpt lat="45.04758" lon="6.53615">
        <ele>1941</ele>
        <time>2021-03-08T14:07:09Z</time>
      </trkpt>
      <trkpt lat="45.04766" lon="6.53611">
        <ele>1941</ele>
        <time>2021-03-08T14:07:17Z</time>
      </trkpt>
      <trkpt lat="45.04773" lon="6.53607">
        <ele>1943</ele>
        <time>2021-03-08T14:07:26Z</time>
      </trkpt>
      <trkpt lat="45.04779" lon="6.53606">
        <ele>1945</ele>
        <time>2021-03-08T14:07:33Z</time>
      </trkpt>
      <trkpt lat="45.04786" lon="6.53604">
        <ele>1945</ele>
        <time>2021-03-08T14:07:40Z</time>
      </trkpt>
      <trkpt lat="45.04792" lon="6.53602">
        <ele>1944</ele>
        <time>2021-03-08T14:07:46Z</time>
      </trkpt>
      <trkpt lat="45.04796" lon="6.53601">
        <ele>1945</ele>
        <time>2021-03-08T14:07:52Z</time>
      </trkpt>
      <trkpt lat="45.04802" lon="6.53598">
        <ele>1945</ele>
        <time>2021-03-08T14:07:59Z</time>
      </trkpt>
      <trkpt lat="45.04806" lon="6.53596">
        <ele>1946</ele>
        <time>2021-03-08T14:08:04Z</time>
      </trkpt>
      <trkpt lat="45.04809" lon="6.53593">
        <ele>1946</ele>
        <time>2021-03-08T14:08:07Z</time>
      </trkpt>
      <trkpt lat="45.04813" lon="6.5359">
        <ele>1946</ele>
        <time>2021-03-08T14:08:10Z</time>
      </trkpt>
      <trkpt lat="45.04817" lon="6.53587">
        <ele>1946</ele>
        <time>2021-03-08T14:08:14Z</time>
      </trkpt>
      <trkpt lat="45.0482" lon="6.53584">
        <ele>1946</ele>
        <time>2021-03-08T14:08:19Z</time>
      </trkpt>
      <trkpt lat="45.04822" lon="6.53581">
        <ele>1947</ele>
        <time>2021-03-08T14:08:22Z</time>
      </trkpt>
      <trkpt lat="45.04826" lon="6.53577">
        <ele>1947</ele>
        <time>2021-03-08T14:08:26Z</time>
      </trkpt>
      <trkpt lat="45.0483" lon="6.53574">
        <ele>1947</ele>
        <time>2021-03-08T14:08:31Z</time>
      </trkpt>
      <trkpt lat="45.04834" lon="6.53571">
        <ele>1947</ele>
        <time>2021-03-08T14:08:36Z</time>
      </trkpt>
      <trkpt lat="45.04836" lon="6.53568">
        <ele>1947</ele>
        <time>2021-03-08T14:08:40Z</time>
      </trkpt>
      <trkpt lat="45.04841" lon="6.53565">
        <ele>1948</ele>
        <time>2021-03-08T14:08:49Z</time>
      </trkpt>
      <trkpt lat="45.04845" lon="6.53561">
        <ele>1948</ele>
        <time>2021-03-08T14:08:54Z</time>
      </trkpt>
      <trkpt lat="45.04849" lon="6.53559">
        <ele>1948</ele>
        <time>2021-03-08T14:08:57Z</time>
      </trkpt>
      <trkpt lat="45.04853" lon="6.53558">
        <ele>1948</ele>
        <time>2021-03-08T14:09:00Z</time>
      </trkpt>
      <trkpt lat="45.04857" lon="6.53556">
        <ele>1949</ele>
        <time>2021-03-08T14:09:04Z</time>
      </trkpt>
      <trkpt lat="45.04867" lon="6.53555">
        <ele>1949</ele>
        <time>2021-03-08T14:09:14Z</time>
      </trkpt>
      <trkpt lat="45.04871" lon="6.53555">
        <ele>1949</ele>
        <time>2021-03-08T14:09:17Z</time>
      </trkpt>
      <trkpt lat="45.04874" lon="6.53554">
        <ele>1949</ele>
        <time>2021-03-08T14:09:20Z</time>
      </trkpt>
      <trkpt lat="45.04878" lon="6.53553">
        <ele>1950</ele>
        <time>2021-03-08T14:09:23Z</time>
      </trkpt>
      <trkpt lat="45.04882" lon="6.53552">
        <ele>1950</ele>
        <time>2021-03-08T14:09:28Z</time>
      </trkpt>
      <trkpt lat="45.04888" lon="6.53551">
        <ele>1950</ele>
        <time>2021-03-08T14:09:33Z</time>
      </trkpt>
      <trkpt lat="45.04894" lon="6.53551">
        <ele>1950</ele>
        <time>2021-03-08T14:09:38Z</time>
      </trkpt>
      <trkpt lat="45.04899" lon="6.53551">
        <ele>1951</ele>
        <time>2021-03-08T14:09:43Z</time>
      </trkpt>
      <trkpt lat="45.04909" lon="6.5355">
        <ele>1951</ele>
        <time>2021-03-08T14:09:54Z</time>
      </trkpt>
      <trkpt lat="45.04918" lon="6.53548">
        <ele>1952</ele>
        <time>2021-03-08T14:10:03Z</time>
      </trkpt>
      <trkpt lat="45.04929" lon="6.53546">
        <ele>1952</ele>
        <time>2021-03-08T14:10:17Z</time>
      </trkpt>
      <trkpt lat="45.04939" lon="6.53541">
        <ele>1953</ele>
        <time>2021-03-08T14:10:26Z</time>
      </trkpt>
      <trkpt lat="45.04948" lon="6.53537">
        <ele>1955</ele>
        <time>2021-03-08T14:10:34Z</time>
      </trkpt>
      <trkpt lat="45.04956" lon="6.53535">
        <ele>1954</ele>
        <time>2021-03-08T14:10:41Z</time>
      </trkpt>
      <trkpt lat="45.04964" lon="6.53531">
        <ele>1954</ele>
        <time>2021-03-08T14:10:48Z</time>
      </trkpt>
      <trkpt lat="45.04973" lon="6.53528">
        <ele>1954</ele>
        <time>2021-03-08T14:10:56Z</time>
      </trkpt>
      <trkpt lat="45.04979" lon="6.53526">
        <ele>1954</ele>
        <time>2021-03-08T14:11:02Z</time>
      </trkpt>
      <trkpt lat="45.04989" lon="6.53527">
        <ele>1955</ele>
        <time>2021-03-08T14:11:22Z</time>
      </trkpt>
      <trkpt lat="45.05" lon="6.53529">
        <ele>1956</ele>
        <time>2021-03-08T14:11:35Z</time>
      </trkpt>
      <trkpt lat="45.0501" lon="6.5353">
        <ele>1956</ele>
        <time>2021-03-08T14:11:44Z</time>
      </trkpt>
      <trkpt lat="45.0502" lon="6.5353">
        <ele>1957</ele>
        <time>2021-03-08T14:11:54Z</time>
      </trkpt>
      <trkpt lat="45.0503" lon="6.53531">
        <ele>1957</ele>
        <time>2021-03-08T14:12:03Z</time>
      </trkpt>
      <trkpt lat="45.0504" lon="6.53528">
        <ele>1959</ele>
        <time>2021-03-08T14:12:11Z</time>
      </trkpt>
      <trkpt lat="45.05049" lon="6.5352">
        <ele>1959</ele>
        <time>2021-03-08T14:12:19Z</time>
      </trkpt>
      <trkpt lat="45.05057" lon="6.5351">
        <ele>1959</ele>
        <time>2021-03-08T14:12:26Z</time>
      </trkpt>
      <trkpt lat="45.05064" lon="6.53499">
        <ele>1959</ele>
        <time>2021-03-08T14:12:35Z</time>
      </trkpt>
      <trkpt lat="45.05072" lon="6.53488">
        <ele>1959</ele>
        <time>2021-03-08T14:12:44Z</time>
      </trkpt>
      <trkpt lat="45.05078" lon="6.53477">
        <ele>1959</ele>
        <time>2021-03-08T14:12:52Z</time>
      </trkpt>
      <trkpt lat="45.05085" lon="6.53466">
        <ele>1958</ele>
        <time>2021-03-08T14:13:01Z</time>
      </trkpt>
      <trkpt lat="45.05094" lon="6.53459">
        <ele>1958</ele>
        <time>2021-03-08T14:13:09Z</time>
      </trkpt>
      <trkpt lat="45.05102" lon="6.53452">
        <ele>1959</ele>
        <time>2021-03-08T14:13:19Z</time>
      </trkpt>
      <trkpt lat="45.05111" lon="6.53442">
        <ele>1959</ele>
        <time>2021-03-08T14:13:29Z</time>
      </trkpt>
      <trkpt lat="45.05118" lon="6.53433">
        <ele>1959</ele>
        <time>2021-03-08T14:13:38Z</time>
      </trkpt>
      <trkpt lat="45.05126" lon="6.53423">
        <ele>1960</ele>
        <time>2021-03-08T14:13:47Z</time>
      </trkpt>
      <trkpt lat="45.05129" lon="6.53418">
        <ele>1960</ele>
        <time>2021-03-08T14:13:52Z</time>
      </trkpt>
      <trkpt lat="45.05134" lon="6.53413">
        <ele>1960</ele>
        <time>2021-03-08T14:13:58Z</time>
      </trkpt>
      <trkpt lat="45.0514" lon="6.53406">
        <ele>1961</ele>
        <time>2021-03-08T14:14:06Z</time>
      </trkpt>
      <trkpt lat="45.05146" lon="6.53395">
        <ele>1961</ele>
        <time>2021-03-08T14:14:17Z</time>
      </trkpt>
      <trkpt lat="45.05153" lon="6.53386">
        <ele>1962</ele>
        <time>2021-03-08T14:14:30Z</time>
      </trkpt>
      <trkpt lat="45.05161" lon="6.53379">
        <ele>1965</ele>
        <time>2021-03-08T14:14:43Z</time>
      </trkpt>
      <trkpt lat="45.05172" lon="6.53378">
        <ele>1965</ele>
        <time>2021-03-08T14:14:54Z</time>
      </trkpt>
      <trkpt lat="45.05182" lon="6.53375">
        <ele>1969</ele>
        <time>2021-03-08T14:15:05Z</time>
      </trkpt>
      <trkpt lat="45.05185" lon="6.53361">
        <ele>1970</ele>
        <time>2021-03-08T14:15:16Z</time>
      </trkpt>
      <trkpt lat="45.05191" lon="6.53349">
        <ele>1971</ele>
        <time>2021-03-08T14:15:28Z</time>
      </trkpt>
      <trkpt lat="45.05186" lon="6.53341">
        <ele>1971</ele>
        <time>2021-03-08T14:15:43Z</time>
      </trkpt>
      <trkpt lat="45.05193" lon="6.53331">
        <ele>1973</ele>
        <time>2021-03-08T14:16:53Z</time>
      </trkpt>
      <trkpt lat="45.05201" lon="6.53325">
        <ele>1974</ele>
        <time>2021-03-08T14:17:04Z</time>
      </trkpt>
      <trkpt lat="45.05209" lon="6.53319">
        <ele>1974</ele>
        <time>2021-03-08T14:17:13Z</time>
      </trkpt>
      <trkpt lat="45.05216" lon="6.53312">
        <ele>1974</ele>
        <time>2021-03-08T14:17:22Z</time>
      </trkpt>
      <trkpt lat="45.05225" lon="6.53303">
        <ele>1975</ele>
        <time>2021-03-08T14:17:33Z</time>
      </trkpt>
      <trkpt lat="45.05232" lon="6.53293">
        <ele>1975</ele>
        <time>2021-03-08T14:17:45Z</time>
      </trkpt>
      <trkpt lat="45.0524" lon="6.53284">
        <ele>1976</ele>
        <time>2021-03-08T14:17:57Z</time>
      </trkpt>
      <trkpt lat="45.05248" lon="6.53277">
        <ele>1977</ele>
        <time>2021-03-08T14:18:05Z</time>
      </trkpt>
      <trkpt lat="45.05255" lon="6.53267">
        <ele>1978</ele>
        <time>2021-03-08T14:18:15Z</time>
      </trkpt>
      <trkpt lat="45.05261" lon="6.53256">
        <ele>1979</ele>
        <time>2021-03-08T14:18:24Z</time>
      </trkpt>
      <trkpt lat="45.05267" lon="6.53244">
        <ele>1979</ele>
        <time>2021-03-08T14:18:32Z</time>
      </trkpt>
      <trkpt lat="45.05272" lon="6.53231">
        <ele>1980</ele>
        <time>2021-03-08T14:18:42Z</time>
      </trkpt>
      <trkpt lat="45.05278" lon="6.53219">
        <ele>1980</ele>
        <time>2021-03-08T14:18:55Z</time>
      </trkpt>
      <trkpt lat="45.05287" lon="6.53211">
        <ele>1982</ele>
        <time>2021-03-08T14:19:06Z</time>
      </trkpt>
      <trkpt lat="45.05297" lon="6.53206">
        <ele>1982</ele>
        <time>2021-03-08T14:19:16Z</time>
      </trkpt>
      <trkpt lat="45.05306" lon="6.53201">
        <ele>1982</ele>
        <time>2021-03-08T14:19:26Z</time>
      </trkpt>
      <trkpt lat="45.05316" lon="6.53196">
        <ele>1982</ele>
        <time>2021-03-08T14:19:34Z</time>
      </trkpt>
      <trkpt lat="45.05325" lon="6.53189">
        <ele>1984</ele>
        <time>2021-03-08T14:19:47Z</time>
      </trkpt>
      <trkpt lat="45.05335" lon="6.53182">
        <ele>1985</ele>
        <time>2021-03-08T14:19:57Z</time>
      </trkpt>
      <trkpt lat="45.05344" lon="6.53176">
        <ele>1985</ele>
        <time>2021-03-08T14:20:06Z</time>
      </trkpt>
      <trkpt lat="45.05354" lon="6.5317">
        <ele>1987</ele>
        <time>2021-03-08T14:20:15Z</time>
      </trkpt>
      <trkpt lat="45.05363" lon="6.53165">
        <ele>1986</ele>
        <time>2021-03-08T14:20:25Z</time>
      </trkpt>
      <trkpt lat="45.05374" lon="6.53163">
        <ele>1986</ele>
        <time>2021-03-08T14:20:36Z</time>
      </trkpt>
      <trkpt lat="45.05382" lon="6.5316">
        <ele>1985</ele>
        <time>2021-03-08T14:20:43Z</time>
      </trkpt>
      <trkpt lat="45.05392" lon="6.53157">
        <ele>1985</ele>
        <time>2021-03-08T14:20:53Z</time>
      </trkpt>
      <trkpt lat="45.05402" lon="6.53153">
        <ele>1985</ele>
        <time>2021-03-08T14:21:02Z</time>
      </trkpt>
      <trkpt lat="45.05412" lon="6.53151">
        <ele>1985</ele>
        <time>2021-03-08T14:21:10Z</time>
      </trkpt>
      <trkpt lat="45.05422" lon="6.5315">
        <ele>1985</ele>
        <time>2021-03-08T14:21:17Z</time>
      </trkpt>
      <trkpt lat="45.05433" lon="6.53149">
        <ele>1984</ele>
        <time>2021-03-08T14:21:27Z</time>
      </trkpt>
      <trkpt lat="45.05442" lon="6.53145">
        <ele>1984</ele>
        <time>2021-03-08T14:21:36Z</time>
      </trkpt>
      <trkpt lat="45.05452" lon="6.5314">
        <ele>1985</ele>
        <time>2021-03-08T14:21:45Z</time>
      </trkpt>
      <trkpt lat="45.05462" lon="6.53138">
        <ele>1985</ele>
        <time>2021-03-08T14:21:55Z</time>
      </trkpt>
      <trkpt lat="45.05473" lon="6.53136">
        <ele>1983</ele>
        <time>2021-03-08T14:22:07Z</time>
      </trkpt>
      <trkpt lat="45.05483" lon="6.53138">
        <ele>1985</ele>
        <time>2021-03-08T14:22:22Z</time>
      </trkpt>
      <trkpt lat="45.05494" lon="6.53137">
        <ele>1986</ele>
        <time>2021-03-08T14:22:36Z</time>
      </trkpt>
      <trkpt lat="45.05504" lon="6.53136">
        <ele>1988</ele>
        <time>2021-03-08T14:22:47Z</time>
      </trkpt>
      <trkpt lat="45.05514" lon="6.53136">
        <ele>1989</ele>
        <time>2021-03-08T14:22:56Z</time>
      </trkpt>
      <trkpt lat="45.05525" lon="6.53135">
        <ele>1988</ele>
        <time>2021-03-08T14:23:05Z</time>
      </trkpt>
      <trkpt lat="45.05535" lon="6.53132">
        <ele>1989</ele>
        <time>2021-03-08T14:23:15Z</time>
      </trkpt>
      <trkpt lat="45.05541" lon="6.53127">
        <ele>1990</ele>
        <time>2021-03-08T14:23:23Z</time>
      </trkpt>
      <trkpt lat="45.05549" lon="6.53123">
        <ele>1990</ele>
        <time>2021-03-08T14:23:30Z</time>
      </trkpt>
      <trkpt lat="45.05555" lon="6.5312">
        <ele>1991</ele>
        <time>2021-03-08T14:23:36Z</time>
      </trkpt>
      <trkpt lat="45.05562" lon="6.53116">
        <ele>1992</ele>
        <time>2021-03-08T14:23:43Z</time>
      </trkpt>
      <trkpt lat="45.05568" lon="6.53114">
        <ele>1992</ele>
        <time>2021-03-08T14:23:50Z</time>
      </trkpt>
      <trkpt lat="45.05574" lon="6.53115">
        <ele>1992</ele>
        <time>2021-03-08T14:23:58Z</time>
      </trkpt>
      <trkpt lat="45.05581" lon="6.53118">
        <ele>1992</ele>
        <time>2021-03-08T14:24:09Z</time>
      </trkpt>
      <trkpt lat="45.0559" lon="6.53123">
        <ele>1997</ele>
        <time>2021-03-08T14:24:22Z</time>
      </trkpt>
      <trkpt lat="45.05597" lon="6.53125">
        <ele>1997</ele>
        <time>2021-03-08T14:24:29Z</time>
      </trkpt>
      <trkpt lat="45.05604" lon="6.53125">
        <ele>1998</ele>
        <time>2021-03-08T14:24:36Z</time>
      </trkpt>
      <trkpt lat="45.05611" lon="6.53124">
        <ele>1999</ele>
        <time>2021-03-08T14:24:44Z</time>
      </trkpt>
      <trkpt lat="45.05618" lon="6.53123">
        <ele>1999</ele>
        <time>2021-03-08T14:24:51Z</time>
      </trkpt>
      <trkpt lat="45.05628" lon="6.53122">
        <ele>1999</ele>
        <time>2021-03-08T14:25:03Z</time>
      </trkpt>
      <trkpt lat="45.05636" lon="6.53119">
        <ele>2000</ele>
        <time>2021-03-08T14:25:13Z</time>
      </trkpt>
      <trkpt lat="45.05646" lon="6.53113">
        <ele>2001</ele>
        <time>2021-03-08T14:25:24Z</time>
      </trkpt>
      <trkpt lat="45.05653" lon="6.53109">
        <ele>2002</ele>
        <time>2021-03-08T14:25:36Z</time>
      </trkpt>
      <trkpt lat="45.05664" lon="6.53109">
        <ele>2003</ele>
        <time>2021-03-08T14:25:48Z</time>
      </trkpt>
      <trkpt lat="45.05674" lon="6.53105">
        <ele>2004</ele>
        <time>2021-03-08T14:26:00Z</time>
      </trkpt>
      <trkpt lat="45.05683" lon="6.53104">
        <ele>2004</ele>
        <time>2021-03-08T14:26:09Z</time>
      </trkpt>
      <trkpt lat="45.05691" lon="6.53101">
        <ele>2004</ele>
        <time>2021-03-08T14:26:18Z</time>
      </trkpt>
      <trkpt lat="45.05699" lon="6.53098">
        <ele>2005</ele>
        <time>2021-03-08T14:26:27Z</time>
      </trkpt>
      <trkpt lat="45.05705" lon="6.53096">
        <ele>2005</ele>
        <time>2021-03-08T14:26:35Z</time>
      </trkpt>
      <trkpt lat="45.05715" lon="6.53092">
        <ele>2007</ele>
        <time>2021-03-08T14:26:47Z</time>
      </trkpt>
      <trkpt lat="45.05722" lon="6.53084">
        <ele>2010</ele>
        <time>2021-03-08T14:26:57Z</time>
      </trkpt>
      <trkpt lat="45.05729" lon="6.53073">
        <ele>2010</ele>
        <time>2021-03-08T14:27:10Z</time>
      </trkpt>
      <trkpt lat="45.05736" lon="6.53061">
        <ele>2013</ele>
        <time>2021-03-08T14:27:22Z</time>
      </trkpt>
      <trkpt lat="45.05742" lon="6.53051">
        <ele>2013</ele>
        <time>2021-03-08T14:27:33Z</time>
      </trkpt>
      <trkpt lat="45.05745" lon="6.53037">
        <ele>2013</ele>
        <time>2021-03-08T14:27:44Z</time>
      </trkpt>
      <trkpt lat="45.05749" lon="6.53024">
        <ele>2013</ele>
        <time>2021-03-08T14:27:55Z</time>
      </trkpt>
      <trkpt lat="45.05754" lon="6.53011">
        <ele>2013</ele>
        <time>2021-03-08T14:28:06Z</time>
      </trkpt>
      <trkpt lat="45.05757" lon="6.52998">
        <ele>2014</ele>
        <time>2021-03-08T14:28:15Z</time>
      </trkpt>
      <trkpt lat="45.05762" lon="6.52992">
        <ele>2015</ele>
        <time>2021-03-08T14:28:21Z</time>
      </trkpt>
      <trkpt lat="45.05765" lon="6.5299">
        <ele>2015</ele>
        <time>2021-03-08T14:28:31Z</time>
      </trkpt>
    </trkseg>
  </trk>
</gpx>